﻿<?xml version="1.0" encoding="UTF-8" standalone="no" ?>
<gpx xmlns="http://www.topografix.com/GPX/1/1" creator="CompeGPS" version="1.1" xmlns:xsi="http://www.w3.org/2001/XMLSchema-instance" xsi:schemaLocation="http://www.topografix.com/GPX/1/1 http://www.topografix.com/GPX/1/1/gpx.xsd http://www.garmin.com/xmlschemas/GpxExtensions/v3 http://www.garmin.com/xmlschemas/GpxExtensionsv3.xsd http://www.garmin.com/xmlschemas/TrackPointExtension/v1 http://www.garmin.com/xmlschemas/TrackPointExtensionv1.xsd" xmlns:gpxtpx="http://www.garmin.com/xmlschemas/TrackPointExtension/v1">
  <metadata>
    <link href="http://www.compegps.com">
      <text>CompeGPS TEAM, SL</text>
    </link>
    <time>2015-04-14T21:07:53Z</time>
    <bounds maxlat="42.835437" maxlon="0.937981" minlat="42.804574" minlon="0.893310"/>
  </metadata>
  <trk>
    <name>tartereau</name>
    <trkseg>
      <trkpt lat="42.834571" lon="0.937914">
        <ele>939.6</ele>
        <time>2015-04-12T04:48:29Z</time>
      </trkpt>
      <trkpt lat="42.834522" lon="0.937927">
        <ele>939.1</ele>
        <time>2015-04-12T04:52:13Z</time>
      </trkpt>
      <trkpt lat="42.834456" lon="0.937916">
        <ele>939.7</ele>
        <time>2015-04-12T04:52:48Z</time>
      </trkpt>
      <trkpt lat="42.834364" lon="0.937917">
        <ele>940.0</ele>
        <time>2015-04-12T04:52:56Z</time>
      </trkpt>
      <trkpt lat="42.834275" lon="0.937915">
        <ele>940.5</ele>
        <time>2015-04-12T04:53:04Z</time>
      </trkpt>
      <trkpt lat="42.834181" lon="0.937889">
        <ele>941.2</ele>
        <time>2015-04-12T04:53:13Z</time>
      </trkpt>
      <trkpt lat="42.834078" lon="0.937904">
        <ele>941.8</ele>
        <time>2015-04-12T04:53:22Z</time>
      </trkpt>
      <trkpt lat="42.833978" lon="0.937905">
        <ele>942.5</ele>
        <time>2015-04-12T04:53:30Z</time>
      </trkpt>
      <trkpt lat="42.833876" lon="0.937898">
        <ele>943.2</ele>
        <time>2015-04-12T04:53:40Z</time>
      </trkpt>
      <trkpt lat="42.833769" lon="0.937916">
        <ele>943.8</ele>
        <time>2015-04-12T04:53:49Z</time>
      </trkpt>
      <trkpt lat="42.833678" lon="0.937893">
        <ele>944.3</ele>
        <time>2015-04-12T04:53:57Z</time>
      </trkpt>
      <trkpt lat="42.833577" lon="0.937867">
        <ele>945.1</ele>
        <time>2015-04-12T04:54:07Z</time>
      </trkpt>
      <trkpt lat="42.833482" lon="0.937786">
        <ele>945.4</ele>
        <time>2015-04-12T04:54:16Z</time>
      </trkpt>
      <trkpt lat="42.833393" lon="0.937735">
        <ele>946.0</ele>
        <time>2015-04-12T04:54:24Z</time>
      </trkpt>
      <trkpt lat="42.833301" lon="0.937696">
        <ele>947.1</ele>
        <time>2015-04-12T04:54:32Z</time>
      </trkpt>
      <trkpt lat="42.833206" lon="0.937641">
        <ele>948.3</ele>
        <time>2015-04-12T04:54:41Z</time>
      </trkpt>
      <trkpt lat="42.833104" lon="0.937596">
        <ele>949.5</ele>
        <time>2015-04-12T04:54:51Z</time>
      </trkpt>
      <trkpt lat="42.833009" lon="0.937539">
        <ele>950.5</ele>
        <time>2015-04-12T04:55:00Z</time>
      </trkpt>
      <trkpt lat="42.832930" lon="0.937629">
        <ele>951.9</ele>
        <time>2015-04-12T04:55:11Z</time>
      </trkpt>
      <trkpt lat="42.832876" lon="0.937747">
        <ele>952.5</ele>
        <time>2015-04-12T04:55:22Z</time>
      </trkpt>
      <trkpt lat="42.832851" lon="0.937875">
        <ele>953.4</ele>
        <time>2015-04-12T04:55:34Z</time>
      </trkpt>
      <trkpt lat="42.832795" lon="0.937981">
        <ele>955.5</ele>
        <time>2015-04-12T04:55:47Z</time>
      </trkpt>
      <trkpt lat="42.832705" lon="0.937922">
        <ele>958.3</ele>
        <time>2015-04-12T04:56:00Z</time>
      </trkpt>
      <trkpt lat="42.832606" lon="0.937918">
        <ele>960.6</ele>
        <time>2015-04-12T04:56:10Z</time>
      </trkpt>
      <trkpt lat="42.832508" lon="0.937903">
        <ele>961.8</ele>
        <time>2015-04-12T04:56:18Z</time>
      </trkpt>
      <trkpt lat="42.832413" lon="0.937882">
        <ele>962.4</ele>
        <time>2015-04-12T04:56:26Z</time>
      </trkpt>
      <trkpt lat="42.832321" lon="0.937843">
        <ele>963.0</ele>
        <time>2015-04-12T04:56:34Z</time>
      </trkpt>
      <trkpt lat="42.832225" lon="0.937796">
        <ele>963.8</ele>
        <time>2015-04-12T04:56:43Z</time>
      </trkpt>
      <trkpt lat="42.832113" lon="0.937758">
        <ele>964.7</ele>
        <time>2015-04-12T04:56:53Z</time>
      </trkpt>
      <trkpt lat="42.832023" lon="0.937717">
        <ele>965.8</ele>
        <time>2015-04-12T04:57:03Z</time>
      </trkpt>
      <trkpt lat="42.831941" lon="0.937638">
        <ele>966.7</ele>
        <time>2015-04-12T04:57:12Z</time>
      </trkpt>
      <trkpt lat="42.831867" lon="0.937586">
        <ele>967.6</ele>
        <time>2015-04-12T04:57:21Z</time>
      </trkpt>
      <trkpt lat="42.831791" lon="0.937496">
        <ele>968.0</ele>
        <time>2015-04-12T04:57:30Z</time>
      </trkpt>
      <trkpt lat="42.831723" lon="0.937403">
        <ele>968.5</ele>
        <time>2015-04-12T04:57:39Z</time>
      </trkpt>
      <trkpt lat="42.831628" lon="0.937335">
        <ele>969.1</ele>
        <time>2015-04-12T04:57:48Z</time>
      </trkpt>
      <trkpt lat="42.831534" lon="0.937280">
        <ele>969.9</ele>
        <time>2015-04-12T04:57:56Z</time>
      </trkpt>
      <trkpt lat="42.831440" lon="0.937287">
        <ele>970.8</ele>
        <time>2015-04-12T04:58:04Z</time>
      </trkpt>
      <trkpt lat="42.831338" lon="0.937291">
        <ele>971.7</ele>
        <time>2015-04-12T04:58:13Z</time>
      </trkpt>
      <trkpt lat="42.831243" lon="0.937297">
        <ele>972.8</ele>
        <time>2015-04-12T04:58:22Z</time>
      </trkpt>
      <trkpt lat="42.831142" lon="0.937313">
        <ele>974.0</ele>
        <time>2015-04-12T04:58:31Z</time>
      </trkpt>
      <trkpt lat="42.831047" lon="0.937338">
        <ele>975.2</ele>
        <time>2015-04-12T04:58:41Z</time>
      </trkpt>
      <trkpt lat="42.830959" lon="0.937311">
        <ele>976.2</ele>
        <time>2015-04-12T04:58:53Z</time>
      </trkpt>
      <trkpt lat="42.830854" lon="0.937241">
        <ele>977.3</ele>
        <time>2015-04-12T04:59:08Z</time>
      </trkpt>
      <trkpt lat="42.830756" lon="0.937208">
        <ele>978.5</ele>
        <time>2015-04-12T04:59:20Z</time>
      </trkpt>
      <trkpt lat="42.830665" lon="0.937132">
        <ele>979.3</ele>
        <time>2015-04-12T04:59:32Z</time>
      </trkpt>
      <trkpt lat="42.830569" lon="0.937026">
        <ele>980.0</ele>
        <time>2015-04-12T04:59:43Z</time>
      </trkpt>
      <trkpt lat="42.830458" lon="0.936950">
        <ele>980.9</ele>
        <time>2015-04-12T04:59:55Z</time>
      </trkpt>
      <trkpt lat="42.830350" lon="0.936872">
        <ele>982.1</ele>
        <time>2015-04-12T05:00:05Z</time>
      </trkpt>
      <trkpt lat="42.830239" lon="0.936835">
        <ele>983.4</ele>
        <time>2015-04-12T05:00:14Z</time>
      </trkpt>
      <trkpt lat="42.830125" lon="0.936838">
        <ele>984.9</ele>
        <time>2015-04-12T05:00:24Z</time>
      </trkpt>
      <trkpt lat="42.829996" lon="0.936807">
        <ele>985.9</ele>
        <time>2015-04-12T05:00:35Z</time>
      </trkpt>
      <trkpt lat="42.829913" lon="0.936815">
        <ele>987.2</ele>
        <time>2015-04-12T05:00:50Z</time>
      </trkpt>
      <trkpt lat="42.829812" lon="0.936812">
        <ele>987.9</ele>
        <time>2015-04-12T05:01:05Z</time>
      </trkpt>
      <trkpt lat="42.829719" lon="0.936849">
        <ele>989.2</ele>
        <time>2015-04-12T05:01:16Z</time>
      </trkpt>
      <trkpt lat="42.829605" lon="0.936866">
        <ele>990.7</ele>
        <time>2015-04-12T05:01:27Z</time>
      </trkpt>
      <trkpt lat="42.829485" lon="0.936909">
        <ele>991.9</ele>
        <time>2015-04-12T05:01:38Z</time>
      </trkpt>
      <trkpt lat="42.829362" lon="0.937041">
        <ele>992.8</ele>
        <time>2015-04-12T05:01:49Z</time>
      </trkpt>
      <trkpt lat="42.829271" lon="0.937128">
        <ele>993.3</ele>
        <time>2015-04-12T05:01:58Z</time>
      </trkpt>
      <trkpt lat="42.829165" lon="0.937152">
        <ele>993.7</ele>
        <time>2015-04-12T05:02:09Z</time>
      </trkpt>
      <trkpt lat="42.829052" lon="0.937157">
        <ele>994.3</ele>
        <time>2015-04-12T05:02:18Z</time>
      </trkpt>
      <trkpt lat="42.828935" lon="0.937157">
        <ele>995.4</ele>
        <time>2015-04-12T05:02:29Z</time>
      </trkpt>
      <trkpt lat="42.828836" lon="0.937185">
        <ele>996.2</ele>
        <time>2015-04-12T05:02:38Z</time>
      </trkpt>
      <trkpt lat="42.828731" lon="0.937197">
        <ele>997.3</ele>
        <time>2015-04-12T05:02:49Z</time>
      </trkpt>
      <trkpt lat="42.828616" lon="0.937186">
        <ele>998.4</ele>
        <time>2015-04-12T05:02:59Z</time>
      </trkpt>
      <trkpt lat="42.828509" lon="0.937149">
        <ele>999.2</ele>
        <time>2015-04-12T05:03:09Z</time>
      </trkpt>
      <trkpt lat="42.828392" lon="0.937108">
        <ele>1000.5</ele>
        <time>2015-04-12T05:03:21Z</time>
      </trkpt>
      <trkpt lat="42.828274" lon="0.937068">
        <ele>1002.8</ele>
        <time>2015-04-12T05:03:34Z</time>
      </trkpt>
      <trkpt lat="42.828177" lon="0.936984">
        <ele>1004.3</ele>
        <time>2015-04-12T05:03:45Z</time>
      </trkpt>
      <trkpt lat="42.828097" lon="0.936874">
        <ele>1005.9</ele>
        <time>2015-04-12T05:03:56Z</time>
      </trkpt>
      <trkpt lat="42.828045" lon="0.936745">
        <ele>1007.7</ele>
        <time>2015-04-12T05:04:08Z</time>
      </trkpt>
      <trkpt lat="42.827965" lon="0.936625">
        <ele>1010.0</ele>
        <time>2015-04-12T05:04:22Z</time>
      </trkpt>
      <trkpt lat="42.827918" lon="0.936479">
        <ele>1012.0</ele>
        <time>2015-04-12T05:04:36Z</time>
      </trkpt>
      <trkpt lat="42.827850" lon="0.936353">
        <ele>1014.0</ele>
        <time>2015-04-12T05:04:48Z</time>
      </trkpt>
      <trkpt lat="42.827791" lon="0.936225">
        <ele>1015.0</ele>
        <time>2015-04-12T05:05:00Z</time>
      </trkpt>
      <trkpt lat="42.827725" lon="0.936103">
        <ele>1016.1</ele>
        <time>2015-04-12T05:05:10Z</time>
      </trkpt>
      <trkpt lat="42.827632" lon="0.936009">
        <ele>1017.2</ele>
        <time>2015-04-12T05:05:21Z</time>
      </trkpt>
      <trkpt lat="42.827503" lon="0.935955">
        <ele>1018.1</ele>
        <time>2015-04-12T05:05:31Z</time>
      </trkpt>
      <trkpt lat="42.827391" lon="0.935921">
        <ele>1019.2</ele>
        <time>2015-04-12T05:05:40Z</time>
      </trkpt>
      <trkpt lat="42.827289" lon="0.935914">
        <ele>1020.1</ele>
        <time>2015-04-12T05:05:49Z</time>
      </trkpt>
      <trkpt lat="42.827190" lon="0.935902">
        <ele>1021.2</ele>
        <time>2015-04-12T05:05:57Z</time>
      </trkpt>
      <trkpt lat="42.827091" lon="0.935870">
        <ele>1022.0</ele>
        <time>2015-04-12T05:06:05Z</time>
      </trkpt>
      <trkpt lat="42.826997" lon="0.935839">
        <ele>1022.9</ele>
        <time>2015-04-12T05:06:13Z</time>
      </trkpt>
      <trkpt lat="42.826899" lon="0.935829">
        <ele>1023.9</ele>
        <time>2015-04-12T05:06:22Z</time>
      </trkpt>
      <trkpt lat="42.826801" lon="0.935830">
        <ele>1025.3</ele>
        <time>2015-04-12T05:06:32Z</time>
      </trkpt>
      <trkpt lat="42.826703" lon="0.935830">
        <ele>1026.4</ele>
        <time>2015-04-12T05:06:41Z</time>
      </trkpt>
      <trkpt lat="42.826614" lon="0.935774">
        <ele>1028.1</ele>
        <time>2015-04-12T05:06:52Z</time>
      </trkpt>
      <trkpt lat="42.826528" lon="0.935725">
        <ele>1029.3</ele>
        <time>2015-04-12T05:07:03Z</time>
      </trkpt>
      <trkpt lat="42.826445" lon="0.935634">
        <ele>1030.4</ele>
        <time>2015-04-12T05:07:12Z</time>
      </trkpt>
      <trkpt lat="42.826368" lon="0.935562">
        <ele>1031.4</ele>
        <time>2015-04-12T05:07:21Z</time>
      </trkpt>
      <trkpt lat="42.826281" lon="0.935511">
        <ele>1032.6</ele>
        <time>2015-04-12T05:07:31Z</time>
      </trkpt>
      <trkpt lat="42.826174" lon="0.935510">
        <ele>1034.5</ele>
        <time>2015-04-12T05:07:42Z</time>
      </trkpt>
      <trkpt lat="42.826050" lon="0.935500">
        <ele>1035.7</ele>
        <time>2015-04-12T05:07:52Z</time>
      </trkpt>
      <trkpt lat="42.825945" lon="0.935521">
        <ele>1037.4</ele>
        <time>2015-04-12T05:08:03Z</time>
      </trkpt>
      <trkpt lat="42.825870" lon="0.935539">
        <ele>1040.5</ele>
        <time>2015-04-12T05:08:21Z</time>
      </trkpt>
      <trkpt lat="42.825809" lon="0.935393">
        <ele>1042.2</ele>
        <time>2015-04-12T05:08:31Z</time>
      </trkpt>
      <trkpt lat="42.825732" lon="0.935307">
        <ele>1043.4</ele>
        <time>2015-04-12T05:08:41Z</time>
      </trkpt>
      <trkpt lat="42.825641" lon="0.935266">
        <ele>1044.6</ele>
        <time>2015-04-12T05:08:51Z</time>
      </trkpt>
      <trkpt lat="42.825545" lon="0.935210">
        <ele>1046.9</ele>
        <time>2015-04-12T05:09:02Z</time>
      </trkpt>
      <trkpt lat="42.825467" lon="0.935133">
        <ele>1048.8</ele>
        <time>2015-04-12T05:09:12Z</time>
      </trkpt>
      <trkpt lat="42.825448" lon="0.935018">
        <ele>1051.0</ele>
        <time>2015-04-12T05:09:24Z</time>
      </trkpt>
      <trkpt lat="42.825431" lon="0.934871">
        <ele>1052.9</ele>
        <time>2015-04-12T05:09:36Z</time>
      </trkpt>
      <trkpt lat="42.825385" lon="0.934735">
        <ele>1054.8</ele>
        <time>2015-04-12T05:09:47Z</time>
      </trkpt>
      <trkpt lat="42.825289" lon="0.934642">
        <ele>1056.5</ele>
        <time>2015-04-12T05:09:57Z</time>
      </trkpt>
      <trkpt lat="42.825231" lon="0.934519">
        <ele>1058.3</ele>
        <time>2015-04-12T05:10:09Z</time>
      </trkpt>
      <trkpt lat="42.825224" lon="0.934386">
        <ele>1060.2</ele>
        <time>2015-04-12T05:10:21Z</time>
      </trkpt>
      <trkpt lat="42.825192" lon="0.934264">
        <ele>1064.1</ele>
        <time>2015-04-12T05:10:36Z</time>
      </trkpt>
      <trkpt lat="42.825145" lon="0.934197">
        <ele>1067.6</ele>
        <time>2015-04-12T05:10:53Z</time>
      </trkpt>
      <trkpt lat="42.825056" lon="0.934161">
        <ele>1069.1</ele>
        <time>2015-04-12T05:11:08Z</time>
      </trkpt>
      <trkpt lat="42.824941" lon="0.934096">
        <ele>1070.7</ele>
        <time>2015-04-12T05:11:22Z</time>
      </trkpt>
      <trkpt lat="42.824890" lon="0.933946">
        <ele>1071.9</ele>
        <time>2015-04-12T05:11:34Z</time>
      </trkpt>
      <trkpt lat="42.824826" lon="0.933816">
        <ele>1073.1</ele>
        <time>2015-04-12T05:11:44Z</time>
      </trkpt>
      <trkpt lat="42.824754" lon="0.933716">
        <ele>1073.9</ele>
        <time>2015-04-12T05:11:53Z</time>
      </trkpt>
      <trkpt lat="42.824689" lon="0.933620">
        <ele>1074.5</ele>
        <time>2015-04-12T05:12:02Z</time>
      </trkpt>
      <trkpt lat="42.824658" lon="0.933493">
        <ele>1075.7</ele>
        <time>2015-04-12T05:12:16Z</time>
      </trkpt>
      <trkpt lat="42.824617" lon="0.933358">
        <ele>1076.9</ele>
        <time>2015-04-12T05:12:25Z</time>
      </trkpt>
      <trkpt lat="42.824562" lon="0.933255">
        <ele>1078.3</ele>
        <time>2015-04-12T05:12:35Z</time>
      </trkpt>
      <trkpt lat="42.824492" lon="0.933153">
        <ele>1079.2</ele>
        <time>2015-04-12T05:12:44Z</time>
      </trkpt>
      <trkpt lat="42.824436" lon="0.933054">
        <ele>1079.9</ele>
        <time>2015-04-12T05:12:53Z</time>
      </trkpt>
      <trkpt lat="42.824387" lon="0.932946">
        <ele>1081.1</ele>
        <time>2015-04-12T05:13:03Z</time>
      </trkpt>
      <trkpt lat="42.824307" lon="0.932829">
        <ele>1082.3</ele>
        <time>2015-04-12T05:13:14Z</time>
      </trkpt>
      <trkpt lat="42.824244" lon="0.932738">
        <ele>1083.6</ele>
        <time>2015-04-12T05:13:24Z</time>
      </trkpt>
      <trkpt lat="42.824164" lon="0.932622">
        <ele>1085.5</ele>
        <time>2015-04-12T05:13:35Z</time>
      </trkpt>
      <trkpt lat="42.824107" lon="0.932517">
        <ele>1086.6</ele>
        <time>2015-04-12T05:13:43Z</time>
      </trkpt>
      <trkpt lat="42.824047" lon="0.932421">
        <ele>1088.1</ele>
        <time>2015-04-12T05:13:52Z</time>
      </trkpt>
      <trkpt lat="42.824008" lon="0.932309">
        <ele>1090.0</ele>
        <time>2015-04-12T05:14:02Z</time>
      </trkpt>
      <trkpt lat="42.823986" lon="0.932191">
        <ele>1091.3</ele>
        <time>2015-04-12T05:14:11Z</time>
      </trkpt>
      <trkpt lat="42.823943" lon="0.932070">
        <ele>1092.5</ele>
        <time>2015-04-12T05:14:20Z</time>
      </trkpt>
      <trkpt lat="42.823934" lon="0.931956">
        <ele>1093.6</ele>
        <time>2015-04-12T05:14:29Z</time>
      </trkpt>
      <trkpt lat="42.823952" lon="0.931816">
        <ele>1094.4</ele>
        <time>2015-04-12T05:14:38Z</time>
      </trkpt>
      <trkpt lat="42.823947" lon="0.931693">
        <ele>1095.1</ele>
        <time>2015-04-12T05:14:46Z</time>
      </trkpt>
      <trkpt lat="42.823930" lon="0.931565">
        <ele>1095.6</ele>
        <time>2015-04-12T05:14:55Z</time>
      </trkpt>
      <trkpt lat="42.823923" lon="0.931442">
        <ele>1096.7</ele>
        <time>2015-04-12T05:15:05Z</time>
      </trkpt>
      <trkpt lat="42.823922" lon="0.931307">
        <ele>1097.4</ele>
        <time>2015-04-12T05:15:14Z</time>
      </trkpt>
      <trkpt lat="42.823910" lon="0.931181">
        <ele>1097.9</ele>
        <time>2015-04-12T05:15:22Z</time>
      </trkpt>
      <trkpt lat="42.823871" lon="0.931053">
        <ele>1098.8</ele>
        <time>2015-04-12T05:15:31Z</time>
      </trkpt>
      <trkpt lat="42.823858" lon="0.930916">
        <ele>1099.4</ele>
        <time>2015-04-12T05:15:39Z</time>
      </trkpt>
      <trkpt lat="42.823838" lon="0.930785">
        <ele>1099.9</ele>
        <time>2015-04-12T05:15:47Z</time>
      </trkpt>
      <trkpt lat="42.823820" lon="0.930659">
        <ele>1100.3</ele>
        <time>2015-04-12T05:15:56Z</time>
      </trkpt>
      <trkpt lat="42.823804" lon="0.930539">
        <ele>1100.7</ele>
        <time>2015-04-12T05:16:04Z</time>
      </trkpt>
      <trkpt lat="42.823789" lon="0.930413">
        <ele>1101.4</ele>
        <time>2015-04-12T05:16:12Z</time>
      </trkpt>
      <trkpt lat="42.823742" lon="0.930299">
        <ele>1102.9</ele>
        <time>2015-04-12T05:16:22Z</time>
      </trkpt>
      <trkpt lat="42.823690" lon="0.930156">
        <ele>1104.2</ele>
        <time>2015-04-12T05:16:32Z</time>
      </trkpt>
      <trkpt lat="42.823645" lon="0.930031">
        <ele>1105.1</ele>
        <time>2015-04-12T05:16:42Z</time>
      </trkpt>
      <trkpt lat="42.823602" lon="0.929920">
        <ele>1106.2</ele>
        <time>2015-04-12T05:16:51Z</time>
      </trkpt>
      <trkpt lat="42.823563" lon="0.929810">
        <ele>1107.1</ele>
        <time>2015-04-12T05:17:00Z</time>
      </trkpt>
      <trkpt lat="42.823523" lon="0.929693">
        <ele>1108.1</ele>
        <time>2015-04-12T05:17:09Z</time>
      </trkpt>
      <trkpt lat="42.823477" lon="0.929564">
        <ele>1109.3</ele>
        <time>2015-04-12T05:17:18Z</time>
      </trkpt>
      <trkpt lat="42.823426" lon="0.929444">
        <ele>1110.1</ele>
        <time>2015-04-12T05:17:26Z</time>
      </trkpt>
      <trkpt lat="42.823381" lon="0.929321">
        <ele>1110.9</ele>
        <time>2015-04-12T05:17:35Z</time>
      </trkpt>
      <trkpt lat="42.823351" lon="0.929203">
        <ele>1112.0</ele>
        <time>2015-04-12T05:17:44Z</time>
      </trkpt>
      <trkpt lat="42.823306" lon="0.929097">
        <ele>1113.0</ele>
        <time>2015-04-12T05:17:52Z</time>
      </trkpt>
      <trkpt lat="42.823260" lon="0.928984">
        <ele>1114.4</ele>
        <time>2015-04-12T05:18:01Z</time>
      </trkpt>
      <trkpt lat="42.823230" lon="0.928864">
        <ele>1115.3</ele>
        <time>2015-04-12T05:18:10Z</time>
      </trkpt>
      <trkpt lat="42.823200" lon="0.928735">
        <ele>1116.5</ele>
        <time>2015-04-12T05:18:20Z</time>
      </trkpt>
      <trkpt lat="42.823182" lon="0.928612">
        <ele>1117.8</ele>
        <time>2015-04-12T05:18:29Z</time>
      </trkpt>
      <trkpt lat="42.823160" lon="0.928479">
        <ele>1119.3</ele>
        <time>2015-04-12T05:18:38Z</time>
      </trkpt>
      <trkpt lat="42.823126" lon="0.928345">
        <ele>1120.3</ele>
        <time>2015-04-12T05:18:47Z</time>
      </trkpt>
      <trkpt lat="42.823110" lon="0.928216">
        <ele>1121.5</ele>
        <time>2015-04-12T05:18:57Z</time>
      </trkpt>
      <trkpt lat="42.823144" lon="0.928081">
        <ele>1122.6</ele>
        <time>2015-04-12T05:19:06Z</time>
      </trkpt>
      <trkpt lat="42.823161" lon="0.927936">
        <ele>1123.7</ele>
        <time>2015-04-12T05:19:15Z</time>
      </trkpt>
      <trkpt lat="42.823166" lon="0.927795">
        <ele>1124.8</ele>
        <time>2015-04-12T05:19:25Z</time>
      </trkpt>
      <trkpt lat="42.823149" lon="0.927643">
        <ele>1126.2</ele>
        <time>2015-04-12T05:19:36Z</time>
      </trkpt>
      <trkpt lat="42.823146" lon="0.927492">
        <ele>1127.1</ele>
        <time>2015-04-12T05:19:46Z</time>
      </trkpt>
      <trkpt lat="42.823177" lon="0.927361">
        <ele>1128.0</ele>
        <time>2015-04-12T05:19:56Z</time>
      </trkpt>
      <trkpt lat="42.823173" lon="0.927219">
        <ele>1129.4</ele>
        <time>2015-04-12T05:20:09Z</time>
      </trkpt>
      <trkpt lat="42.823181" lon="0.927081">
        <ele>1130.1</ele>
        <time>2015-04-12T05:20:19Z</time>
      </trkpt>
      <trkpt lat="42.823187" lon="0.926934">
        <ele>1131.1</ele>
        <time>2015-04-12T05:20:30Z</time>
      </trkpt>
      <trkpt lat="42.823198" lon="0.926796">
        <ele>1132.1</ele>
        <time>2015-04-12T05:20:40Z</time>
      </trkpt>
      <trkpt lat="42.823192" lon="0.926665">
        <ele>1133.2</ele>
        <time>2015-04-12T05:20:49Z</time>
      </trkpt>
      <trkpt lat="42.823185" lon="0.926529">
        <ele>1134.2</ele>
        <time>2015-04-12T05:20:59Z</time>
      </trkpt>
      <trkpt lat="42.823174" lon="0.926384">
        <ele>1135.4</ele>
        <time>2015-04-12T05:21:10Z</time>
      </trkpt>
      <trkpt lat="42.823185" lon="0.926231">
        <ele>1136.4</ele>
        <time>2015-04-12T05:21:21Z</time>
      </trkpt>
      <trkpt lat="42.823197" lon="0.926087">
        <ele>1137.1</ele>
        <time>2015-04-12T05:21:31Z</time>
      </trkpt>
      <trkpt lat="42.823213" lon="0.925934">
        <ele>1137.6</ele>
        <time>2015-04-12T05:21:41Z</time>
      </trkpt>
      <trkpt lat="42.823226" lon="0.925801">
        <ele>1138.8</ele>
        <time>2015-04-12T05:21:52Z</time>
      </trkpt>
      <trkpt lat="42.823250" lon="0.925674">
        <ele>1140.1</ele>
        <time>2015-04-12T05:22:03Z</time>
      </trkpt>
      <trkpt lat="42.823329" lon="0.925526">
        <ele>1141.6</ele>
        <time>2015-04-12T05:22:14Z</time>
      </trkpt>
      <trkpt lat="42.823372" lon="0.925368">
        <ele>1142.5</ele>
        <time>2015-04-12T05:22:25Z</time>
      </trkpt>
      <trkpt lat="42.823389" lon="0.925201">
        <ele>1143.6</ele>
        <time>2015-04-12T05:22:36Z</time>
      </trkpt>
      <trkpt lat="42.823404" lon="0.925018">
        <ele>1144.5</ele>
        <time>2015-04-12T05:22:48Z</time>
      </trkpt>
      <trkpt lat="42.823408" lon="0.924875">
        <ele>1145.3</ele>
        <time>2015-04-12T05:22:58Z</time>
      </trkpt>
      <trkpt lat="42.823391" lon="0.924731">
        <ele>1146.5</ele>
        <time>2015-04-12T05:23:09Z</time>
      </trkpt>
      <trkpt lat="42.823398" lon="0.924597">
        <ele>1147.9</ele>
        <time>2015-04-12T05:23:21Z</time>
      </trkpt>
      <trkpt lat="42.823403" lon="0.924448">
        <ele>1148.8</ele>
        <time>2015-04-12T05:23:31Z</time>
      </trkpt>
      <trkpt lat="42.823413" lon="0.924319">
        <ele>1149.5</ele>
        <time>2015-04-12T05:23:41Z</time>
      </trkpt>
      <trkpt lat="42.823413" lon="0.924176">
        <ele>1150.4</ele>
        <time>2015-04-12T05:23:53Z</time>
      </trkpt>
      <trkpt lat="42.823393" lon="0.924032">
        <ele>1151.6</ele>
        <time>2015-04-12T05:24:03Z</time>
      </trkpt>
      <trkpt lat="42.823398" lon="0.923893">
        <ele>1152.7</ele>
        <time>2015-04-12T05:24:13Z</time>
      </trkpt>
      <trkpt lat="42.823370" lon="0.923752">
        <ele>1153.5</ele>
        <time>2015-04-12T05:24:24Z</time>
      </trkpt>
      <trkpt lat="42.823365" lon="0.923597">
        <ele>1154.3</ele>
        <time>2015-04-12T05:24:35Z</time>
      </trkpt>
      <trkpt lat="42.823354" lon="0.923462">
        <ele>1155.1</ele>
        <time>2015-04-12T05:24:44Z</time>
      </trkpt>
      <trkpt lat="42.823319" lon="0.923316">
        <ele>1155.9</ele>
        <time>2015-04-12T05:24:54Z</time>
      </trkpt>
      <trkpt lat="42.823286" lon="0.923172">
        <ele>1156.8</ele>
        <time>2015-04-12T05:25:04Z</time>
      </trkpt>
      <trkpt lat="42.823266" lon="0.923034">
        <ele>1158.2</ele>
        <time>2015-04-12T05:25:14Z</time>
      </trkpt>
      <trkpt lat="42.823219" lon="0.922896">
        <ele>1158.8</ele>
        <time>2015-04-12T05:25:23Z</time>
      </trkpt>
      <trkpt lat="42.823206" lon="0.922754">
        <ele>1159.5</ele>
        <time>2015-04-12T05:25:32Z</time>
      </trkpt>
      <trkpt lat="42.823194" lon="0.922600">
        <ele>1161.0</ele>
        <time>2015-04-12T05:25:44Z</time>
      </trkpt>
      <trkpt lat="42.823181" lon="0.922452">
        <ele>1162.0</ele>
        <time>2015-04-12T05:25:55Z</time>
      </trkpt>
      <trkpt lat="42.823178" lon="0.922312">
        <ele>1163.0</ele>
        <time>2015-04-12T05:26:05Z</time>
      </trkpt>
      <trkpt lat="42.823173" lon="0.922179">
        <ele>1164.0</ele>
        <time>2015-04-12T05:26:14Z</time>
      </trkpt>
      <trkpt lat="42.823161" lon="0.922017">
        <ele>1165.6</ele>
        <time>2015-04-12T05:26:26Z</time>
      </trkpt>
      <trkpt lat="42.823151" lon="0.921867">
        <ele>1166.5</ele>
        <time>2015-04-12T05:26:36Z</time>
      </trkpt>
      <trkpt lat="42.823125" lon="0.921728">
        <ele>1167.6</ele>
        <time>2015-04-12T05:26:46Z</time>
      </trkpt>
      <trkpt lat="42.823068" lon="0.921606">
        <ele>1168.8</ele>
        <time>2015-04-12T05:26:56Z</time>
      </trkpt>
      <trkpt lat="42.823012" lon="0.921484">
        <ele>1169.9</ele>
        <time>2015-04-12T05:27:06Z</time>
      </trkpt>
      <trkpt lat="42.822970" lon="0.921359">
        <ele>1171.1</ele>
        <time>2015-04-12T05:27:16Z</time>
      </trkpt>
      <trkpt lat="42.822905" lon="0.921235">
        <ele>1172.0</ele>
        <time>2015-04-12T05:27:26Z</time>
      </trkpt>
      <trkpt lat="42.822873" lon="0.921111">
        <ele>1172.8</ele>
        <time>2015-04-12T05:27:36Z</time>
      </trkpt>
      <trkpt lat="42.822809" lon="0.921000">
        <ele>1173.6</ele>
        <time>2015-04-12T05:27:46Z</time>
      </trkpt>
      <trkpt lat="42.822736" lon="0.920862">
        <ele>1174.7</ele>
        <time>2015-04-12T05:27:56Z</time>
      </trkpt>
      <trkpt lat="42.822712" lon="0.920742">
        <ele>1175.5</ele>
        <time>2015-04-12T05:28:04Z</time>
      </trkpt>
      <trkpt lat="42.822713" lon="0.920603">
        <ele>1176.2</ele>
        <time>2015-04-12T05:28:13Z</time>
      </trkpt>
      <trkpt lat="42.822724" lon="0.920457">
        <ele>1176.9</ele>
        <time>2015-04-12T05:28:22Z</time>
      </trkpt>
      <trkpt lat="42.822727" lon="0.920317">
        <ele>1178.0</ele>
        <time>2015-04-12T05:28:32Z</time>
      </trkpt>
      <trkpt lat="42.822717" lon="0.920181">
        <ele>1179.0</ele>
        <time>2015-04-12T05:28:42Z</time>
      </trkpt>
      <trkpt lat="42.822709" lon="0.920027">
        <ele>1180.1</ele>
        <time>2015-04-12T05:28:52Z</time>
      </trkpt>
      <trkpt lat="42.822721" lon="0.919868">
        <ele>1181.2</ele>
        <time>2015-04-12T05:29:03Z</time>
      </trkpt>
      <trkpt lat="42.822720" lon="0.919727">
        <ele>1182.4</ele>
        <time>2015-04-12T05:29:13Z</time>
      </trkpt>
      <trkpt lat="42.822723" lon="0.919583">
        <ele>1183.5</ele>
        <time>2015-04-12T05:29:23Z</time>
      </trkpt>
      <trkpt lat="42.822741" lon="0.919450">
        <ele>1184.5</ele>
        <time>2015-04-12T05:29:32Z</time>
      </trkpt>
      <trkpt lat="42.822670" lon="0.919357">
        <ele>1185.5</ele>
        <time>2015-04-12T05:29:42Z</time>
      </trkpt>
      <trkpt lat="42.822610" lon="0.919254">
        <ele>1186.7</ele>
        <time>2015-04-12T05:29:51Z</time>
      </trkpt>
      <trkpt lat="42.822583" lon="0.919133">
        <ele>1187.2</ele>
        <time>2015-04-12T05:30:02Z</time>
      </trkpt>
      <trkpt lat="42.822585" lon="0.919002">
        <ele>1188.1</ele>
        <time>2015-04-12T05:30:11Z</time>
      </trkpt>
      <trkpt lat="42.822564" lon="0.918878">
        <ele>1189.2</ele>
        <time>2015-04-12T05:30:21Z</time>
      </trkpt>
      <trkpt lat="42.822530" lon="0.918763">
        <ele>1190.1</ele>
        <time>2015-04-12T05:30:31Z</time>
      </trkpt>
      <trkpt lat="42.822491" lon="0.918667">
        <ele>1191.1</ele>
        <time>2015-04-12T05:30:40Z</time>
      </trkpt>
      <trkpt lat="42.822466" lon="0.918543">
        <ele>1191.7</ele>
        <time>2015-04-12T05:30:50Z</time>
      </trkpt>
      <trkpt lat="42.822412" lon="0.918447">
        <ele>1193.0</ele>
        <time>2015-04-12T05:31:01Z</time>
      </trkpt>
      <trkpt lat="42.822362" lon="0.918339">
        <ele>1193.8</ele>
        <time>2015-04-12T05:31:11Z</time>
      </trkpt>
      <trkpt lat="42.822314" lon="0.918222">
        <ele>1195.2</ele>
        <time>2015-04-12T05:31:22Z</time>
      </trkpt>
      <trkpt lat="42.822262" lon="0.918106">
        <ele>1197.5</ele>
        <time>2015-04-12T05:31:36Z</time>
      </trkpt>
      <trkpt lat="42.822191" lon="0.917983">
        <ele>1198.7</ele>
        <time>2015-04-12T05:31:49Z</time>
      </trkpt>
      <trkpt lat="42.822212" lon="0.917833">
        <ele>1202.1</ele>
        <time>2015-04-12T05:32:46Z</time>
      </trkpt>
      <trkpt lat="42.822264" lon="0.917746">
        <ele>1203.9</ele>
        <time>2015-04-12T05:33:06Z</time>
      </trkpt>
      <trkpt lat="42.822196" lon="0.917659">
        <ele>1204.2</ele>
        <time>2015-04-12T05:33:25Z</time>
      </trkpt>
      <trkpt lat="42.822142" lon="0.917579">
        <ele>1204.3</ele>
        <time>2015-04-12T05:33:36Z</time>
      </trkpt>
      <trkpt lat="42.822070" lon="0.917483">
        <ele>1204.4</ele>
        <time>2015-04-12T05:33:48Z</time>
      </trkpt>
      <trkpt lat="42.822010" lon="0.917388">
        <ele>1204.1</ele>
        <time>2015-04-12T05:33:57Z</time>
      </trkpt>
      <trkpt lat="42.821716" lon="0.917176">
        <ele>1206.5</ele>
        <time>2015-04-12T05:35:02Z</time>
      </trkpt>
      <trkpt lat="42.821610" lon="0.917211">
        <ele>1208.3</ele>
        <time>2015-04-12T05:35:12Z</time>
      </trkpt>
      <trkpt lat="42.821527" lon="0.917177">
        <ele>1210.2</ele>
        <time>2015-04-12T05:35:23Z</time>
      </trkpt>
      <trkpt lat="42.821444" lon="0.917104">
        <ele>1213.5</ele>
        <time>2015-04-12T05:35:36Z</time>
      </trkpt>
      <trkpt lat="42.821340" lon="0.917050">
        <ele>1215.5</ele>
        <time>2015-04-12T05:35:47Z</time>
      </trkpt>
      <trkpt lat="42.821259" lon="0.916990">
        <ele>1218.3</ele>
        <time>2015-04-12T05:35:59Z</time>
      </trkpt>
      <trkpt lat="42.821179" lon="0.916909">
        <ele>1220.5</ele>
        <time>2015-04-12T05:36:10Z</time>
      </trkpt>
      <trkpt lat="42.821162" lon="0.916868">
        <ele>1222.5</ele>
        <time>2015-04-12T05:36:30Z</time>
      </trkpt>
      <trkpt lat="42.821065" lon="0.916796">
        <ele>1223.0</ele>
        <time>2015-04-12T05:36:56Z</time>
      </trkpt>
      <trkpt lat="42.820976" lon="0.916725">
        <ele>1224.6</ele>
        <time>2015-04-12T05:37:08Z</time>
      </trkpt>
      <trkpt lat="42.820895" lon="0.916654">
        <ele>1227.0</ele>
        <time>2015-04-12T05:37:21Z</time>
      </trkpt>
      <trkpt lat="42.820811" lon="0.916584">
        <ele>1228.8</ele>
        <time>2015-04-12T05:37:34Z</time>
      </trkpt>
      <trkpt lat="42.820725" lon="0.916515">
        <ele>1230.6</ele>
        <time>2015-04-12T05:37:47Z</time>
      </trkpt>
      <trkpt lat="42.820643" lon="0.916431">
        <ele>1233.1</ele>
        <time>2015-04-12T05:38:00Z</time>
      </trkpt>
      <trkpt lat="42.820584" lon="0.916352">
        <ele>1235.3</ele>
        <time>2015-04-12T05:38:12Z</time>
      </trkpt>
      <trkpt lat="42.820495" lon="0.916299">
        <ele>1237.8</ele>
        <time>2015-04-12T05:38:26Z</time>
      </trkpt>
      <trkpt lat="42.820401" lon="0.916243">
        <ele>1240.0</ele>
        <time>2015-04-12T05:38:39Z</time>
      </trkpt>
      <trkpt lat="42.820312" lon="0.916171">
        <ele>1242.8</ele>
        <time>2015-04-12T05:38:53Z</time>
      </trkpt>
      <trkpt lat="42.820240" lon="0.916119">
        <ele>1246.2</ele>
        <time>2015-04-12T05:39:08Z</time>
      </trkpt>
      <trkpt lat="42.820180" lon="0.916062">
        <ele>1248.8</ele>
        <time>2015-04-12T05:39:22Z</time>
      </trkpt>
      <trkpt lat="42.820099" lon="0.916038">
        <ele>1250.9</ele>
        <time>2015-04-12T05:39:36Z</time>
      </trkpt>
      <trkpt lat="42.819988" lon="0.916014">
        <ele>1254.6</ele>
        <time>2015-04-12T05:39:55Z</time>
      </trkpt>
      <trkpt lat="42.819886" lon="0.915977">
        <ele>1256.8</ele>
        <time>2015-04-12T05:40:08Z</time>
      </trkpt>
      <trkpt lat="42.819818" lon="0.915890">
        <ele>1259.6</ele>
        <time>2015-04-12T05:40:23Z</time>
      </trkpt>
      <trkpt lat="42.819742" lon="0.915811">
        <ele>1262.4</ele>
        <time>2015-04-12T05:40:38Z</time>
      </trkpt>
      <trkpt lat="42.819668" lon="0.915734">
        <ele>1265.0</ele>
        <time>2015-04-12T05:40:51Z</time>
      </trkpt>
      <trkpt lat="42.819586" lon="0.915678">
        <ele>1267.4</ele>
        <time>2015-04-12T05:41:04Z</time>
      </trkpt>
      <trkpt lat="42.819539" lon="0.915578">
        <ele>1270.1</ele>
        <time>2015-04-12T05:41:21Z</time>
      </trkpt>
      <trkpt lat="42.819451" lon="0.915512">
        <ele>1273.1</ele>
        <time>2015-04-12T05:41:37Z</time>
      </trkpt>
      <trkpt lat="42.819402" lon="0.915415">
        <ele>1275.3</ele>
        <time>2015-04-12T05:41:51Z</time>
      </trkpt>
      <trkpt lat="42.819318" lon="0.915349">
        <ele>1277.7</ele>
        <time>2015-04-12T05:42:06Z</time>
      </trkpt>
      <trkpt lat="42.819232" lon="0.915330">
        <ele>1280.2</ele>
        <time>2015-04-12T05:42:20Z</time>
      </trkpt>
      <trkpt lat="42.819157" lon="0.915378">
        <ele>1284.2</ele>
        <time>2015-04-12T05:42:39Z</time>
      </trkpt>
      <trkpt lat="42.819081" lon="0.915327">
        <ele>1288.8</ele>
        <time>2015-04-12T05:43:01Z</time>
      </trkpt>
      <trkpt lat="42.819037" lon="0.915284">
        <ele>1293.4</ele>
        <time>2015-04-12T05:44:35Z</time>
      </trkpt>
      <trkpt lat="42.819050" lon="0.915131">
        <ele>1293.4</ele>
        <time>2015-04-12T05:44:47Z</time>
      </trkpt>
      <trkpt lat="42.819026" lon="0.914968">
        <ele>1293.8</ele>
        <time>2015-04-12T05:44:58Z</time>
      </trkpt>
      <trkpt lat="42.818977" lon="0.914826">
        <ele>1296.5</ele>
        <time>2015-04-12T05:45:12Z</time>
      </trkpt>
      <trkpt lat="42.818969" lon="0.914660">
        <ele>1296.9</ele>
        <time>2015-04-12T05:45:23Z</time>
      </trkpt>
      <trkpt lat="42.818940" lon="0.914650">
        <ele>1299.0</ele>
        <time>2015-04-12T05:45:45Z</time>
      </trkpt>
      <trkpt lat="42.818895" lon="0.914691">
        <ele>1299.8</ele>
        <time>2015-04-12T05:46:10Z</time>
      </trkpt>
      <trkpt lat="42.818850" lon="0.914855">
        <ele>1301.4</ele>
        <time>2015-04-12T05:46:23Z</time>
      </trkpt>
      <trkpt lat="42.818830" lon="0.914972">
        <ele>1302.2</ele>
        <time>2015-04-12T05:46:38Z</time>
      </trkpt>
      <trkpt lat="42.818712" lon="0.915072">
        <ele>1302.7</ele>
        <time>2015-04-12T05:46:53Z</time>
      </trkpt>
      <trkpt lat="42.818597" lon="0.915095">
        <ele>1305.1</ele>
        <time>2015-04-12T05:47:10Z</time>
      </trkpt>
      <trkpt lat="42.818506" lon="0.915149">
        <ele>1309.4</ele>
        <time>2015-04-12T05:47:32Z</time>
      </trkpt>
      <trkpt lat="42.818430" lon="0.915221">
        <ele>1313.4</ele>
        <time>2015-04-12T05:47:54Z</time>
      </trkpt>
      <trkpt lat="42.818335" lon="0.915243">
        <ele>1317.8</ele>
        <time>2015-04-12T05:48:14Z</time>
      </trkpt>
      <trkpt lat="42.818243" lon="0.915335">
        <ele>1322.2</ele>
        <time>2015-04-12T05:48:36Z</time>
      </trkpt>
      <trkpt lat="42.818168" lon="0.915403">
        <ele>1327.8</ele>
        <time>2015-04-12T05:48:59Z</time>
      </trkpt>
      <trkpt lat="42.818124" lon="0.915353">
        <ele>1331.9</ele>
        <time>2015-04-12T05:49:19Z</time>
      </trkpt>
      <trkpt lat="42.818093" lon="0.915273">
        <ele>1334.4</ele>
        <time>2015-04-12T05:49:41Z</time>
      </trkpt>
      <trkpt lat="42.818029" lon="0.915188">
        <ele>1335.4</ele>
        <time>2015-04-12T05:50:02Z</time>
      </trkpt>
      <trkpt lat="42.817957" lon="0.915125">
        <ele>1337.2</ele>
        <time>2015-04-12T05:50:20Z</time>
      </trkpt>
      <trkpt lat="42.817878" lon="0.915110">
        <ele>1340.9</ele>
        <time>2015-04-12T05:50:43Z</time>
      </trkpt>
      <trkpt lat="42.817807" lon="0.915057">
        <ele>1345.9</ele>
        <time>2015-04-12T05:51:14Z</time>
      </trkpt>
      <trkpt lat="42.817739" lon="0.914989">
        <ele>1349.4</ele>
        <time>2015-04-12T05:51:38Z</time>
      </trkpt>
      <trkpt lat="42.817634" lon="0.914961">
        <ele>1355.2</ele>
        <time>2015-04-12T05:52:08Z</time>
      </trkpt>
      <trkpt lat="42.817564" lon="0.914957">
        <ele>1360.4</ele>
        <time>2015-04-12T05:52:40Z</time>
      </trkpt>
      <trkpt lat="42.817497" lon="0.914941">
        <ele>1365.8</ele>
        <time>2015-04-12T05:53:11Z</time>
      </trkpt>
      <trkpt lat="42.817433" lon="0.914883">
        <ele>1369.6</ele>
        <time>2015-04-12T05:53:36Z</time>
      </trkpt>
      <trkpt lat="42.817393" lon="0.914869">
        <ele>1374.8</ele>
        <time>2015-04-12T05:54:06Z</time>
      </trkpt>
      <trkpt lat="42.817312" lon="0.914866">
        <ele>1378.4</ele>
        <time>2015-04-12T05:54:28Z</time>
      </trkpt>
      <trkpt lat="42.817291" lon="0.914854">
        <ele>1381.5</ele>
        <time>2015-04-12T05:54:47Z</time>
      </trkpt>
      <trkpt lat="42.817202" lon="0.914898">
        <ele>1386.9</ele>
        <time>2015-04-12T05:55:27Z</time>
      </trkpt>
      <trkpt lat="42.817153" lon="0.914937">
        <ele>1389.7</ele>
        <time>2015-04-12T05:55:47Z</time>
      </trkpt>
      <trkpt lat="42.817090" lon="0.914908">
        <ele>1392.1</ele>
        <time>2015-04-12T05:56:01Z</time>
      </trkpt>
      <trkpt lat="42.817049" lon="0.914912">
        <ele>1395.1</ele>
        <time>2015-04-12T05:56:22Z</time>
      </trkpt>
      <trkpt lat="42.817043" lon="0.914954">
        <ele>1397.7</ele>
        <time>2015-04-12T05:56:40Z</time>
      </trkpt>
      <trkpt lat="42.816998" lon="0.914956">
        <ele>1404.0</ele>
        <time>2015-04-12T05:57:22Z</time>
      </trkpt>
      <trkpt lat="42.816930" lon="0.914963">
        <ele>1411.0</ele>
        <time>2015-04-12T05:58:12Z</time>
      </trkpt>
      <trkpt lat="42.816813" lon="0.914868">
        <ele>1413.0</ele>
        <time>2015-04-12T05:58:26Z</time>
      </trkpt>
      <trkpt lat="42.816709" lon="0.914858">
        <ele>1419.5</ele>
        <time>2015-04-12T05:59:14Z</time>
      </trkpt>
      <trkpt lat="42.816642" lon="0.914781">
        <ele>1422.1</ele>
        <time>2015-04-12T05:59:32Z</time>
      </trkpt>
      <trkpt lat="42.816521" lon="0.914759">
        <ele>1423.5</ele>
        <time>2015-04-12T05:59:43Z</time>
      </trkpt>
      <trkpt lat="42.816458" lon="0.914681">
        <ele>1434.7</ele>
        <time>2015-04-12T06:17:50Z</time>
      </trkpt>
      <trkpt lat="42.816367" lon="0.914685">
        <ele>1435.7</ele>
        <time>2015-04-12T06:18:02Z</time>
      </trkpt>
      <trkpt lat="42.816246" lon="0.914703">
        <ele>1437.3</ele>
        <time>2015-04-12T06:18:13Z</time>
      </trkpt>
      <trkpt lat="42.816203" lon="0.914667">
        <ele>1438.8</ele>
        <time>2015-04-12T06:18:25Z</time>
      </trkpt>
      <trkpt lat="42.816106" lon="0.914660">
        <ele>1441.1</ele>
        <time>2015-04-12T06:18:39Z</time>
      </trkpt>
      <trkpt lat="42.816056" lon="0.914703">
        <ele>1443.8</ele>
        <time>2015-04-12T06:18:58Z</time>
      </trkpt>
      <trkpt lat="42.815995" lon="0.914687">
        <ele>1446.2</ele>
        <time>2015-04-12T06:19:16Z</time>
      </trkpt>
      <trkpt lat="42.815922" lon="0.914715">
        <ele>1448.5</ele>
        <time>2015-04-12T06:19:36Z</time>
      </trkpt>
      <trkpt lat="42.815852" lon="0.914667">
        <ele>1451.4</ele>
        <time>2015-04-12T06:19:54Z</time>
      </trkpt>
      <trkpt lat="42.815794" lon="0.914699">
        <ele>1458.8</ele>
        <time>2015-04-12T06:20:44Z</time>
      </trkpt>
      <trkpt lat="42.815749" lon="0.914653">
        <ele>1461.1</ele>
        <time>2015-04-12T06:20:57Z</time>
      </trkpt>
      <trkpt lat="42.815702" lon="0.914667">
        <ele>1464.4</ele>
        <time>2015-04-12T06:21:17Z</time>
      </trkpt>
      <trkpt lat="42.815611" lon="0.914693">
        <ele>1466.2</ele>
        <time>2015-04-12T06:21:30Z</time>
      </trkpt>
      <trkpt lat="42.815437" lon="0.914713">
        <ele>1468.5</ele>
        <time>2015-04-12T06:21:45Z</time>
      </trkpt>
      <trkpt lat="42.815391" lon="0.914682">
        <ele>1470.6</ele>
        <time>2015-04-12T06:21:59Z</time>
      </trkpt>
      <trkpt lat="42.815311" lon="0.914632">
        <ele>1476.9</ele>
        <time>2015-04-12T06:22:45Z</time>
      </trkpt>
      <trkpt lat="42.815219" lon="0.914637">
        <ele>1478.5</ele>
        <time>2015-04-12T06:22:57Z</time>
      </trkpt>
      <trkpt lat="42.815163" lon="0.914656">
        <ele>1481.2</ele>
        <time>2015-04-12T06:23:16Z</time>
      </trkpt>
      <trkpt lat="42.815076" lon="0.914684">
        <ele>1483.4</ele>
        <time>2015-04-12T06:23:33Z</time>
      </trkpt>
      <trkpt lat="42.815012" lon="0.914661">
        <ele>1486.0</ele>
        <time>2015-04-12T06:23:51Z</time>
      </trkpt>
      <trkpt lat="42.814879" lon="0.914659">
        <ele>1488.4</ele>
        <time>2015-04-12T06:24:10Z</time>
      </trkpt>
      <trkpt lat="42.814806" lon="0.914626">
        <ele>1490.9</ele>
        <time>2015-04-12T06:24:29Z</time>
      </trkpt>
      <trkpt lat="42.814703" lon="0.914585">
        <ele>1493.5</ele>
        <time>2015-04-12T06:24:48Z</time>
      </trkpt>
      <trkpt lat="42.814683" lon="0.914580">
        <ele>1495.8</ele>
        <time>2015-04-12T06:25:05Z</time>
      </trkpt>
      <trkpt lat="42.814642" lon="0.914564">
        <ele>1498.2</ele>
        <time>2015-04-12T06:25:23Z</time>
      </trkpt>
      <trkpt lat="42.814585" lon="0.914519">
        <ele>1502.9</ele>
        <time>2015-04-12T06:25:50Z</time>
      </trkpt>
      <trkpt lat="42.814492" lon="0.914523">
        <ele>1505.0</ele>
        <time>2015-04-12T06:26:09Z</time>
      </trkpt>
      <trkpt lat="42.814389" lon="0.914546">
        <ele>1506.9</ele>
        <time>2015-04-12T06:26:23Z</time>
      </trkpt>
      <trkpt lat="42.814280" lon="0.914584">
        <ele>1508.5</ele>
        <time>2015-04-12T06:26:34Z</time>
      </trkpt>
      <trkpt lat="42.814238" lon="0.914539">
        <ele>1514.1</ele>
        <time>2015-04-12T06:27:13Z</time>
      </trkpt>
      <trkpt lat="42.814189" lon="0.914516">
        <ele>1517.1</ele>
        <time>2015-04-12T06:27:33Z</time>
      </trkpt>
      <trkpt lat="42.814166" lon="0.914513">
        <ele>1521.3</ele>
        <time>2015-04-12T06:28:04Z</time>
      </trkpt>
      <trkpt lat="42.814086" lon="0.914491">
        <ele>1524.3</ele>
        <time>2015-04-12T06:28:23Z</time>
      </trkpt>
      <trkpt lat="42.814034" lon="0.914422">
        <ele>1528.4</ele>
        <time>2015-04-12T06:28:51Z</time>
      </trkpt>
      <trkpt lat="42.813962" lon="0.914350">
        <ele>1531.4</ele>
        <time>2015-04-12T06:29:13Z</time>
      </trkpt>
      <trkpt lat="42.813895" lon="0.914344">
        <ele>1533.5</ele>
        <time>2015-04-12T06:29:30Z</time>
      </trkpt>
      <trkpt lat="42.813808" lon="0.914310">
        <ele>1537.0</ele>
        <time>2015-04-12T06:29:54Z</time>
      </trkpt>
      <trkpt lat="42.813738" lon="0.914301">
        <ele>1538.5</ele>
        <time>2015-04-12T06:30:05Z</time>
      </trkpt>
      <trkpt lat="42.813722" lon="0.914314">
        <ele>1542.0</ele>
        <time>2015-04-12T06:30:33Z</time>
      </trkpt>
      <trkpt lat="42.813664" lon="0.914320">
        <ele>1545.0</ele>
        <time>2015-04-12T06:30:56Z</time>
      </trkpt>
      <trkpt lat="42.813582" lon="0.914320">
        <ele>1548.1</ele>
        <time>2015-04-12T06:31:18Z</time>
      </trkpt>
      <trkpt lat="42.813509" lon="0.914282">
        <ele>1553.5</ele>
        <time>2015-04-12T06:31:55Z</time>
      </trkpt>
      <trkpt lat="42.813425" lon="0.914240">
        <ele>1556.9</ele>
        <time>2015-04-12T06:32:18Z</time>
      </trkpt>
      <trkpt lat="42.813364" lon="0.914250">
        <ele>1559.3</ele>
        <time>2015-04-12T06:32:40Z</time>
      </trkpt>
      <trkpt lat="42.813284" lon="0.914273">
        <ele>1563.2</ele>
        <time>2015-04-12T06:33:04Z</time>
      </trkpt>
      <trkpt lat="42.813227" lon="0.914304">
        <ele>1567.5</ele>
        <time>2015-04-12T06:33:34Z</time>
      </trkpt>
      <trkpt lat="42.813139" lon="0.914299">
        <ele>1571.5</ele>
        <time>2015-04-12T06:33:59Z</time>
      </trkpt>
      <trkpt lat="42.813109" lon="0.914271">
        <ele>1575.1</ele>
        <time>2015-04-12T06:34:21Z</time>
      </trkpt>
      <trkpt lat="42.813064" lon="0.914235">
        <ele>1579.4</ele>
        <time>2015-04-12T06:34:46Z</time>
      </trkpt>
      <trkpt lat="42.813015" lon="0.914190">
        <ele>1581.4</ele>
        <time>2015-04-12T06:35:03Z</time>
      </trkpt>
      <trkpt lat="42.812921" lon="0.914135">
        <ele>1589.5</ele>
        <time>2015-04-12T06:36:00Z</time>
      </trkpt>
      <trkpt lat="42.812817" lon="0.914180">
        <ele>1591.6</ele>
        <time>2015-04-12T06:36:15Z</time>
      </trkpt>
      <trkpt lat="42.812725" lon="0.914195">
        <ele>1593.5</ele>
        <time>2015-04-12T06:36:31Z</time>
      </trkpt>
      <trkpt lat="42.812640" lon="0.914194">
        <ele>1596.5</ele>
        <time>2015-04-12T06:36:54Z</time>
      </trkpt>
      <trkpt lat="42.812558" lon="0.914235">
        <ele>1599.5</ele>
        <time>2015-04-12T06:37:11Z</time>
      </trkpt>
      <trkpt lat="42.812522" lon="0.914216">
        <ele>1603.6</ele>
        <time>2015-04-12T06:37:45Z</time>
      </trkpt>
      <trkpt lat="42.812463" lon="0.914190">
        <ele>1607.4</ele>
        <time>2015-04-12T06:38:15Z</time>
      </trkpt>
      <trkpt lat="42.812393" lon="0.914164">
        <ele>1611.2</ele>
        <time>2015-04-12T06:38:41Z</time>
      </trkpt>
      <trkpt lat="42.812193" lon="0.914018">
        <ele>1642.4</ele>
        <time>2015-04-12T06:46:17Z</time>
      </trkpt>
      <trkpt lat="42.812114" lon="0.913912">
        <ele>1644.8</ele>
        <time>2015-04-12T06:46:55Z</time>
      </trkpt>
      <trkpt lat="42.812045" lon="0.913905">
        <ele>1648.8</ele>
        <time>2015-04-12T06:47:20Z</time>
      </trkpt>
      <trkpt lat="42.811864" lon="0.913970">
        <ele>1652.8</ele>
        <time>2015-04-12T06:47:48Z</time>
      </trkpt>
      <trkpt lat="42.811802" lon="0.913955">
        <ele>1655.4</ele>
        <time>2015-04-12T06:48:08Z</time>
      </trkpt>
      <trkpt lat="42.811764" lon="0.913957">
        <ele>1658.8</ele>
        <time>2015-04-12T06:48:33Z</time>
      </trkpt>
      <trkpt lat="42.811594" lon="0.914082">
        <ele>1661.5</ele>
        <time>2015-04-12T06:48:51Z</time>
      </trkpt>
      <trkpt lat="42.811544" lon="0.914031">
        <ele>1663.9</ele>
        <time>2015-04-12T06:49:10Z</time>
      </trkpt>
      <trkpt lat="42.811514" lon="0.913988">
        <ele>1666.4</ele>
        <time>2015-04-12T06:49:30Z</time>
      </trkpt>
      <trkpt lat="42.811402" lon="0.913935">
        <ele>1687.9</ele>
        <time>2015-04-12T06:53:40Z</time>
      </trkpt>
      <trkpt lat="42.811379" lon="0.913941">
        <ele>1691.1</ele>
        <time>2015-04-12T06:54:04Z</time>
      </trkpt>
      <trkpt lat="42.811263" lon="0.913943">
        <ele>1693.1</ele>
        <time>2015-04-12T06:54:19Z</time>
      </trkpt>
      <trkpt lat="42.811136" lon="0.914014">
        <ele>1696.4</ele>
        <time>2015-04-12T06:54:37Z</time>
      </trkpt>
      <trkpt lat="42.811067" lon="0.914040">
        <ele>1699.9</ele>
        <time>2015-04-12T06:54:58Z</time>
      </trkpt>
      <trkpt lat="42.811006" lon="0.914014">
        <ele>1702.4</ele>
        <time>2015-04-12T06:55:13Z</time>
      </trkpt>
      <trkpt lat="42.810954" lon="0.914022">
        <ele>1705.7</ele>
        <time>2015-04-12T06:55:33Z</time>
      </trkpt>
      <trkpt lat="42.810927" lon="0.913943">
        <ele>1707.8</ele>
        <time>2015-04-12T06:55:52Z</time>
      </trkpt>
      <trkpt lat="42.810804" lon="0.913809">
        <ele>1725.8</ele>
        <time>2015-04-12T06:57:52Z</time>
      </trkpt>
      <trkpt lat="42.810774" lon="0.913744">
        <ele>1728.3</ele>
        <time>2015-04-12T06:58:15Z</time>
      </trkpt>
      <trkpt lat="42.810753" lon="0.913736">
        <ele>1732.3</ele>
        <time>2015-04-12T06:58:42Z</time>
      </trkpt>
      <trkpt lat="42.810697" lon="0.913734">
        <ele>1734.2</ele>
        <time>2015-04-12T06:58:58Z</time>
      </trkpt>
      <trkpt lat="42.810622" lon="0.913683">
        <ele>1740.1</ele>
        <time>2015-04-12T06:59:39Z</time>
      </trkpt>
      <trkpt lat="42.810544" lon="0.913688">
        <ele>1743.1</ele>
        <time>2015-04-12T06:59:58Z</time>
      </trkpt>
      <trkpt lat="42.810522" lon="0.913668">
        <ele>1747.5</ele>
        <time>2015-04-12T07:00:24Z</time>
      </trkpt>
      <trkpt lat="42.810437" lon="0.913679">
        <ele>1749.4</ele>
        <time>2015-04-12T07:00:39Z</time>
      </trkpt>
      <trkpt lat="42.810371" lon="0.913660">
        <ele>1751.6</ele>
        <time>2015-04-12T07:00:53Z</time>
      </trkpt>
      <trkpt lat="42.810311" lon="0.913664">
        <ele>1754.9</ele>
        <time>2015-04-12T07:01:18Z</time>
      </trkpt>
      <trkpt lat="42.810280" lon="0.913641">
        <ele>1758.8</ele>
        <time>2015-04-12T07:01:41Z</time>
      </trkpt>
      <trkpt lat="42.810205" lon="0.913638">
        <ele>1762.9</ele>
        <time>2015-04-12T07:02:06Z</time>
      </trkpt>
      <trkpt lat="42.810165" lon="0.913639">
        <ele>1767.6</ele>
        <time>2015-04-12T07:02:36Z</time>
      </trkpt>
      <trkpt lat="42.810121" lon="0.913617">
        <ele>1773.1</ele>
        <time>2015-04-12T07:03:13Z</time>
      </trkpt>
      <trkpt lat="42.810073" lon="0.913577">
        <ele>1778.0</ele>
        <time>2015-04-12T07:03:47Z</time>
      </trkpt>
      <trkpt lat="42.810001" lon="0.913598">
        <ele>1780.9</ele>
        <time>2015-04-12T07:04:11Z</time>
      </trkpt>
      <trkpt lat="42.809917" lon="0.913551">
        <ele>1786.0</ele>
        <time>2015-04-12T07:04:46Z</time>
      </trkpt>
      <trkpt lat="42.809896" lon="0.913490">
        <ele>1791.2</ele>
        <time>2015-04-12T07:05:18Z</time>
      </trkpt>
      <trkpt lat="42.809812" lon="0.913407">
        <ele>1804.1</ele>
        <time>2015-04-12T07:10:38Z</time>
      </trkpt>
      <trkpt lat="42.809676" lon="0.913407">
        <ele>1806.1</ele>
        <time>2015-04-12T07:10:52Z</time>
      </trkpt>
      <trkpt lat="42.809661" lon="0.913471">
        <ele>1808.4</ele>
        <time>2015-04-12T07:11:08Z</time>
      </trkpt>
      <trkpt lat="42.809639" lon="0.913473">
        <ele>1811.5</ele>
        <time>2015-04-12T07:11:27Z</time>
      </trkpt>
      <trkpt lat="42.809571" lon="0.913519">
        <ele>1814.2</ele>
        <time>2015-04-12T07:11:41Z</time>
      </trkpt>
      <trkpt lat="42.809457" lon="0.913539">
        <ele>1817.1</ele>
        <time>2015-04-12T07:11:56Z</time>
      </trkpt>
      <trkpt lat="42.809382" lon="0.913563">
        <ele>1820.0</ele>
        <time>2015-04-12T07:12:14Z</time>
      </trkpt>
      <trkpt lat="42.809315" lon="0.913537">
        <ele>1822.6</ele>
        <time>2015-04-12T07:12:33Z</time>
      </trkpt>
      <trkpt lat="42.809232" lon="0.913539">
        <ele>1824.7</ele>
        <time>2015-04-12T07:12:45Z</time>
      </trkpt>
      <trkpt lat="42.809152" lon="0.913552">
        <ele>1826.7</ele>
        <time>2015-04-12T07:12:59Z</time>
      </trkpt>
      <trkpt lat="42.809030" lon="0.913554">
        <ele>1850.5</ele>
        <time>2015-04-12T07:15:39Z</time>
      </trkpt>
      <trkpt lat="42.808915" lon="0.913493">
        <ele>1858.1</ele>
        <time>2015-04-12T07:16:31Z</time>
      </trkpt>
      <trkpt lat="42.808859" lon="0.913428">
        <ele>1869.0</ele>
        <time>2015-04-12T07:17:50Z</time>
      </trkpt>
      <trkpt lat="42.808774" lon="0.913465">
        <ele>1872.1</ele>
        <time>2015-04-12T07:18:07Z</time>
      </trkpt>
      <trkpt lat="42.808698" lon="0.913433">
        <ele>1882.3</ele>
        <time>2015-04-12T07:21:18Z</time>
      </trkpt>
      <trkpt lat="42.808684" lon="0.913338">
        <ele>1885.7</ele>
        <time>2015-04-12T07:21:39Z</time>
      </trkpt>
      <trkpt lat="42.808614" lon="0.913336">
        <ele>1888.7</ele>
        <time>2015-04-12T07:21:57Z</time>
      </trkpt>
      <trkpt lat="42.808489" lon="0.913311">
        <ele>1896.4</ele>
        <time>2015-04-12T07:22:39Z</time>
      </trkpt>
      <trkpt lat="42.808466" lon="0.913250">
        <ele>1899.9</ele>
        <time>2015-04-12T07:23:00Z</time>
      </trkpt>
      <trkpt lat="42.808423" lon="0.913254">
        <ele>1902.6</ele>
        <time>2015-04-12T07:23:17Z</time>
      </trkpt>
      <trkpt lat="42.808385" lon="0.913179">
        <ele>1907.4</ele>
        <time>2015-04-12T07:23:45Z</time>
      </trkpt>
      <trkpt lat="42.808366" lon="0.912982">
        <ele>1917.9</ele>
        <time>2015-04-12T07:30:23Z</time>
      </trkpt>
      <trkpt lat="42.808301" lon="0.912967">
        <ele>1923.4</ele>
        <time>2015-04-12T07:30:51Z</time>
      </trkpt>
      <trkpt lat="42.808261" lon="0.912897">
        <ele>1928.8</ele>
        <time>2015-04-12T07:31:26Z</time>
      </trkpt>
      <trkpt lat="42.808182" lon="0.912946">
        <ele>1934.5</ele>
        <time>2015-04-12T07:31:55Z</time>
      </trkpt>
      <trkpt lat="42.808102" lon="0.912956">
        <ele>1940.2</ele>
        <time>2015-04-12T07:32:29Z</time>
      </trkpt>
      <trkpt lat="42.808067" lon="0.912900">
        <ele>1945.1</ele>
        <time>2015-04-12T07:32:58Z</time>
      </trkpt>
      <trkpt lat="42.807986" lon="0.912928">
        <ele>1948.3</ele>
        <time>2015-04-12T07:33:20Z</time>
      </trkpt>
      <trkpt lat="42.807917" lon="0.912926">
        <ele>1951.8</ele>
        <time>2015-04-12T07:33:44Z</time>
      </trkpt>
      <trkpt lat="42.807852" lon="0.912930">
        <ele>1955.8</ele>
        <time>2015-04-12T07:34:06Z</time>
      </trkpt>
      <trkpt lat="42.807833" lon="0.912864">
        <ele>1959.8</ele>
        <time>2015-04-12T07:34:28Z</time>
      </trkpt>
      <trkpt lat="42.807766" lon="0.912849">
        <ele>1962.7</ele>
        <time>2015-04-12T07:34:44Z</time>
      </trkpt>
      <trkpt lat="42.807687" lon="0.912912">
        <ele>1979.7</ele>
        <time>2015-04-12T07:36:44Z</time>
      </trkpt>
      <trkpt lat="42.807636" lon="0.912963">
        <ele>1982.1</ele>
        <time>2015-04-12T07:37:50Z</time>
      </trkpt>
      <trkpt lat="42.807530" lon="0.912920">
        <ele>1990.9</ele>
        <time>2015-04-12T07:38:55Z</time>
      </trkpt>
      <trkpt lat="42.807462" lon="0.912928">
        <ele>1995.4</ele>
        <time>2015-04-12T07:39:24Z</time>
      </trkpt>
      <trkpt lat="42.807409" lon="0.912876">
        <ele>2001.9</ele>
        <time>2015-04-12T07:40:06Z</time>
      </trkpt>
      <trkpt lat="42.807333" lon="0.912926">
        <ele>2005.2</ele>
        <time>2015-04-12T07:40:40Z</time>
      </trkpt>
      <trkpt lat="42.807257" lon="0.912870">
        <ele>2008.1</ele>
        <time>2015-04-12T07:41:01Z</time>
      </trkpt>
      <trkpt lat="42.807197" lon="0.912882">
        <ele>2013.1</ele>
        <time>2015-04-12T07:41:30Z</time>
      </trkpt>
      <trkpt lat="42.807111" lon="0.912911">
        <ele>2017.1</ele>
        <time>2015-04-12T07:41:55Z</time>
      </trkpt>
      <trkpt lat="42.807048" lon="0.912921">
        <ele>2022.1</ele>
        <time>2015-04-12T07:42:21Z</time>
      </trkpt>
      <trkpt lat="42.806986" lon="0.912870">
        <ele>2027.0</ele>
        <time>2015-04-12T07:42:52Z</time>
      </trkpt>
      <trkpt lat="42.806892" lon="0.912841">
        <ele>2034.3</ele>
        <time>2015-04-12T07:43:39Z</time>
      </trkpt>
      <trkpt lat="42.806821" lon="0.912885">
        <ele>2036.4</ele>
        <time>2015-04-12T07:43:57Z</time>
      </trkpt>
      <trkpt lat="42.806764" lon="0.912854">
        <ele>2039.7</ele>
        <time>2015-04-12T07:44:16Z</time>
      </trkpt>
      <trkpt lat="42.806724" lon="0.912760">
        <ele>2049.9</ele>
        <time>2015-04-12T07:45:28Z</time>
      </trkpt>
      <trkpt lat="42.806676" lon="0.912690">
        <ele>2052.5</ele>
        <time>2015-04-12T07:45:46Z</time>
      </trkpt>
      <trkpt lat="42.806596" lon="0.912622">
        <ele>2058.4</ele>
        <time>2015-04-12T07:46:25Z</time>
      </trkpt>
      <trkpt lat="42.806523" lon="0.912669">
        <ele>2064.4</ele>
        <time>2015-04-12T07:47:03Z</time>
      </trkpt>
      <trkpt lat="42.806469" lon="0.912603">
        <ele>2070.7</ele>
        <time>2015-04-12T07:47:46Z</time>
      </trkpt>
      <trkpt lat="42.806392" lon="0.912587">
        <ele>2073.7</ele>
        <time>2015-04-12T07:48:05Z</time>
      </trkpt>
      <trkpt lat="42.806320" lon="0.912589">
        <ele>2076.1</ele>
        <time>2015-04-12T07:48:22Z</time>
      </trkpt>
      <trkpt lat="42.806229" lon="0.912585">
        <ele>2079.6</ele>
        <time>2015-04-12T07:49:45Z</time>
      </trkpt>
      <trkpt lat="42.806180" lon="0.912588">
        <ele>2091.6</ele>
        <time>2015-04-12T07:52:26Z</time>
      </trkpt>
      <trkpt lat="42.806114" lon="0.912547">
        <ele>2102.6</ele>
        <time>2015-04-12T07:53:57Z</time>
      </trkpt>
      <trkpt lat="42.806062" lon="0.912532">
        <ele>2106.7</ele>
        <time>2015-04-12T07:54:25Z</time>
      </trkpt>
      <trkpt lat="42.806010" lon="0.912535">
        <ele>2113.2</ele>
        <time>2015-04-12T07:55:07Z</time>
      </trkpt>
      <trkpt lat="42.805909" lon="0.912525">
        <ele>2118.4</ele>
        <time>2015-04-12T07:55:49Z</time>
      </trkpt>
      <trkpt lat="42.805805" lon="0.912401">
        <ele>2130.9</ele>
        <time>2015-04-12T07:57:52Z</time>
      </trkpt>
      <trkpt lat="42.805751" lon="0.912378">
        <ele>2134.1</ele>
        <time>2015-04-12T07:58:19Z</time>
      </trkpt>
      <trkpt lat="42.805720" lon="0.912348">
        <ele>2136.8</ele>
        <time>2015-04-12T07:58:38Z</time>
      </trkpt>
      <trkpt lat="42.805696" lon="0.912348">
        <ele>2139.2</ele>
        <time>2015-04-12T07:58:54Z</time>
      </trkpt>
      <trkpt lat="42.805637" lon="0.912365">
        <ele>2142.2</ele>
        <time>2015-04-12T07:59:15Z</time>
      </trkpt>
      <trkpt lat="42.805555" lon="0.912289">
        <ele>2148.8</ele>
        <time>2015-04-12T08:00:07Z</time>
      </trkpt>
      <trkpt lat="42.805530" lon="0.912260">
        <ele>2151.5</ele>
        <time>2015-04-12T08:00:26Z</time>
      </trkpt>
      <trkpt lat="42.805493" lon="0.912237">
        <ele>2154.4</ele>
        <time>2015-04-12T08:00:45Z</time>
      </trkpt>
      <trkpt lat="42.805439" lon="0.912197">
        <ele>2157.1</ele>
        <time>2015-04-12T08:01:03Z</time>
      </trkpt>
      <trkpt lat="42.805378" lon="0.912131">
        <ele>2161.8</ele>
        <time>2015-04-12T08:01:37Z</time>
      </trkpt>
      <trkpt lat="42.805332" lon="0.912067">
        <ele>2167.1</ele>
        <time>2015-04-12T08:02:17Z</time>
      </trkpt>
      <trkpt lat="42.805292" lon="0.912006">
        <ele>2175.4</ele>
        <time>2015-04-12T08:03:28Z</time>
      </trkpt>
      <trkpt lat="42.805210" lon="0.912043">
        <ele>2179.6</ele>
        <time>2015-04-12T08:03:55Z</time>
      </trkpt>
      <trkpt lat="42.805146" lon="0.911990">
        <ele>2182.7</ele>
        <time>2015-04-12T08:04:15Z</time>
      </trkpt>
      <trkpt lat="42.805113" lon="0.911887">
        <ele>2184.5</ele>
        <time>2015-04-12T08:04:33Z</time>
      </trkpt>
      <trkpt lat="42.805051" lon="0.911850">
        <ele>2188.2</ele>
        <time>2015-04-12T08:05:12Z</time>
      </trkpt>
      <trkpt lat="42.805018" lon="0.911764">
        <ele>2189.6</ele>
        <time>2015-04-12T08:05:33Z</time>
      </trkpt>
      <trkpt lat="42.804981" lon="0.911753">
        <ele>2194.2</ele>
        <time>2015-04-12T08:06:01Z</time>
      </trkpt>
      <trkpt lat="42.804921" lon="0.911743">
        <ele>2197.3</ele>
        <time>2015-04-12T08:06:40Z</time>
      </trkpt>
      <trkpt lat="42.804851" lon="0.911770">
        <ele>2199.4</ele>
        <time>2015-04-12T08:07:09Z</time>
      </trkpt>
      <trkpt lat="42.804795" lon="0.911676">
        <ele>2202.5</ele>
        <time>2015-04-12T08:07:31Z</time>
      </trkpt>
      <trkpt lat="42.804745" lon="0.911637">
        <ele>2207.0</ele>
        <time>2015-04-12T08:07:58Z</time>
      </trkpt>
      <trkpt lat="42.804707" lon="0.911598">
        <ele>2210.1</ele>
        <time>2015-04-12T08:08:20Z</time>
      </trkpt>
      <trkpt lat="42.804704" lon="0.911588">
        <ele>2225.9</ele>
        <time>2015-04-12T08:10:17Z</time>
      </trkpt>
      <trkpt lat="42.804631" lon="0.911585">
        <ele>2229.5</ele>
        <time>2015-04-12T08:10:36Z</time>
      </trkpt>
      <trkpt lat="42.804591" lon="0.911518">
        <ele>2246.3</ele>
        <time>2015-04-12T08:33:27Z</time>
      </trkpt>
      <trkpt lat="42.804630" lon="0.911383">
        <ele>2247.4</ele>
        <time>2015-04-12T08:33:42Z</time>
      </trkpt>
      <trkpt lat="42.804647" lon="0.911245">
        <ele>2248.5</ele>
        <time>2015-04-12T08:34:01Z</time>
      </trkpt>
      <trkpt lat="42.804620" lon="0.911115">
        <ele>2250.2</ele>
        <time>2015-04-12T08:34:19Z</time>
      </trkpt>
      <trkpt lat="42.804574" lon="0.910994">
        <ele>2251.6</ele>
        <time>2015-04-12T08:34:36Z</time>
      </trkpt>
      <trkpt lat="42.804620" lon="0.910897">
        <ele>2253.8</ele>
        <time>2015-04-12T08:34:52Z</time>
      </trkpt>
      <trkpt lat="42.804658" lon="0.910769">
        <ele>2254.8</ele>
        <time>2015-04-12T08:35:07Z</time>
      </trkpt>
      <trkpt lat="42.804708" lon="0.910655">
        <ele>2256.1</ele>
        <time>2015-04-12T08:35:24Z</time>
      </trkpt>
      <trkpt lat="42.804744" lon="0.910529">
        <ele>2256.4</ele>
        <time>2015-04-12T08:35:37Z</time>
      </trkpt>
      <trkpt lat="42.804808" lon="0.910413">
        <ele>2257.0</ele>
        <time>2015-04-12T08:35:53Z</time>
      </trkpt>
      <trkpt lat="42.804854" lon="0.910300">
        <ele>2258.0</ele>
        <time>2015-04-12T08:36:10Z</time>
      </trkpt>
      <trkpt lat="42.804889" lon="0.910180">
        <ele>2260.0</ele>
        <time>2015-04-12T08:36:30Z</time>
      </trkpt>
      <trkpt lat="42.804943" lon="0.910069">
        <ele>2263.3</ele>
        <time>2015-04-12T08:36:51Z</time>
      </trkpt>
      <trkpt lat="42.804974" lon="0.909943">
        <ele>2266.6</ele>
        <time>2015-04-12T08:37:11Z</time>
      </trkpt>
      <trkpt lat="42.804987" lon="0.909839">
        <ele>2270.1</ele>
        <time>2015-04-12T08:37:33Z</time>
      </trkpt>
      <trkpt lat="42.805020" lon="0.909667">
        <ele>2276.4</ele>
        <time>2015-04-12T08:38:17Z</time>
      </trkpt>
      <trkpt lat="42.805081" lon="0.909594">
        <ele>2281.0</ele>
        <time>2015-04-12T08:38:46Z</time>
      </trkpt>
      <trkpt lat="42.805137" lon="0.909527">
        <ele>2284.5</ele>
        <time>2015-04-12T08:39:12Z</time>
      </trkpt>
      <trkpt lat="42.805153" lon="0.909413">
        <ele>2287.1</ele>
        <time>2015-04-12T08:39:36Z</time>
      </trkpt>
      <trkpt lat="42.805198" lon="0.909297">
        <ele>2289.5</ele>
        <time>2015-04-12T08:39:55Z</time>
      </trkpt>
      <trkpt lat="42.805225" lon="0.909160">
        <ele>2291.4</ele>
        <time>2015-04-12T08:40:14Z</time>
      </trkpt>
      <trkpt lat="42.805192" lon="0.909056">
        <ele>2292.1</ele>
        <time>2015-04-12T08:40:30Z</time>
      </trkpt>
      <trkpt lat="42.805231" lon="0.908933">
        <ele>2295.0</ele>
        <time>2015-04-12T08:40:52Z</time>
      </trkpt>
      <trkpt lat="42.805200" lon="0.908834">
        <ele>2298.6</ele>
        <time>2015-04-12T08:41:13Z</time>
      </trkpt>
      <trkpt lat="42.805185" lon="0.908697">
        <ele>2304.4</ele>
        <time>2015-04-12T08:44:39Z</time>
      </trkpt>
      <trkpt lat="42.805210" lon="0.908646">
        <ele>2304.7</ele>
        <time>2015-04-12T08:49:29Z</time>
      </trkpt>
      <trkpt lat="42.805272" lon="0.908558">
        <ele>2303.7</ele>
        <time>2015-04-12T08:49:50Z</time>
      </trkpt>
      <trkpt lat="42.805357" lon="0.908503">
        <ele>2301.4</ele>
        <time>2015-04-12T08:49:59Z</time>
      </trkpt>
      <trkpt lat="42.805420" lon="0.908425">
        <ele>2298.3</ele>
        <time>2015-04-12T08:50:07Z</time>
      </trkpt>
      <trkpt lat="42.805427" lon="0.908315">
        <ele>2295.8</ele>
        <time>2015-04-12T08:50:17Z</time>
      </trkpt>
      <trkpt lat="42.805451" lon="0.908177">
        <ele>2295.9</ele>
        <time>2015-04-12T08:50:31Z</time>
      </trkpt>
      <trkpt lat="42.805487" lon="0.908026">
        <ele>2297.1</ele>
        <time>2015-04-12T08:50:44Z</time>
      </trkpt>
      <trkpt lat="42.805527" lon="0.907896">
        <ele>2298.7</ele>
        <time>2015-04-12T08:50:57Z</time>
      </trkpt>
      <trkpt lat="42.805554" lon="0.907772">
        <ele>2301.0</ele>
        <time>2015-04-12T08:51:15Z</time>
      </trkpt>
      <trkpt lat="42.805594" lon="0.907642">
        <ele>2303.1</ele>
        <time>2015-04-12T08:51:30Z</time>
      </trkpt>
      <trkpt lat="42.805635" lon="0.907519">
        <ele>2304.8</ele>
        <time>2015-04-12T08:51:45Z</time>
      </trkpt>
      <trkpt lat="42.805658" lon="0.907406">
        <ele>2306.7</ele>
        <time>2015-04-12T08:52:03Z</time>
      </trkpt>
      <trkpt lat="42.805644" lon="0.907302">
        <ele>2310.4</ele>
        <time>2015-04-12T08:52:24Z</time>
      </trkpt>
      <trkpt lat="42.805623" lon="0.907174">
        <ele>2313.0</ele>
        <time>2015-04-12T08:52:44Z</time>
      </trkpt>
      <trkpt lat="42.805594" lon="0.907036">
        <ele>2315.6</ele>
        <time>2015-04-12T08:53:03Z</time>
      </trkpt>
      <trkpt lat="42.805592" lon="0.906893">
        <ele>2318.6</ele>
        <time>2015-04-12T08:53:21Z</time>
      </trkpt>
      <trkpt lat="42.805620" lon="0.906763">
        <ele>2320.8</ele>
        <time>2015-04-12T08:53:39Z</time>
      </trkpt>
      <trkpt lat="42.805650" lon="0.906631">
        <ele>2322.9</ele>
        <time>2015-04-12T08:53:55Z</time>
      </trkpt>
      <trkpt lat="42.805644" lon="0.906514">
        <ele>2324.9</ele>
        <time>2015-04-12T08:54:10Z</time>
      </trkpt>
      <trkpt lat="42.805658" lon="0.906396">
        <ele>2327.2</ele>
        <time>2015-04-12T08:54:25Z</time>
      </trkpt>
      <trkpt lat="42.805641" lon="0.906280">
        <ele>2328.9</ele>
        <time>2015-04-12T08:54:39Z</time>
      </trkpt>
      <trkpt lat="42.805642" lon="0.906151">
        <ele>2331.1</ele>
        <time>2015-04-12T08:54:55Z</time>
      </trkpt>
      <trkpt lat="42.805683" lon="0.906061">
        <ele>2333.7</ele>
        <time>2015-04-12T08:55:12Z</time>
      </trkpt>
      <trkpt lat="42.805717" lon="0.905946">
        <ele>2335.7</ele>
        <time>2015-04-12T08:55:26Z</time>
      </trkpt>
      <trkpt lat="42.805746" lon="0.905836">
        <ele>2337.4</ele>
        <time>2015-04-12T08:55:40Z</time>
      </trkpt>
      <trkpt lat="42.805743" lon="0.905710">
        <ele>2339.4</ele>
        <time>2015-04-12T08:55:58Z</time>
      </trkpt>
      <trkpt lat="42.805766" lon="0.905593">
        <ele>2341.8</ele>
        <time>2015-04-12T08:56:14Z</time>
      </trkpt>
      <trkpt lat="42.805822" lon="0.905510">
        <ele>2344.1</ele>
        <time>2015-04-12T08:56:32Z</time>
      </trkpt>
      <trkpt lat="42.805806" lon="0.905510">
        <ele>2344.8</ele>
        <time>2015-04-12T08:58:42Z</time>
      </trkpt>
      <trkpt lat="42.805804" lon="0.905386">
        <ele>2346.3</ele>
        <time>2015-04-12T08:59:01Z</time>
      </trkpt>
      <trkpt lat="42.805791" lon="0.905247">
        <ele>2349.2</ele>
        <time>2015-04-12T08:59:25Z</time>
      </trkpt>
      <trkpt lat="42.805795" lon="0.905110">
        <ele>2352.1</ele>
        <time>2015-04-12T08:59:49Z</time>
      </trkpt>
      <trkpt lat="42.805790" lon="0.904970">
        <ele>2353.9</ele>
        <time>2015-04-12T09:00:06Z</time>
      </trkpt>
      <trkpt lat="42.805792" lon="0.904828">
        <ele>2354.8</ele>
        <time>2015-04-12T09:00:22Z</time>
      </trkpt>
      <trkpt lat="42.805750" lon="0.904663">
        <ele>2355.4</ele>
        <time>2015-04-12T09:00:38Z</time>
      </trkpt>
      <trkpt lat="42.805744" lon="0.904516">
        <ele>2356.7</ele>
        <time>2015-04-12T09:00:53Z</time>
      </trkpt>
      <trkpt lat="42.805746" lon="0.904391">
        <ele>2357.9</ele>
        <time>2015-04-12T09:01:08Z</time>
      </trkpt>
      <trkpt lat="42.805744" lon="0.904254">
        <ele>2359.3</ele>
        <time>2015-04-12T09:01:24Z</time>
      </trkpt>
      <trkpt lat="42.805757" lon="0.904125">
        <ele>2360.5</ele>
        <time>2015-04-12T09:01:39Z</time>
      </trkpt>
      <trkpt lat="42.805774" lon="0.903996">
        <ele>2361.4</ele>
        <time>2015-04-12T09:01:54Z</time>
      </trkpt>
      <trkpt lat="42.805773" lon="0.903880">
        <ele>2362.8</ele>
        <time>2015-04-12T09:02:10Z</time>
      </trkpt>
      <trkpt lat="42.805787" lon="0.903755">
        <ele>2364.5</ele>
        <time>2015-04-12T09:02:28Z</time>
      </trkpt>
      <trkpt lat="42.805818" lon="0.903613">
        <ele>2365.8</ele>
        <time>2015-04-12T09:02:45Z</time>
      </trkpt>
      <trkpt lat="42.805859" lon="0.903478">
        <ele>2367.8</ele>
        <time>2015-04-12T09:03:08Z</time>
      </trkpt>
      <trkpt lat="42.805876" lon="0.903367">
        <ele>2368.9</ele>
        <time>2015-04-12T09:03:24Z</time>
      </trkpt>
      <trkpt lat="42.805902" lon="0.903277">
        <ele>2370.8</ele>
        <time>2015-04-12T09:03:43Z</time>
      </trkpt>
      <trkpt lat="42.805944" lon="0.903163">
        <ele>2372.4</ele>
        <time>2015-04-12T09:04:03Z</time>
      </trkpt>
      <trkpt lat="42.805993" lon="0.903058">
        <ele>2373.6</ele>
        <time>2015-04-12T09:04:22Z</time>
      </trkpt>
      <trkpt lat="42.806028" lon="0.903034">
        <ele>2373.6</ele>
        <time>2015-04-12T09:05:52Z</time>
      </trkpt>
      <trkpt lat="42.806053" lon="0.902899">
        <ele>2374.4</ele>
        <time>2015-04-12T09:06:17Z</time>
      </trkpt>
      <trkpt lat="42.806061" lon="0.902749">
        <ele>2374.4</ele>
        <time>2015-04-12T09:06:29Z</time>
      </trkpt>
      <trkpt lat="42.806084" lon="0.902605">
        <ele>2373.9</ele>
        <time>2015-04-12T09:06:41Z</time>
      </trkpt>
      <trkpt lat="42.806103" lon="0.902478">
        <ele>2372.6</ele>
        <time>2015-04-12T09:06:52Z</time>
      </trkpt>
      <trkpt lat="42.806122" lon="0.902330">
        <ele>2372.1</ele>
        <time>2015-04-12T09:07:02Z</time>
      </trkpt>
      <trkpt lat="42.806144" lon="0.902201">
        <ele>2372.3</ele>
        <time>2015-04-12T09:07:12Z</time>
      </trkpt>
      <trkpt lat="42.806174" lon="0.902076">
        <ele>2372.5</ele>
        <time>2015-04-12T09:07:23Z</time>
      </trkpt>
      <trkpt lat="42.806206" lon="0.901961">
        <ele>2372.9</ele>
        <time>2015-04-12T09:07:33Z</time>
      </trkpt>
      <trkpt lat="42.806238" lon="0.901855">
        <ele>2373.6</ele>
        <time>2015-04-12T09:07:43Z</time>
      </trkpt>
      <trkpt lat="42.806266" lon="0.901762">
        <ele>2373.9</ele>
        <time>2015-04-12T09:07:52Z</time>
      </trkpt>
      <trkpt lat="42.806297" lon="0.901657">
        <ele>2374.2</ele>
        <time>2015-04-12T09:08:01Z</time>
      </trkpt>
      <trkpt lat="42.806325" lon="0.901549">
        <ele>2374.6</ele>
        <time>2015-04-12T09:08:12Z</time>
      </trkpt>
      <trkpt lat="42.806365" lon="0.901436">
        <ele>2375.4</ele>
        <time>2015-04-12T09:08:23Z</time>
      </trkpt>
      <trkpt lat="42.806409" lon="0.901326">
        <ele>2375.6</ele>
        <time>2015-04-12T09:08:36Z</time>
      </trkpt>
      <trkpt lat="42.806432" lon="0.901203">
        <ele>2376.8</ele>
        <time>2015-04-12T09:08:49Z</time>
      </trkpt>
      <trkpt lat="42.806475" lon="0.901108">
        <ele>2377.7</ele>
        <time>2015-04-12T09:09:03Z</time>
      </trkpt>
      <trkpt lat="42.806503" lon="0.900976">
        <ele>2379.2</ele>
        <time>2015-04-12T09:09:21Z</time>
      </trkpt>
      <trkpt lat="42.806543" lon="0.900857">
        <ele>2381.2</ele>
        <time>2015-04-12T09:09:38Z</time>
      </trkpt>
      <trkpt lat="42.806596" lon="0.900760">
        <ele>2383.6</ele>
        <time>2015-04-12T09:09:57Z</time>
      </trkpt>
      <trkpt lat="42.806638" lon="0.900657">
        <ele>2386.1</ele>
        <time>2015-04-12T09:10:13Z</time>
      </trkpt>
      <trkpt lat="42.806686" lon="0.900577">
        <ele>2388.2</ele>
        <time>2015-04-12T09:10:28Z</time>
      </trkpt>
      <trkpt lat="42.806724" lon="0.900477">
        <ele>2390.5</ele>
        <time>2015-04-12T09:10:44Z</time>
      </trkpt>
      <trkpt lat="42.806742" lon="0.900424">
        <ele>2391.3</ele>
        <time>2015-04-12T09:11:20Z</time>
      </trkpt>
      <trkpt lat="42.806810" lon="0.900342">
        <ele>2391.5</ele>
        <time>2015-04-12T09:11:34Z</time>
      </trkpt>
      <trkpt lat="42.806820" lon="0.900277">
        <ele>2391.5</ele>
        <time>2015-04-12T09:12:58Z</time>
      </trkpt>
      <trkpt lat="42.806843" lon="0.900184">
        <ele>2392.9</ele>
        <time>2015-04-12T09:13:36Z</time>
      </trkpt>
      <trkpt lat="42.806887" lon="0.900090">
        <ele>2396.9</ele>
        <time>2015-04-12T09:14:01Z</time>
      </trkpt>
      <trkpt lat="42.806913" lon="0.899987">
        <ele>2399.5</ele>
        <time>2015-04-12T09:14:24Z</time>
      </trkpt>
      <trkpt lat="42.806925" lon="0.899841">
        <ele>2402.0</ele>
        <time>2015-04-12T09:14:41Z</time>
      </trkpt>
      <trkpt lat="42.806973" lon="0.899725">
        <ele>2404.5</ele>
        <time>2015-04-12T09:15:02Z</time>
      </trkpt>
      <trkpt lat="42.806987" lon="0.899617">
        <ele>2406.9</ele>
        <time>2015-04-12T09:15:23Z</time>
      </trkpt>
      <trkpt lat="42.807030" lon="0.899516">
        <ele>2410.0</ele>
        <time>2015-04-12T09:15:44Z</time>
      </trkpt>
      <trkpt lat="42.807057" lon="0.899409">
        <ele>2412.0</ele>
        <time>2015-04-12T09:16:02Z</time>
      </trkpt>
      <trkpt lat="42.807058" lon="0.899425">
        <ele>2413.0</ele>
        <time>2015-04-12T09:17:05Z</time>
      </trkpt>
      <trkpt lat="42.807052" lon="0.899283">
        <ele>2412.1</ele>
        <time>2015-04-12T09:17:47Z</time>
      </trkpt>
      <trkpt lat="42.807035" lon="0.899135">
        <ele>2412.8</ele>
        <time>2015-04-12T09:18:03Z</time>
      </trkpt>
      <trkpt lat="42.807040" lon="0.899035">
        <ele>2415.3</ele>
        <time>2015-04-12T09:18:26Z</time>
      </trkpt>
      <trkpt lat="42.807029" lon="0.898892">
        <ele>2416.6</ele>
        <time>2015-04-12T09:18:40Z</time>
      </trkpt>
      <trkpt lat="42.807006" lon="0.898785">
        <ele>2417.8</ele>
        <time>2015-04-12T09:18:56Z</time>
      </trkpt>
      <trkpt lat="42.806998" lon="0.898676">
        <ele>2418.6</ele>
        <time>2015-04-12T09:19:16Z</time>
      </trkpt>
      <trkpt lat="42.806973" lon="0.898510">
        <ele>2419.8</ele>
        <time>2015-04-12T09:19:31Z</time>
      </trkpt>
      <trkpt lat="42.806958" lon="0.898378">
        <ele>2420.8</ele>
        <time>2015-04-12T09:19:47Z</time>
      </trkpt>
      <trkpt lat="42.806908" lon="0.898253">
        <ele>2422.2</ele>
        <time>2015-04-12T09:20:05Z</time>
      </trkpt>
      <trkpt lat="42.806874" lon="0.898121">
        <ele>2423.4</ele>
        <time>2015-04-12T09:20:20Z</time>
      </trkpt>
      <trkpt lat="42.806863" lon="0.898010">
        <ele>2424.6</ele>
        <time>2015-04-12T09:20:35Z</time>
      </trkpt>
      <trkpt lat="42.806832" lon="0.897906">
        <ele>2426.5</ele>
        <time>2015-04-12T09:20:53Z</time>
      </trkpt>
      <trkpt lat="42.806855" lon="0.897792">
        <ele>2429.3</ele>
        <time>2015-04-12T09:21:12Z</time>
      </trkpt>
      <trkpt lat="42.806875" lon="0.897666">
        <ele>2432.0</ele>
        <time>2015-04-12T09:21:36Z</time>
      </trkpt>
      <trkpt lat="42.806869" lon="0.897555">
        <ele>2435.6</ele>
        <time>2015-04-12T09:22:05Z</time>
      </trkpt>
      <trkpt lat="42.806879" lon="0.897429">
        <ele>2438.5</ele>
        <time>2015-04-12T09:22:27Z</time>
      </trkpt>
      <trkpt lat="42.806932" lon="0.897349">
        <ele>2442.3</ele>
        <time>2015-04-12T09:22:50Z</time>
      </trkpt>
      <trkpt lat="42.806924" lon="0.897210">
        <ele>2446.1</ele>
        <time>2015-04-12T09:23:14Z</time>
      </trkpt>
      <trkpt lat="42.806946" lon="0.897113">
        <ele>2449.3</ele>
        <time>2015-04-12T09:23:35Z</time>
      </trkpt>
      <trkpt lat="42.806971" lon="0.896998">
        <ele>2452.3</ele>
        <time>2015-04-12T09:23:57Z</time>
      </trkpt>
      <trkpt lat="42.806977" lon="0.896890">
        <ele>2454.4</ele>
        <time>2015-04-12T09:24:18Z</time>
      </trkpt>
      <trkpt lat="42.806933" lon="0.896785">
        <ele>2453.6</ele>
        <time>2015-04-12T09:24:31Z</time>
      </trkpt>
      <trkpt lat="42.806993" lon="0.896553">
        <ele>2446.1</ele>
        <time>2015-04-12T09:48:02Z</time>
      </trkpt>
      <trkpt lat="42.807086" lon="0.896585">
        <ele>2443.6</ele>
        <time>2015-04-12T09:48:18Z</time>
      </trkpt>
      <trkpt lat="42.807177" lon="0.896537">
        <ele>2440.8</ele>
        <time>2015-04-12T09:48:32Z</time>
      </trkpt>
      <trkpt lat="42.807239" lon="0.896526">
        <ele>2439.1</ele>
        <time>2015-04-12T09:48:53Z</time>
      </trkpt>
      <trkpt lat="42.807309" lon="0.896502">
        <ele>2433.2</ele>
        <time>2015-04-12T10:22:52Z</time>
      </trkpt>
      <trkpt lat="42.807374" lon="0.896410">
        <ele>2431.9</ele>
        <time>2015-04-12T10:25:49Z</time>
      </trkpt>
      <trkpt lat="42.807457" lon="0.896396">
        <ele>2430.0</ele>
        <time>2015-04-12T10:25:59Z</time>
      </trkpt>
      <trkpt lat="42.807548" lon="0.896408">
        <ele>2426.4</ele>
        <time>2015-04-12T10:26:14Z</time>
      </trkpt>
      <trkpt lat="42.807655" lon="0.896411">
        <ele>2422.9</ele>
        <time>2015-04-12T10:26:28Z</time>
      </trkpt>
      <trkpt lat="42.807761" lon="0.896392">
        <ele>2418.5</ele>
        <time>2015-04-12T10:26:41Z</time>
      </trkpt>
      <trkpt lat="42.807844" lon="0.896338">
        <ele>2413.8</ele>
        <time>2015-04-12T10:26:53Z</time>
      </trkpt>
      <trkpt lat="42.807923" lon="0.896273">
        <ele>2408.5</ele>
        <time>2015-04-12T10:27:06Z</time>
      </trkpt>
      <trkpt lat="42.807989" lon="0.896230">
        <ele>2400.6</ele>
        <time>2015-04-12T10:27:40Z</time>
      </trkpt>
      <trkpt lat="42.808069" lon="0.896145">
        <ele>2396.6</ele>
        <time>2015-04-12T10:27:54Z</time>
      </trkpt>
      <trkpt lat="42.808152" lon="0.896087">
        <ele>2391.3</ele>
        <time>2015-04-12T10:28:05Z</time>
      </trkpt>
      <trkpt lat="42.808248" lon="0.896053">
        <ele>2385.9</ele>
        <time>2015-04-12T10:28:16Z</time>
      </trkpt>
      <trkpt lat="42.808347" lon="0.895992">
        <ele>2380.0</ele>
        <time>2015-04-12T10:28:28Z</time>
      </trkpt>
      <trkpt lat="42.808419" lon="0.895933">
        <ele>2375.2</ele>
        <time>2015-04-12T10:28:39Z</time>
      </trkpt>
      <trkpt lat="42.808494" lon="0.895897">
        <ele>2372.2</ele>
        <time>2015-04-12T10:28:49Z</time>
      </trkpt>
      <trkpt lat="42.808570" lon="0.895865">
        <ele>2369.5</ele>
        <time>2015-04-12T10:29:01Z</time>
      </trkpt>
      <trkpt lat="42.808653" lon="0.895795">
        <ele>2366.1</ele>
        <time>2015-04-12T10:29:12Z</time>
      </trkpt>
      <trkpt lat="42.808748" lon="0.895732">
        <ele>2362.3</ele>
        <time>2015-04-12T10:29:24Z</time>
      </trkpt>
      <trkpt lat="42.808831" lon="0.895680">
        <ele>2357.8</ele>
        <time>2015-04-12T10:29:37Z</time>
      </trkpt>
      <trkpt lat="42.808924" lon="0.895667">
        <ele>2352.6</ele>
        <time>2015-04-12T10:29:52Z</time>
      </trkpt>
      <trkpt lat="42.809012" lon="0.895696">
        <ele>2347.3</ele>
        <time>2015-04-12T10:30:08Z</time>
      </trkpt>
      <trkpt lat="42.809097" lon="0.895721">
        <ele>2342.7</ele>
        <time>2015-04-12T10:30:21Z</time>
      </trkpt>
      <trkpt lat="42.809185" lon="0.895687">
        <ele>2339.4</ele>
        <time>2015-04-12T10:30:33Z</time>
      </trkpt>
      <trkpt lat="42.809270" lon="0.895640">
        <ele>2335.6</ele>
        <time>2015-04-12T10:30:44Z</time>
      </trkpt>
      <trkpt lat="42.809383" lon="0.895623">
        <ele>2331.1</ele>
        <time>2015-04-12T10:30:57Z</time>
      </trkpt>
      <trkpt lat="42.809457" lon="0.895565">
        <ele>2327.0</ele>
        <time>2015-04-12T10:31:07Z</time>
      </trkpt>
      <trkpt lat="42.809539" lon="0.895558">
        <ele>2322.4</ele>
        <time>2015-04-12T10:31:18Z</time>
      </trkpt>
      <trkpt lat="42.809627" lon="0.895546">
        <ele>2315.2</ele>
        <time>2015-04-12T10:31:34Z</time>
      </trkpt>
      <trkpt lat="42.809719" lon="0.895512">
        <ele>2309.3</ele>
        <time>2015-04-12T10:31:49Z</time>
      </trkpt>
      <trkpt lat="42.809811" lon="0.895497">
        <ele>2304.2</ele>
        <time>2015-04-12T10:32:00Z</time>
      </trkpt>
      <trkpt lat="42.809887" lon="0.895476">
        <ele>2300.1</ele>
        <time>2015-04-12T10:32:09Z</time>
      </trkpt>
      <trkpt lat="42.809966" lon="0.895474">
        <ele>2295.2</ele>
        <time>2015-04-12T10:32:20Z</time>
      </trkpt>
      <trkpt lat="42.810049" lon="0.895449">
        <ele>2289.7</ele>
        <time>2015-04-12T10:32:31Z</time>
      </trkpt>
      <trkpt lat="42.810129" lon="0.895392">
        <ele>2286.1</ele>
        <time>2015-04-12T10:32:42Z</time>
      </trkpt>
      <trkpt lat="42.810155" lon="0.895368">
        <ele>2284.5</ele>
        <time>2015-04-12T10:33:17Z</time>
      </trkpt>
      <trkpt lat="42.810248" lon="0.895305">
        <ele>2284.1</ele>
        <time>2015-04-12T10:33:26Z</time>
      </trkpt>
      <trkpt lat="42.810344" lon="0.895271">
        <ele>2282.8</ele>
        <time>2015-04-12T10:33:35Z</time>
      </trkpt>
      <trkpt lat="42.810446" lon="0.895204">
        <ele>2281.4</ele>
        <time>2015-04-12T10:33:48Z</time>
      </trkpt>
      <trkpt lat="42.810537" lon="0.895156">
        <ele>2280.2</ele>
        <time>2015-04-12T10:33:57Z</time>
      </trkpt>
      <trkpt lat="42.810642" lon="0.895137">
        <ele>2279.4</ele>
        <time>2015-04-12T10:34:06Z</time>
      </trkpt>
      <trkpt lat="42.810733" lon="0.895114">
        <ele>2278.1</ele>
        <time>2015-04-12T10:34:15Z</time>
      </trkpt>
      <trkpt lat="42.810850" lon="0.895089">
        <ele>2276.8</ele>
        <time>2015-04-12T10:34:26Z</time>
      </trkpt>
      <trkpt lat="42.810941" lon="0.895067">
        <ele>2276.0</ele>
        <time>2015-04-12T10:34:36Z</time>
      </trkpt>
      <trkpt lat="42.811030" lon="0.895016">
        <ele>2275.0</ele>
        <time>2015-04-12T10:34:46Z</time>
      </trkpt>
      <trkpt lat="42.811131" lon="0.894979">
        <ele>2274.8</ele>
        <time>2015-04-12T10:34:55Z</time>
      </trkpt>
      <trkpt lat="42.811251" lon="0.894960">
        <ele>2274.5</ele>
        <time>2015-04-12T10:35:04Z</time>
      </trkpt>
      <trkpt lat="42.811344" lon="0.894953">
        <ele>2273.8</ele>
        <time>2015-04-12T10:35:13Z</time>
      </trkpt>
      <trkpt lat="42.811410" lon="0.894917">
        <ele>2273.1</ele>
        <time>2015-04-12T10:35:24Z</time>
      </trkpt>
      <trkpt lat="42.811510" lon="0.894883">
        <ele>2271.5</ele>
        <time>2015-04-12T10:35:39Z</time>
      </trkpt>
      <trkpt lat="42.811591" lon="0.894822">
        <ele>2271.1</ele>
        <time>2015-04-12T10:35:51Z</time>
      </trkpt>
      <trkpt lat="42.811662" lon="0.894728">
        <ele>2271.4</ele>
        <time>2015-04-12T10:36:01Z</time>
      </trkpt>
      <trkpt lat="42.811773" lon="0.894665">
        <ele>2271.4</ele>
        <time>2015-04-12T10:36:12Z</time>
      </trkpt>
      <trkpt lat="42.811869" lon="0.894591">
        <ele>2271.3</ele>
        <time>2015-04-12T10:36:22Z</time>
      </trkpt>
      <trkpt lat="42.811962" lon="0.894528">
        <ele>2270.9</ele>
        <time>2015-04-12T10:36:33Z</time>
      </trkpt>
      <trkpt lat="42.812069" lon="0.894512">
        <ele>2270.5</ele>
        <time>2015-04-12T10:36:46Z</time>
      </trkpt>
      <trkpt lat="42.812193" lon="0.894554">
        <ele>2269.3</ele>
        <time>2015-04-12T10:36:57Z</time>
      </trkpt>
      <trkpt lat="42.812358" lon="0.894529">
        <ele>2269.4</ele>
        <time>2015-04-12T10:37:10Z</time>
      </trkpt>
      <trkpt lat="42.812487" lon="0.894534">
        <ele>2269.5</ele>
        <time>2015-04-12T10:37:23Z</time>
      </trkpt>
      <trkpt lat="42.812590" lon="0.894540">
        <ele>2269.0</ele>
        <time>2015-04-12T10:37:35Z</time>
      </trkpt>
      <trkpt lat="42.812641" lon="0.894644">
        <ele>2268.8</ele>
        <time>2015-04-12T10:37:52Z</time>
      </trkpt>
      <trkpt lat="42.812752" lon="0.894674">
        <ele>2269.6</ele>
        <time>2015-04-12T10:38:04Z</time>
      </trkpt>
      <trkpt lat="42.812832" lon="0.894653">
        <ele>2269.1</ele>
        <time>2015-04-12T10:38:15Z</time>
      </trkpt>
      <trkpt lat="42.812931" lon="0.894690">
        <ele>2267.1</ele>
        <time>2015-04-12T10:38:25Z</time>
      </trkpt>
      <trkpt lat="42.813036" lon="0.894702">
        <ele>2263.8</ele>
        <time>2015-04-12T10:38:36Z</time>
      </trkpt>
      <trkpt lat="42.813117" lon="0.894638">
        <ele>2260.5</ele>
        <time>2015-04-12T10:38:45Z</time>
      </trkpt>
      <trkpt lat="42.813196" lon="0.894556">
        <ele>2257.7</ele>
        <time>2015-04-12T10:38:55Z</time>
      </trkpt>
      <trkpt lat="42.813278" lon="0.894455">
        <ele>2255.7</ele>
        <time>2015-04-12T10:39:05Z</time>
      </trkpt>
      <trkpt lat="42.813362" lon="0.894377">
        <ele>2253.8</ele>
        <time>2015-04-12T10:39:15Z</time>
      </trkpt>
      <trkpt lat="42.813466" lon="0.894326">
        <ele>2252.6</ele>
        <time>2015-04-12T10:39:25Z</time>
      </trkpt>
      <trkpt lat="42.813537" lon="0.894356">
        <ele>2251.2</ele>
        <time>2015-04-12T10:39:54Z</time>
      </trkpt>
      <trkpt lat="42.813642" lon="0.894341">
        <ele>2251.4</ele>
        <time>2015-04-12T10:40:03Z</time>
      </trkpt>
      <trkpt lat="42.813753" lon="0.894312">
        <ele>2251.5</ele>
        <time>2015-04-12T10:40:13Z</time>
      </trkpt>
      <trkpt lat="42.813860" lon="0.894296">
        <ele>2251.5</ele>
        <time>2015-04-12T10:40:21Z</time>
      </trkpt>
      <trkpt lat="42.813961" lon="0.894216">
        <ele>2251.0</ele>
        <time>2015-04-12T10:40:30Z</time>
      </trkpt>
      <trkpt lat="42.814039" lon="0.894138">
        <ele>2249.9</ele>
        <time>2015-04-12T10:40:39Z</time>
      </trkpt>
      <trkpt lat="42.814132" lon="0.894095">
        <ele>2248.5</ele>
        <time>2015-04-12T10:40:47Z</time>
      </trkpt>
      <trkpt lat="42.814217" lon="0.894068">
        <ele>2246.8</ele>
        <time>2015-04-12T10:40:54Z</time>
      </trkpt>
      <trkpt lat="42.814318" lon="0.894031">
        <ele>2244.9</ele>
        <time>2015-04-12T10:41:02Z</time>
      </trkpt>
      <trkpt lat="42.814404" lon="0.893987">
        <ele>2244.0</ele>
        <time>2015-04-12T10:41:09Z</time>
      </trkpt>
      <trkpt lat="42.814493" lon="0.893949">
        <ele>2243.3</ele>
        <time>2015-04-12T10:41:17Z</time>
      </trkpt>
      <trkpt lat="42.814582" lon="0.893953">
        <ele>2243.1</ele>
        <time>2015-04-12T10:41:25Z</time>
      </trkpt>
      <trkpt lat="42.814675" lon="0.893966">
        <ele>2243.4</ele>
        <time>2015-04-12T10:41:34Z</time>
      </trkpt>
      <trkpt lat="42.814770" lon="0.893973">
        <ele>2243.6</ele>
        <time>2015-04-12T10:41:43Z</time>
      </trkpt>
      <trkpt lat="42.814863" lon="0.893981">
        <ele>2244.1</ele>
        <time>2015-04-12T10:41:52Z</time>
      </trkpt>
      <trkpt lat="42.814943" lon="0.893964">
        <ele>2244.2</ele>
        <time>2015-04-12T10:42:01Z</time>
      </trkpt>
      <trkpt lat="42.815027" lon="0.893921">
        <ele>2243.6</ele>
        <time>2015-04-12T10:42:11Z</time>
      </trkpt>
      <trkpt lat="42.815127" lon="0.893867">
        <ele>2242.6</ele>
        <time>2015-04-12T10:42:22Z</time>
      </trkpt>
      <trkpt lat="42.815212" lon="0.893817">
        <ele>2241.0</ele>
        <time>2015-04-12T10:42:31Z</time>
      </trkpt>
      <trkpt lat="42.815317" lon="0.893767">
        <ele>2238.6</ele>
        <time>2015-04-12T10:42:43Z</time>
      </trkpt>
      <trkpt lat="42.815400" lon="0.893698">
        <ele>2236.1</ele>
        <time>2015-04-12T10:42:53Z</time>
      </trkpt>
      <trkpt lat="42.815481" lon="0.893635">
        <ele>2233.1</ele>
        <time>2015-04-12T10:43:03Z</time>
      </trkpt>
      <trkpt lat="42.815565" lon="0.893587">
        <ele>2229.7</ele>
        <time>2015-04-12T10:43:12Z</time>
      </trkpt>
      <trkpt lat="42.815653" lon="0.893534">
        <ele>2226.1</ele>
        <time>2015-04-12T10:43:22Z</time>
      </trkpt>
      <trkpt lat="42.815773" lon="0.893498">
        <ele>2222.1</ele>
        <time>2015-04-12T10:43:34Z</time>
      </trkpt>
      <trkpt lat="42.815893" lon="0.893466">
        <ele>2218.2</ele>
        <time>2015-04-12T10:43:45Z</time>
      </trkpt>
      <trkpt lat="42.815985" lon="0.893414">
        <ele>2215.0</ele>
        <time>2015-04-12T10:43:55Z</time>
      </trkpt>
      <trkpt lat="42.816086" lon="0.893417">
        <ele>2211.2</ele>
        <time>2015-04-12T10:44:05Z</time>
      </trkpt>
      <trkpt lat="42.816185" lon="0.893411">
        <ele>2206.9</ele>
        <time>2015-04-12T10:44:16Z</time>
      </trkpt>
      <trkpt lat="42.816288" lon="0.893383">
        <ele>2200.9</ele>
        <time>2015-04-12T10:44:30Z</time>
      </trkpt>
      <trkpt lat="42.816371" lon="0.893353">
        <ele>2195.5</ele>
        <time>2015-04-12T10:44:43Z</time>
      </trkpt>
      <trkpt lat="42.816473" lon="0.893347">
        <ele>2189.6</ele>
        <time>2015-04-12T10:44:55Z</time>
      </trkpt>
      <trkpt lat="42.816562" lon="0.893343">
        <ele>2183.4</ele>
        <time>2015-04-12T10:45:08Z</time>
      </trkpt>
      <trkpt lat="42.816661" lon="0.893328">
        <ele>2176.3</ele>
        <time>2015-04-12T10:45:21Z</time>
      </trkpt>
      <trkpt lat="42.816762" lon="0.893340">
        <ele>2170.1</ele>
        <time>2015-04-12T10:45:36Z</time>
      </trkpt>
      <trkpt lat="42.816854" lon="0.893346">
        <ele>2162.3</ele>
        <time>2015-04-12T10:45:54Z</time>
      </trkpt>
      <trkpt lat="42.816958" lon="0.893324">
        <ele>2159.0</ele>
        <time>2015-04-12T10:46:09Z</time>
      </trkpt>
      <trkpt lat="42.817067" lon="0.893313">
        <ele>2153.7</ele>
        <time>2015-04-12T10:46:21Z</time>
      </trkpt>
      <trkpt lat="42.817155" lon="0.893310">
        <ele>2146.6</ele>
        <time>2015-04-12T10:46:34Z</time>
      </trkpt>
      <trkpt lat="42.817233" lon="0.893350">
        <ele>2140.1</ele>
        <time>2015-04-12T10:49:03Z</time>
      </trkpt>
      <trkpt lat="42.817326" lon="0.893370">
        <ele>2137.3</ele>
        <time>2015-04-12T10:49:11Z</time>
      </trkpt>
      <trkpt lat="42.817414" lon="0.893391">
        <ele>2133.1</ele>
        <time>2015-04-12T10:49:21Z</time>
      </trkpt>
      <trkpt lat="42.817498" lon="0.893404">
        <ele>2128.2</ele>
        <time>2015-04-12T10:49:33Z</time>
      </trkpt>
      <trkpt lat="42.817593" lon="0.893437">
        <ele>2125.4</ele>
        <time>2015-04-12T10:49:41Z</time>
      </trkpt>
      <trkpt lat="42.817668" lon="0.893441">
        <ele>2121.0</ele>
        <time>2015-04-12T10:50:02Z</time>
      </trkpt>
      <trkpt lat="42.817770" lon="0.893466">
        <ele>2119.4</ele>
        <time>2015-04-12T10:50:13Z</time>
      </trkpt>
      <trkpt lat="42.817880" lon="0.893488">
        <ele>2117.3</ele>
        <time>2015-04-12T10:50:22Z</time>
      </trkpt>
      <trkpt lat="42.817990" lon="0.893507">
        <ele>2115.1</ele>
        <time>2015-04-12T10:50:31Z</time>
      </trkpt>
      <trkpt lat="42.818016" lon="0.893501">
        <ele>2111.2</ele>
        <time>2015-04-12T10:52:01Z</time>
      </trkpt>
      <trkpt lat="42.818076" lon="0.893505">
        <ele>2111.0</ele>
        <time>2015-04-12T10:52:56Z</time>
      </trkpt>
      <trkpt lat="42.818179" lon="0.893521">
        <ele>2109.8</ele>
        <time>2015-04-12T10:53:42Z</time>
      </trkpt>
      <trkpt lat="42.818275" lon="0.893495">
        <ele>2107.3</ele>
        <time>2015-04-12T10:53:52Z</time>
      </trkpt>
      <trkpt lat="42.818362" lon="0.893454">
        <ele>2103.8</ele>
        <time>2015-04-12T10:54:02Z</time>
      </trkpt>
      <trkpt lat="42.818454" lon="0.893437">
        <ele>2099.2</ele>
        <time>2015-04-12T10:54:13Z</time>
      </trkpt>
      <trkpt lat="42.818552" lon="0.893463">
        <ele>2092.5</ele>
        <time>2015-04-12T10:54:43Z</time>
      </trkpt>
      <trkpt lat="42.818616" lon="0.893536">
        <ele>2089.3</ele>
        <time>2015-04-12T10:54:55Z</time>
      </trkpt>
      <trkpt lat="42.818676" lon="0.893585">
        <ele>2084.3</ele>
        <time>2015-04-12T10:55:09Z</time>
      </trkpt>
      <trkpt lat="42.818715" lon="0.893696">
        <ele>2078.9</ele>
        <time>2015-04-12T10:55:21Z</time>
      </trkpt>
      <trkpt lat="42.818781" lon="0.893783">
        <ele>2073.5</ele>
        <time>2015-04-12T10:55:33Z</time>
      </trkpt>
      <trkpt lat="42.818854" lon="0.893845">
        <ele>2068.7</ele>
        <time>2015-04-12T10:55:44Z</time>
      </trkpt>
      <trkpt lat="42.818946" lon="0.893894">
        <ele>2064.2</ele>
        <time>2015-04-12T10:55:56Z</time>
      </trkpt>
      <trkpt lat="42.819034" lon="0.893907">
        <ele>2059.4</ele>
        <time>2015-04-12T10:56:12Z</time>
      </trkpt>
      <trkpt lat="42.819113" lon="0.893955">
        <ele>2054.6</ele>
        <time>2015-04-12T10:56:24Z</time>
      </trkpt>
      <trkpt lat="42.819194" lon="0.893999">
        <ele>2048.8</ele>
        <time>2015-04-12T10:56:38Z</time>
      </trkpt>
      <trkpt lat="42.819288" lon="0.894036">
        <ele>2041.9</ele>
        <time>2015-04-12T10:56:51Z</time>
      </trkpt>
      <trkpt lat="42.819379" lon="0.894090">
        <ele>2035.1</ele>
        <time>2015-04-12T10:57:02Z</time>
      </trkpt>
      <trkpt lat="42.819460" lon="0.894167">
        <ele>2028.4</ele>
        <time>2015-04-12T10:57:14Z</time>
      </trkpt>
      <trkpt lat="42.819536" lon="0.894228">
        <ele>2024.3</ele>
        <time>2015-04-12T10:57:24Z</time>
      </trkpt>
      <trkpt lat="42.819593" lon="0.894311">
        <ele>2018.5</ele>
        <time>2015-04-12T10:57:34Z</time>
      </trkpt>
      <trkpt lat="42.819679" lon="0.894368">
        <ele>2012.7</ele>
        <time>2015-04-12T10:57:45Z</time>
      </trkpt>
      <trkpt lat="42.819740" lon="0.894412">
        <ele>2006.0</ele>
        <time>2015-04-12T10:57:57Z</time>
      </trkpt>
      <trkpt lat="42.819818" lon="0.894453">
        <ele>2002.4</ele>
        <time>2015-04-12T10:58:09Z</time>
      </trkpt>
      <trkpt lat="42.819906" lon="0.894501">
        <ele>1999.5</ele>
        <time>2015-04-12T10:58:22Z</time>
      </trkpt>
      <trkpt lat="42.819998" lon="0.894575">
        <ele>1997.0</ele>
        <time>2015-04-12T10:58:34Z</time>
      </trkpt>
      <trkpt lat="42.820100" lon="0.894625">
        <ele>1995.1</ele>
        <time>2015-04-12T10:58:48Z</time>
      </trkpt>
      <trkpt lat="42.820210" lon="0.894674">
        <ele>1994.7</ele>
        <time>2015-04-12T10:59:02Z</time>
      </trkpt>
      <trkpt lat="42.820305" lon="0.894702">
        <ele>1994.9</ele>
        <time>2015-04-12T10:59:15Z</time>
      </trkpt>
      <trkpt lat="42.820423" lon="0.894712">
        <ele>1995.8</ele>
        <time>2015-04-12T10:59:31Z</time>
      </trkpt>
      <trkpt lat="42.820524" lon="0.894721">
        <ele>1995.3</ele>
        <time>2015-04-12T10:59:43Z</time>
      </trkpt>
      <trkpt lat="42.820602" lon="0.894758">
        <ele>1993.7</ele>
        <time>2015-04-12T10:59:53Z</time>
      </trkpt>
      <trkpt lat="42.820659" lon="0.894855">
        <ele>1992.7</ele>
        <time>2015-04-12T11:00:09Z</time>
      </trkpt>
      <trkpt lat="42.820753" lon="0.894882">
        <ele>1992.1</ele>
        <time>2015-04-12T11:00:24Z</time>
      </trkpt>
      <trkpt lat="42.820855" lon="0.894921">
        <ele>1989.7</ele>
        <time>2015-04-12T11:00:36Z</time>
      </trkpt>
      <trkpt lat="42.820900" lon="0.894993">
        <ele>1986.6</ele>
        <time>2015-04-12T11:01:00Z</time>
      </trkpt>
      <trkpt lat="42.820941" lon="0.895127">
        <ele>1982.1</ele>
        <time>2015-04-12T11:01:14Z</time>
      </trkpt>
      <trkpt lat="42.820996" lon="0.895219">
        <ele>1977.2</ele>
        <time>2015-04-12T11:01:24Z</time>
      </trkpt>
      <trkpt lat="42.821080" lon="0.895270">
        <ele>1971.5</ele>
        <time>2015-04-12T11:01:37Z</time>
      </trkpt>
      <trkpt lat="42.821159" lon="0.895246">
        <ele>1965.9</ele>
        <time>2015-04-12T11:01:49Z</time>
      </trkpt>
      <trkpt lat="42.821211" lon="0.895212">
        <ele>1960.8</ele>
        <time>2015-04-12T11:02:00Z</time>
      </trkpt>
      <trkpt lat="42.821225" lon="0.895128">
        <ele>1957.8</ele>
        <time>2015-04-12T11:02:23Z</time>
      </trkpt>
      <trkpt lat="42.821271" lon="0.894989">
        <ele>1956.9</ele>
        <time>2015-04-12T11:02:34Z</time>
      </trkpt>
      <trkpt lat="42.821353" lon="0.894899">
        <ele>1954.7</ele>
        <time>2015-04-12T11:02:44Z</time>
      </trkpt>
      <trkpt lat="42.821437" lon="0.894791">
        <ele>1952.5</ele>
        <time>2015-04-12T11:02:55Z</time>
      </trkpt>
      <trkpt lat="42.821518" lon="0.894730">
        <ele>1950.8</ele>
        <time>2015-04-12T11:03:04Z</time>
      </trkpt>
      <trkpt lat="42.821612" lon="0.894701">
        <ele>1948.9</ele>
        <time>2015-04-12T11:03:15Z</time>
      </trkpt>
      <trkpt lat="42.821671" lon="0.894624">
        <ele>1947.2</ele>
        <time>2015-04-12T11:03:28Z</time>
      </trkpt>
      <trkpt lat="42.821713" lon="0.894539">
        <ele>1945.2</ele>
        <time>2015-04-12T11:03:39Z</time>
      </trkpt>
      <trkpt lat="42.821796" lon="0.894406">
        <ele>1944.9</ele>
        <time>2015-04-12T11:03:53Z</time>
      </trkpt>
      <trkpt lat="42.821900" lon="0.894337">
        <ele>1944.5</ele>
        <time>2015-04-12T11:04:05Z</time>
      </trkpt>
      <trkpt lat="42.822012" lon="0.894292">
        <ele>1944.4</ele>
        <time>2015-04-12T11:04:18Z</time>
      </trkpt>
      <trkpt lat="42.822110" lon="0.894336">
        <ele>1943.5</ele>
        <time>2015-04-12T11:04:31Z</time>
      </trkpt>
      <trkpt lat="42.822200" lon="0.894418">
        <ele>1943.1</ele>
        <time>2015-04-12T11:04:42Z</time>
      </trkpt>
      <trkpt lat="42.822260" lon="0.894498">
        <ele>1942.7</ele>
        <time>2015-04-12T11:04:52Z</time>
      </trkpt>
      <trkpt lat="42.822328" lon="0.894577">
        <ele>1942.7</ele>
        <time>2015-04-12T11:05:01Z</time>
      </trkpt>
      <trkpt lat="42.822401" lon="0.894659">
        <ele>1942.6</ele>
        <time>2015-04-12T11:05:11Z</time>
      </trkpt>
      <trkpt lat="42.822468" lon="0.894755">
        <ele>1942.5</ele>
        <time>2015-04-12T11:05:21Z</time>
      </trkpt>
      <trkpt lat="42.822548" lon="0.894858">
        <ele>1942.5</ele>
        <time>2015-04-12T11:05:33Z</time>
      </trkpt>
      <trkpt lat="42.822602" lon="0.894961">
        <ele>1942.9</ele>
        <time>2015-04-12T11:05:43Z</time>
      </trkpt>
      <trkpt lat="42.822651" lon="0.895075">
        <ele>1942.7</ele>
        <time>2015-04-12T11:05:55Z</time>
      </trkpt>
      <trkpt lat="42.822715" lon="0.895157">
        <ele>1942.6</ele>
        <time>2015-04-12T11:06:05Z</time>
      </trkpt>
      <trkpt lat="42.822788" lon="0.895211">
        <ele>1941.7</ele>
        <time>2015-04-12T11:06:17Z</time>
      </trkpt>
      <trkpt lat="42.822878" lon="0.895264">
        <ele>1940.9</ele>
        <time>2015-04-12T11:06:29Z</time>
      </trkpt>
      <trkpt lat="42.822973" lon="0.895261">
        <ele>1940.8</ele>
        <time>2015-04-12T11:06:45Z</time>
      </trkpt>
      <trkpt lat="42.823043" lon="0.895141">
        <ele>1939.5</ele>
        <time>2015-04-12T11:07:11Z</time>
      </trkpt>
      <trkpt lat="42.823118" lon="0.895051">
        <ele>1939.0</ele>
        <time>2015-04-12T11:07:31Z</time>
      </trkpt>
      <trkpt lat="42.823204" lon="0.895017">
        <ele>1938.5</ele>
        <time>2015-04-12T11:07:52Z</time>
      </trkpt>
      <trkpt lat="42.823249" lon="0.894985">
        <ele>1943.0</ele>
        <time>2015-04-12T11:08:26Z</time>
      </trkpt>
      <trkpt lat="42.823265" lon="0.895030">
        <ele>1943.2</ele>
        <time>2015-04-12T11:10:33Z</time>
      </trkpt>
      <trkpt lat="42.823373" lon="0.895063">
        <ele>1943.8</ele>
        <time>2015-04-12T11:10:51Z</time>
      </trkpt>
      <trkpt lat="42.823476" lon="0.895122">
        <ele>1943.5</ele>
        <time>2015-04-12T11:11:07Z</time>
      </trkpt>
      <trkpt lat="42.823565" lon="0.895182">
        <ele>1944.3</ele>
        <time>2015-04-12T11:11:24Z</time>
      </trkpt>
      <trkpt lat="42.823668" lon="0.895227">
        <ele>1945.0</ele>
        <time>2015-04-12T11:11:40Z</time>
      </trkpt>
      <trkpt lat="42.823757" lon="0.895276">
        <ele>1946.1</ele>
        <time>2015-04-12T11:11:57Z</time>
      </trkpt>
      <trkpt lat="42.823844" lon="0.895332">
        <ele>1947.5</ele>
        <time>2015-04-12T11:12:14Z</time>
      </trkpt>
      <trkpt lat="42.823930" lon="0.895416">
        <ele>1948.4</ele>
        <time>2015-04-12T11:12:30Z</time>
      </trkpt>
      <trkpt lat="42.824024" lon="0.895494">
        <ele>1948.6</ele>
        <time>2015-04-12T11:12:45Z</time>
      </trkpt>
      <trkpt lat="42.824108" lon="0.895571">
        <ele>1949.5</ele>
        <time>2015-04-12T11:12:59Z</time>
      </trkpt>
      <trkpt lat="42.824198" lon="0.895640">
        <ele>1950.0</ele>
        <time>2015-04-12T11:13:12Z</time>
      </trkpt>
      <trkpt lat="42.824267" lon="0.895719">
        <ele>1950.2</ele>
        <time>2015-04-12T11:13:23Z</time>
      </trkpt>
      <trkpt lat="42.824339" lon="0.895828">
        <ele>1950.2</ele>
        <time>2015-04-12T11:13:35Z</time>
      </trkpt>
      <trkpt lat="42.824390" lon="0.895955">
        <ele>1950.3</ele>
        <time>2015-04-12T11:13:48Z</time>
      </trkpt>
      <trkpt lat="42.824429" lon="0.896094">
        <ele>1950.7</ele>
        <time>2015-04-12T11:14:00Z</time>
      </trkpt>
      <trkpt lat="42.824493" lon="0.896179">
        <ele>1950.8</ele>
        <time>2015-04-12T11:14:13Z</time>
      </trkpt>
      <trkpt lat="42.824523" lon="0.896295">
        <ele>1950.1</ele>
        <time>2015-04-12T11:14:25Z</time>
      </trkpt>
      <trkpt lat="42.824534" lon="0.896452">
        <ele>1949.2</ele>
        <time>2015-04-12T11:14:37Z</time>
      </trkpt>
      <trkpt lat="42.824583" lon="0.896589">
        <ele>1946.9</ele>
        <time>2015-04-12T11:14:49Z</time>
      </trkpt>
      <trkpt lat="42.824606" lon="0.896697">
        <ele>1943.0</ele>
        <time>2015-04-12T11:15:45Z</time>
      </trkpt>
      <trkpt lat="42.824655" lon="0.896832">
        <ele>1942.4</ele>
        <time>2015-04-12T11:15:56Z</time>
      </trkpt>
      <trkpt lat="42.824688" lon="0.896970">
        <ele>1942.2</ele>
        <time>2015-04-12T11:16:07Z</time>
      </trkpt>
      <trkpt lat="42.824705" lon="0.897136">
        <ele>1942.3</ele>
        <time>2015-04-12T11:16:24Z</time>
      </trkpt>
      <trkpt lat="42.824741" lon="0.897173">
        <ele>1943.5</ele>
        <time>2015-04-12T11:18:20Z</time>
      </trkpt>
      <trkpt lat="42.824806" lon="0.897284">
        <ele>1944.4</ele>
        <time>2015-04-12T11:18:39Z</time>
      </trkpt>
      <trkpt lat="42.824871" lon="0.897385">
        <ele>1946.1</ele>
        <time>2015-04-12T11:18:58Z</time>
      </trkpt>
      <trkpt lat="42.824919" lon="0.897507">
        <ele>1948.8</ele>
        <time>2015-04-12T11:19:19Z</time>
      </trkpt>
      <trkpt lat="42.824990" lon="0.897579">
        <ele>1951.0</ele>
        <time>2015-04-12T11:19:35Z</time>
      </trkpt>
      <trkpt lat="42.825069" lon="0.897678">
        <ele>1951.8</ele>
        <time>2015-04-12T11:19:49Z</time>
      </trkpt>
      <trkpt lat="42.825148" lon="0.897784">
        <ele>1952.1</ele>
        <time>2015-04-12T11:20:02Z</time>
      </trkpt>
      <trkpt lat="42.825214" lon="0.897897">
        <ele>1952.9</ele>
        <time>2015-04-12T11:20:16Z</time>
      </trkpt>
      <trkpt lat="42.825283" lon="0.898001">
        <ele>1953.5</ele>
        <time>2015-04-12T11:20:31Z</time>
      </trkpt>
      <trkpt lat="42.825376" lon="0.898058">
        <ele>1953.7</ele>
        <time>2015-04-12T11:20:44Z</time>
      </trkpt>
      <trkpt lat="42.825490" lon="0.898062">
        <ele>1953.4</ele>
        <time>2015-04-12T11:20:57Z</time>
      </trkpt>
      <trkpt lat="42.825602" lon="0.898056">
        <ele>1952.7</ele>
        <time>2015-04-12T11:21:10Z</time>
      </trkpt>
      <trkpt lat="42.825711" lon="0.898062">
        <ele>1952.5</ele>
        <time>2015-04-12T11:21:26Z</time>
      </trkpt>
      <trkpt lat="42.825842" lon="0.898073">
        <ele>1953.0</ele>
        <time>2015-04-12T11:21:40Z</time>
      </trkpt>
      <trkpt lat="42.825935" lon="0.898176">
        <ele>1951.3</ele>
        <time>2015-04-12T11:21:54Z</time>
      </trkpt>
      <trkpt lat="42.826005" lon="0.898266">
        <ele>1951.0</ele>
        <time>2015-04-12T11:22:08Z</time>
      </trkpt>
      <trkpt lat="42.826069" lon="0.898357">
        <ele>1952.3</ele>
        <time>2015-04-12T11:22:23Z</time>
      </trkpt>
      <trkpt lat="42.826116" lon="0.898450">
        <ele>1952.5</ele>
        <time>2015-04-12T11:22:40Z</time>
      </trkpt>
      <trkpt lat="42.826190" lon="0.898545">
        <ele>1950.9</ele>
        <time>2015-04-12T11:22:50Z</time>
      </trkpt>
      <trkpt lat="42.826260" lon="0.898657">
        <ele>1948.8</ele>
        <time>2015-04-12T11:23:00Z</time>
      </trkpt>
      <trkpt lat="42.826320" lon="0.898759">
        <ele>1945.6</ele>
        <time>2015-04-12T11:23:12Z</time>
      </trkpt>
      <trkpt lat="42.826377" lon="0.898856">
        <ele>1943.1</ele>
        <time>2015-04-12T11:23:21Z</time>
      </trkpt>
      <trkpt lat="42.826455" lon="0.898854">
        <ele>1940.1</ele>
        <time>2015-04-12T11:23:33Z</time>
      </trkpt>
      <trkpt lat="42.826499" lon="0.898924">
        <ele>1937.9</ele>
        <time>2015-04-12T11:23:59Z</time>
      </trkpt>
      <trkpt lat="42.826556" lon="0.898962">
        <ele>1937.5</ele>
        <time>2015-04-12T11:24:21Z</time>
      </trkpt>
      <trkpt lat="42.826646" lon="0.898972">
        <ele>1935.5</ele>
        <time>2015-04-12T11:24:32Z</time>
      </trkpt>
      <trkpt lat="42.826745" lon="0.898948">
        <ele>1934.7</ele>
        <time>2015-04-12T11:24:50Z</time>
      </trkpt>
      <trkpt lat="42.826850" lon="0.898962">
        <ele>1933.6</ele>
        <time>2015-04-12T11:25:03Z</time>
      </trkpt>
      <trkpt lat="42.826954" lon="0.898971">
        <ele>1932.4</ele>
        <time>2015-04-12T11:25:16Z</time>
      </trkpt>
      <trkpt lat="42.827052" lon="0.899010">
        <ele>1932.3</ele>
        <time>2015-04-12T11:25:28Z</time>
      </trkpt>
      <trkpt lat="42.827141" lon="0.899090">
        <ele>1932.9</ele>
        <time>2015-04-12T11:25:42Z</time>
      </trkpt>
      <trkpt lat="42.827190" lon="0.899226">
        <ele>1932.6</ele>
        <time>2015-04-12T11:25:54Z</time>
      </trkpt>
      <trkpt lat="42.827251" lon="0.899350">
        <ele>1931.6</ele>
        <time>2015-04-12T11:26:06Z</time>
      </trkpt>
      <trkpt lat="42.827280" lon="0.899452">
        <ele>1931.0</ele>
        <time>2015-04-12T11:26:15Z</time>
      </trkpt>
      <trkpt lat="42.827329" lon="0.899564">
        <ele>1929.6</ele>
        <time>2015-04-12T11:26:27Z</time>
      </trkpt>
      <trkpt lat="42.827381" lon="0.899663">
        <ele>1927.6</ele>
        <time>2015-04-12T11:26:37Z</time>
      </trkpt>
      <trkpt lat="42.827422" lon="0.899791">
        <ele>1925.6</ele>
        <time>2015-04-12T11:26:48Z</time>
      </trkpt>
      <trkpt lat="42.827458" lon="0.899909">
        <ele>1923.6</ele>
        <time>2015-04-12T11:26:59Z</time>
      </trkpt>
      <trkpt lat="42.827472" lon="0.900032">
        <ele>1921.0</ele>
        <time>2015-04-12T11:27:10Z</time>
      </trkpt>
      <trkpt lat="42.827493" lon="0.900149">
        <ele>1918.8</ele>
        <time>2015-04-12T11:27:23Z</time>
      </trkpt>
      <trkpt lat="42.827505" lon="0.900251">
        <ele>1918.0</ele>
        <time>2015-04-12T11:27:37Z</time>
      </trkpt>
      <trkpt lat="42.827514" lon="0.900422">
        <ele>1917.1</ele>
        <time>2015-04-12T11:27:50Z</time>
      </trkpt>
      <trkpt lat="42.827516" lon="0.900561">
        <ele>1915.8</ele>
        <time>2015-04-12T11:28:03Z</time>
      </trkpt>
      <trkpt lat="42.827527" lon="0.900703">
        <ele>1913.7</ele>
        <time>2015-04-12T11:28:13Z</time>
      </trkpt>
      <trkpt lat="42.827569" lon="0.900833">
        <ele>1909.9</ele>
        <time>2015-04-12T11:28:27Z</time>
      </trkpt>
      <trkpt lat="42.827602" lon="0.900974">
        <ele>1907.6</ele>
        <time>2015-04-12T11:28:39Z</time>
      </trkpt>
      <trkpt lat="42.827631" lon="0.901071">
        <ele>1905.7</ele>
        <time>2015-04-12T11:28:51Z</time>
      </trkpt>
      <trkpt lat="42.827669" lon="0.901254">
        <ele>1903.3</ele>
        <time>2015-04-12T11:29:04Z</time>
      </trkpt>
      <trkpt lat="42.827708" lon="0.901360">
        <ele>1900.5</ele>
        <time>2015-04-12T11:29:16Z</time>
      </trkpt>
      <trkpt lat="42.827725" lon="0.901475">
        <ele>1898.5</ele>
        <time>2015-04-12T11:29:27Z</time>
      </trkpt>
      <trkpt lat="42.827725" lon="0.901586">
        <ele>1896.7</ele>
        <time>2015-04-12T11:29:42Z</time>
      </trkpt>
      <trkpt lat="42.827733" lon="0.901720">
        <ele>1894.3</ele>
        <time>2015-04-12T11:29:54Z</time>
      </trkpt>
      <trkpt lat="42.827768" lon="0.901850">
        <ele>1891.3</ele>
        <time>2015-04-12T11:30:07Z</time>
      </trkpt>
      <trkpt lat="42.827785" lon="0.902019">
        <ele>1888.3</ele>
        <time>2015-04-12T11:30:22Z</time>
      </trkpt>
      <trkpt lat="42.827800" lon="0.902129">
        <ele>1886.5</ele>
        <time>2015-04-12T11:30:33Z</time>
      </trkpt>
      <trkpt lat="42.827806" lon="0.902289">
        <ele>1884.1</ele>
        <time>2015-04-12T11:30:45Z</time>
      </trkpt>
      <trkpt lat="42.827810" lon="0.902358">
        <ele>1881.5</ele>
        <time>2015-04-12T11:31:21Z</time>
      </trkpt>
      <trkpt lat="42.827765" lon="0.902443">
        <ele>1881.3</ele>
        <time>2015-04-12T11:32:26Z</time>
      </trkpt>
      <trkpt lat="42.827726" lon="0.902576">
        <ele>1880.5</ele>
        <time>2015-04-12T11:32:38Z</time>
      </trkpt>
      <trkpt lat="42.827710" lon="0.902712">
        <ele>1879.4</ele>
        <time>2015-04-12T11:32:50Z</time>
      </trkpt>
      <trkpt lat="42.827697" lon="0.902823">
        <ele>1878.2</ele>
        <time>2015-04-12T11:33:00Z</time>
      </trkpt>
      <trkpt lat="42.827687" lon="0.902920">
        <ele>1876.1</ele>
        <time>2015-04-12T11:33:12Z</time>
      </trkpt>
      <trkpt lat="42.827665" lon="0.903062">
        <ele>1874.7</ele>
        <time>2015-04-12T11:33:25Z</time>
      </trkpt>
      <trkpt lat="42.827641" lon="0.903208">
        <ele>1874.2</ele>
        <time>2015-04-12T11:33:40Z</time>
      </trkpt>
      <trkpt lat="42.827659" lon="0.903334">
        <ele>1873.2</ele>
        <time>2015-04-12T11:33:54Z</time>
      </trkpt>
      <trkpt lat="42.827720" lon="0.903432">
        <ele>1870.3</ele>
        <time>2015-04-12T11:34:05Z</time>
      </trkpt>
      <trkpt lat="42.827733" lon="0.903398">
        <ele>1868.0</ele>
        <time>2015-04-12T11:34:38Z</time>
      </trkpt>
      <trkpt lat="42.827798" lon="0.903378">
        <ele>1868.1</ele>
        <time>2015-04-12T11:35:00Z</time>
      </trkpt>
      <trkpt lat="42.827873" lon="0.903274">
        <ele>1870.9</ele>
        <time>2015-04-12T11:35:16Z</time>
      </trkpt>
      <trkpt lat="42.827965" lon="0.903326">
        <ele>1868.1</ele>
        <time>2015-04-12T11:35:29Z</time>
      </trkpt>
      <trkpt lat="42.828044" lon="0.903399">
        <ele>1864.4</ele>
        <time>2015-04-12T11:35:39Z</time>
      </trkpt>
      <trkpt lat="42.828125" lon="0.903465">
        <ele>1861.8</ele>
        <time>2015-04-12T11:35:53Z</time>
      </trkpt>
      <trkpt lat="42.828170" lon="0.903562">
        <ele>1859.2</ele>
        <time>2015-04-12T11:36:06Z</time>
      </trkpt>
      <trkpt lat="42.828194" lon="0.903697">
        <ele>1858.3</ele>
        <time>2015-04-12T11:36:27Z</time>
      </trkpt>
      <trkpt lat="42.828267" lon="0.903800">
        <ele>1858.6</ele>
        <time>2015-04-12T11:36:41Z</time>
      </trkpt>
      <trkpt lat="42.828324" lon="0.903908">
        <ele>1859.0</ele>
        <time>2015-04-12T11:36:55Z</time>
      </trkpt>
      <trkpt lat="42.828379" lon="0.903992">
        <ele>1858.5</ele>
        <time>2015-04-12T11:37:09Z</time>
      </trkpt>
      <trkpt lat="42.828451" lon="0.904101">
        <ele>1858.3</ele>
        <time>2015-04-12T11:37:24Z</time>
      </trkpt>
      <trkpt lat="42.828528" lon="0.904181">
        <ele>1858.4</ele>
        <time>2015-04-12T11:37:39Z</time>
      </trkpt>
      <trkpt lat="42.828595" lon="0.904255">
        <ele>1858.8</ele>
        <time>2015-04-12T11:37:53Z</time>
      </trkpt>
      <trkpt lat="42.828624" lon="0.904287">
        <ele>1858.6</ele>
        <time>2015-04-12T11:38:28Z</time>
      </trkpt>
      <trkpt lat="42.828697" lon="0.904387">
        <ele>1858.0</ele>
        <time>2015-04-12T11:38:41Z</time>
      </trkpt>
      <trkpt lat="42.828770" lon="0.904426">
        <ele>1857.9</ele>
        <time>2015-04-12T11:38:54Z</time>
      </trkpt>
      <trkpt lat="42.828889" lon="0.904428">
        <ele>1858.4</ele>
        <time>2015-04-12T11:39:08Z</time>
      </trkpt>
      <trkpt lat="42.828986" lon="0.904492">
        <ele>1858.3</ele>
        <time>2015-04-12T11:39:22Z</time>
      </trkpt>
      <trkpt lat="42.829093" lon="0.904599">
        <ele>1855.8</ele>
        <time>2015-04-12T11:45:41Z</time>
      </trkpt>
      <trkpt lat="42.829164" lon="0.904695">
        <ele>1856.0</ele>
        <time>2015-04-12T11:47:33Z</time>
      </trkpt>
      <trkpt lat="42.829181" lon="0.904833">
        <ele>1856.3</ele>
        <time>2015-04-12T11:48:24Z</time>
      </trkpt>
      <trkpt lat="42.829209" lon="0.904960">
        <ele>1856.3</ele>
        <time>2015-04-12T11:48:34Z</time>
      </trkpt>
      <trkpt lat="42.829255" lon="0.905083">
        <ele>1856.4</ele>
        <time>2015-04-12T11:48:44Z</time>
      </trkpt>
      <trkpt lat="42.829324" lon="0.905195">
        <ele>1856.4</ele>
        <time>2015-04-12T11:48:55Z</time>
      </trkpt>
      <trkpt lat="42.829391" lon="0.905320">
        <ele>1856.6</ele>
        <time>2015-04-12T11:49:05Z</time>
      </trkpt>
      <trkpt lat="42.829426" lon="0.905453">
        <ele>1856.4</ele>
        <time>2015-04-12T11:49:14Z</time>
      </trkpt>
      <trkpt lat="42.829468" lon="0.905583">
        <ele>1856.0</ele>
        <time>2015-04-12T11:49:24Z</time>
      </trkpt>
      <trkpt lat="42.829498" lon="0.905713">
        <ele>1856.3</ele>
        <time>2015-04-12T11:49:35Z</time>
      </trkpt>
      <trkpt lat="42.829512" lon="0.905853">
        <ele>1856.6</ele>
        <time>2015-04-12T11:49:45Z</time>
      </trkpt>
      <trkpt lat="42.829520" lon="0.906014">
        <ele>1856.5</ele>
        <time>2015-04-12T11:49:56Z</time>
      </trkpt>
      <trkpt lat="42.829542" lon="0.906132">
        <ele>1856.2</ele>
        <time>2015-04-12T11:50:08Z</time>
      </trkpt>
      <trkpt lat="42.829558" lon="0.906315">
        <ele>1856.9</ele>
        <time>2015-04-12T11:50:20Z</time>
      </trkpt>
      <trkpt lat="42.829538" lon="0.906431">
        <ele>1857.2</ele>
        <time>2015-04-12T11:50:31Z</time>
      </trkpt>
      <trkpt lat="42.829507" lon="0.906599">
        <ele>1857.3</ele>
        <time>2015-04-12T11:50:49Z</time>
      </trkpt>
      <trkpt lat="42.829555" lon="0.906732">
        <ele>1856.9</ele>
        <time>2015-04-12T11:50:58Z</time>
      </trkpt>
      <trkpt lat="42.829610" lon="0.906845">
        <ele>1856.7</ele>
        <time>2015-04-12T11:51:07Z</time>
      </trkpt>
      <trkpt lat="42.829691" lon="0.906932">
        <ele>1856.7</ele>
        <time>2015-04-12T11:51:17Z</time>
      </trkpt>
      <trkpt lat="42.829771" lon="0.907049">
        <ele>1856.8</ele>
        <time>2015-04-12T11:51:27Z</time>
      </trkpt>
      <trkpt lat="42.829827" lon="0.907174">
        <ele>1857.0</ele>
        <time>2015-04-12T11:51:36Z</time>
      </trkpt>
      <trkpt lat="42.829835" lon="0.907287">
        <ele>1856.9</ele>
        <time>2015-04-12T11:52:13Z</time>
      </trkpt>
      <trkpt lat="42.829846" lon="0.907416">
        <ele>1857.1</ele>
        <time>2015-04-12T11:53:46Z</time>
      </trkpt>
      <trkpt lat="42.829880" lon="0.907543">
        <ele>1857.1</ele>
        <time>2015-04-12T11:53:55Z</time>
      </trkpt>
      <trkpt lat="42.829911" lon="0.907682">
        <ele>1857.2</ele>
        <time>2015-04-12T11:54:06Z</time>
      </trkpt>
      <trkpt lat="42.829959" lon="0.907803">
        <ele>1857.3</ele>
        <time>2015-04-12T11:54:15Z</time>
      </trkpt>
      <trkpt lat="42.829941" lon="0.907938">
        <ele>1857.1</ele>
        <time>2015-04-12T11:54:23Z</time>
      </trkpt>
      <trkpt lat="42.829942" lon="0.908076">
        <ele>1857.3</ele>
        <time>2015-04-12T11:54:31Z</time>
      </trkpt>
      <trkpt lat="42.829924" lon="0.908191">
        <ele>1857.3</ele>
        <time>2015-04-12T11:54:40Z</time>
      </trkpt>
      <trkpt lat="42.829897" lon="0.908326">
        <ele>1857.0</ele>
        <time>2015-04-12T11:54:54Z</time>
      </trkpt>
      <trkpt lat="42.829876" lon="0.908422">
        <ele>1857.2</ele>
        <time>2015-04-12T11:55:16Z</time>
      </trkpt>
      <trkpt lat="42.829850" lon="0.908501">
        <ele>1857.2</ele>
        <time>2015-04-12T11:55:32Z</time>
      </trkpt>
      <trkpt lat="42.829833" lon="0.908653">
        <ele>1856.9</ele>
        <time>2015-04-12T11:55:43Z</time>
      </trkpt>
      <trkpt lat="42.829833" lon="0.908770">
        <ele>1857.0</ele>
        <time>2015-04-12T11:55:51Z</time>
      </trkpt>
      <trkpt lat="42.829846" lon="0.908873">
        <ele>1856.9</ele>
        <time>2015-04-12T11:56:00Z</time>
      </trkpt>
      <trkpt lat="42.829869" lon="0.908989">
        <ele>1857.3</ele>
        <time>2015-04-12T11:56:27Z</time>
      </trkpt>
      <trkpt lat="42.829896" lon="0.909111">
        <ele>1857.2</ele>
        <time>2015-04-12T11:56:36Z</time>
      </trkpt>
      <trkpt lat="42.829931" lon="0.909226">
        <ele>1857.1</ele>
        <time>2015-04-12T11:56:49Z</time>
      </trkpt>
      <trkpt lat="42.829957" lon="0.909346">
        <ele>1856.7</ele>
        <time>2015-04-12T11:56:59Z</time>
      </trkpt>
      <trkpt lat="42.829978" lon="0.909467">
        <ele>1856.9</ele>
        <time>2015-04-12T11:57:06Z</time>
      </trkpt>
      <trkpt lat="42.830007" lon="0.909585">
        <ele>1856.8</ele>
        <time>2015-04-12T11:57:13Z</time>
      </trkpt>
      <trkpt lat="42.830040" lon="0.909694">
        <ele>1856.6</ele>
        <time>2015-04-12T11:57:20Z</time>
      </trkpt>
      <trkpt lat="42.830083" lon="0.909777">
        <ele>1856.5</ele>
        <time>2015-04-12T11:57:27Z</time>
      </trkpt>
      <trkpt lat="42.830102" lon="0.909894">
        <ele>1856.6</ele>
        <time>2015-04-12T11:57:34Z</time>
      </trkpt>
      <trkpt lat="42.830131" lon="0.910013">
        <ele>1856.4</ele>
        <time>2015-04-12T11:57:42Z</time>
      </trkpt>
      <trkpt lat="42.830137" lon="0.910145">
        <ele>1856.5</ele>
        <time>2015-04-12T11:58:05Z</time>
      </trkpt>
      <trkpt lat="42.830140" lon="0.910275">
        <ele>1855.6</ele>
        <time>2015-04-12T11:58:13Z</time>
      </trkpt>
      <trkpt lat="42.830141" lon="0.910390">
        <ele>1853.8</ele>
        <time>2015-04-12T11:58:20Z</time>
      </trkpt>
      <trkpt lat="42.830133" lon="0.910522">
        <ele>1852.3</ele>
        <time>2015-04-12T11:58:28Z</time>
      </trkpt>
      <trkpt lat="42.830152" lon="0.910645">
        <ele>1850.5</ele>
        <time>2015-04-12T11:58:38Z</time>
      </trkpt>
      <trkpt lat="42.830188" lon="0.910735">
        <ele>1849.6</ele>
        <time>2015-04-12T11:58:47Z</time>
      </trkpt>
      <trkpt lat="42.830243" lon="0.910832">
        <ele>1847.7</ele>
        <time>2015-04-12T11:58:59Z</time>
      </trkpt>
      <trkpt lat="42.830316" lon="0.910908">
        <ele>1845.4</ele>
        <time>2015-04-12T11:59:12Z</time>
      </trkpt>
      <trkpt lat="42.830350" lon="0.911008">
        <ele>1844.7</ele>
        <time>2015-04-12T11:59:28Z</time>
      </trkpt>
      <trkpt lat="42.830299" lon="0.911122">
        <ele>1844.8</ele>
        <time>2015-04-12T12:00:17Z</time>
      </trkpt>
      <trkpt lat="42.830223" lon="0.911219">
        <ele>1842.3</ele>
        <time>2015-04-12T12:00:30Z</time>
      </trkpt>
      <trkpt lat="42.830150" lon="0.911298">
        <ele>1840.2</ele>
        <time>2015-04-12T12:00:41Z</time>
      </trkpt>
      <trkpt lat="42.830047" lon="0.911332">
        <ele>1839.7</ele>
        <time>2015-04-12T12:00:57Z</time>
      </trkpt>
      <trkpt lat="42.829962" lon="0.911388">
        <ele>1837.7</ele>
        <time>2015-04-12T12:01:11Z</time>
      </trkpt>
      <trkpt lat="42.829897" lon="0.911396">
        <ele>1836.4</ele>
        <time>2015-04-12T12:01:49Z</time>
      </trkpt>
      <trkpt lat="42.829811" lon="0.911469">
        <ele>1834.0</ele>
        <time>2015-04-12T12:01:59Z</time>
      </trkpt>
      <trkpt lat="42.829756" lon="0.911585">
        <ele>1829.6</ele>
        <time>2015-04-12T12:02:11Z</time>
      </trkpt>
      <trkpt lat="42.829702" lon="0.911682">
        <ele>1825.9</ele>
        <time>2015-04-12T12:02:23Z</time>
      </trkpt>
      <trkpt lat="42.829664" lon="0.911793">
        <ele>1823.9</ele>
        <time>2015-04-12T12:02:33Z</time>
      </trkpt>
      <trkpt lat="42.829635" lon="0.911877">
        <ele>1819.8</ele>
        <time>2015-04-12T12:02:46Z</time>
      </trkpt>
      <trkpt lat="42.829590" lon="0.911978">
        <ele>1814.9</ele>
        <time>2015-04-12T12:03:01Z</time>
      </trkpt>
      <trkpt lat="42.829591" lon="0.912080">
        <ele>1811.7</ele>
        <time>2015-04-12T12:03:12Z</time>
      </trkpt>
      <trkpt lat="42.829558" lon="0.912192">
        <ele>1806.7</ele>
        <time>2015-04-12T12:03:25Z</time>
      </trkpt>
      <trkpt lat="42.829528" lon="0.912293">
        <ele>1801.8</ele>
        <time>2015-04-12T12:03:38Z</time>
      </trkpt>
      <trkpt lat="42.829498" lon="0.912401">
        <ele>1797.8</ele>
        <time>2015-04-12T12:03:49Z</time>
      </trkpt>
      <trkpt lat="42.829470" lon="0.912500">
        <ele>1791.6</ele>
        <time>2015-04-12T12:04:27Z</time>
      </trkpt>
      <trkpt lat="42.829448" lon="0.912546">
        <ele>1790.6</ele>
        <time>2015-04-12T12:05:04Z</time>
      </trkpt>
      <trkpt lat="42.829384" lon="0.912596">
        <ele>1786.0</ele>
        <time>2015-04-12T12:05:31Z</time>
      </trkpt>
      <trkpt lat="42.829417" lon="0.912667">
        <ele>1784.4</ele>
        <time>2015-04-12T12:06:22Z</time>
      </trkpt>
      <trkpt lat="42.829369" lon="0.912712">
        <ele>1782.0</ele>
        <time>2015-04-12T12:06:33Z</time>
      </trkpt>
      <trkpt lat="42.829283" lon="0.912676">
        <ele>1779.4</ele>
        <time>2015-04-12T12:06:43Z</time>
      </trkpt>
      <trkpt lat="42.829218" lon="0.912590">
        <ele>1776.7</ele>
        <time>2015-04-12T12:06:53Z</time>
      </trkpt>
      <trkpt lat="42.829151" lon="0.912494">
        <ele>1775.5</ele>
        <time>2015-04-12T12:07:06Z</time>
      </trkpt>
      <trkpt lat="42.829103" lon="0.912500">
        <ele>1772.1</ele>
        <time>2015-04-12T12:07:20Z</time>
      </trkpt>
      <trkpt lat="42.829110" lon="0.912630">
        <ele>1770.4</ele>
        <time>2015-04-12T12:07:31Z</time>
      </trkpt>
      <trkpt lat="42.829113" lon="0.912762">
        <ele>1768.9</ele>
        <time>2015-04-12T12:07:41Z</time>
      </trkpt>
      <trkpt lat="42.829116" lon="0.912901">
        <ele>1767.0</ele>
        <time>2015-04-12T12:07:52Z</time>
      </trkpt>
      <trkpt lat="42.829164" lon="0.913020">
        <ele>1765.3</ele>
        <time>2015-04-12T12:08:02Z</time>
      </trkpt>
      <trkpt lat="42.829234" lon="0.913114">
        <ele>1763.5</ele>
        <time>2015-04-12T12:08:23Z</time>
      </trkpt>
      <trkpt lat="42.829275" lon="0.913212">
        <ele>1761.5</ele>
        <time>2015-04-12T12:08:32Z</time>
      </trkpt>
      <trkpt lat="42.829282" lon="0.913325">
        <ele>1756.2</ele>
        <time>2015-04-12T12:08:54Z</time>
      </trkpt>
      <trkpt lat="42.829295" lon="0.913419">
        <ele>1752.6</ele>
        <time>2015-04-12T12:09:19Z</time>
      </trkpt>
      <trkpt lat="42.829240" lon="0.913457">
        <ele>1747.9</ele>
        <time>2015-04-12T12:09:38Z</time>
      </trkpt>
      <trkpt lat="42.829216" lon="0.913546">
        <ele>1743.2</ele>
        <time>2015-04-12T12:09:50Z</time>
      </trkpt>
      <trkpt lat="42.829163" lon="0.913613">
        <ele>1738.9</ele>
        <time>2015-04-12T12:10:00Z</time>
      </trkpt>
      <trkpt lat="42.829139" lon="0.913681">
        <ele>1734.0</ele>
        <time>2015-04-12T12:10:15Z</time>
      </trkpt>
      <trkpt lat="42.829082" lon="0.913749">
        <ele>1731.2</ele>
        <time>2015-04-12T12:10:24Z</time>
      </trkpt>
      <trkpt lat="42.829083" lon="0.913803">
        <ele>1726.4</ele>
        <time>2015-04-12T12:10:37Z</time>
      </trkpt>
      <trkpt lat="42.829092" lon="0.913893">
        <ele>1723.4</ele>
        <time>2015-04-12T12:10:49Z</time>
      </trkpt>
      <trkpt lat="42.829146" lon="0.913926">
        <ele>1719.0</ele>
        <time>2015-04-12T12:11:11Z</time>
      </trkpt>
      <trkpt lat="42.829227" lon="0.913990">
        <ele>1716.2</ele>
        <time>2015-04-12T12:11:37Z</time>
      </trkpt>
      <trkpt lat="42.829332" lon="0.914028">
        <ele>1713.3</ele>
        <time>2015-04-12T12:11:48Z</time>
      </trkpt>
      <trkpt lat="42.829420" lon="0.914058">
        <ele>1711.1</ele>
        <time>2015-04-12T12:12:01Z</time>
      </trkpt>
      <trkpt lat="42.829501" lon="0.914100">
        <ele>1709.5</ele>
        <time>2015-04-12T12:12:09Z</time>
      </trkpt>
      <trkpt lat="42.829566" lon="0.914189">
        <ele>1707.1</ele>
        <time>2015-04-12T12:12:18Z</time>
      </trkpt>
      <trkpt lat="42.829606" lon="0.914294">
        <ele>1704.8</ele>
        <time>2015-04-12T12:12:27Z</time>
      </trkpt>
      <trkpt lat="42.829635" lon="0.914407">
        <ele>1702.6</ele>
        <time>2015-04-12T12:12:36Z</time>
      </trkpt>
      <trkpt lat="42.829655" lon="0.914533">
        <ele>1700.2</ele>
        <time>2015-04-12T12:12:45Z</time>
      </trkpt>
      <trkpt lat="42.829677" lon="0.914657">
        <ele>1697.4</ele>
        <time>2015-04-12T12:12:54Z</time>
      </trkpt>
      <trkpt lat="42.829676" lon="0.914792">
        <ele>1694.2</ele>
        <time>2015-04-12T12:13:03Z</time>
      </trkpt>
      <trkpt lat="42.829679" lon="0.914924">
        <ele>1690.9</ele>
        <time>2015-04-12T12:13:14Z</time>
      </trkpt>
      <trkpt lat="42.829662" lon="0.915067">
        <ele>1688.4</ele>
        <time>2015-04-12T12:13:26Z</time>
      </trkpt>
      <trkpt lat="42.829631" lon="0.915189">
        <ele>1685.8</ele>
        <time>2015-04-12T12:13:39Z</time>
      </trkpt>
      <trkpt lat="42.829596" lon="0.915322">
        <ele>1684.6</ele>
        <time>2015-04-12T12:13:51Z</time>
      </trkpt>
      <trkpt lat="42.829568" lon="0.915429">
        <ele>1682.7</ele>
        <time>2015-04-12T12:14:01Z</time>
      </trkpt>
      <trkpt lat="42.829520" lon="0.915548">
        <ele>1681.1</ele>
        <time>2015-04-12T12:14:09Z</time>
      </trkpt>
      <trkpt lat="42.829486" lon="0.915647">
        <ele>1679.4</ele>
        <time>2015-04-12T12:14:17Z</time>
      </trkpt>
      <trkpt lat="42.829455" lon="0.915772">
        <ele>1677.6</ele>
        <time>2015-04-12T12:14:26Z</time>
      </trkpt>
      <trkpt lat="42.829431" lon="0.915897">
        <ele>1675.9</ele>
        <time>2015-04-12T12:14:35Z</time>
      </trkpt>
      <trkpt lat="42.829422" lon="0.916027">
        <ele>1675.0</ele>
        <time>2015-04-12T12:14:43Z</time>
      </trkpt>
      <trkpt lat="42.829386" lon="0.916151">
        <ele>1673.7</ele>
        <time>2015-04-12T12:14:52Z</time>
      </trkpt>
      <trkpt lat="42.829333" lon="0.916275">
        <ele>1672.7</ele>
        <time>2015-04-12T12:15:03Z</time>
      </trkpt>
      <trkpt lat="42.829306" lon="0.916386">
        <ele>1672.6</ele>
        <time>2015-04-12T12:15:15Z</time>
      </trkpt>
      <trkpt lat="42.829214" lon="0.916461">
        <ele>1672.2</ele>
        <time>2015-04-12T12:15:33Z</time>
      </trkpt>
      <trkpt lat="42.829124" lon="0.916501">
        <ele>1669.5</ele>
        <time>2015-04-12T12:16:11Z</time>
      </trkpt>
      <trkpt lat="42.829101" lon="0.916615">
        <ele>1665.2</ele>
        <time>2015-04-12T12:16:22Z</time>
      </trkpt>
      <trkpt lat="42.829126" lon="0.916713">
        <ele>1659.8</ele>
        <time>2015-04-12T12:16:34Z</time>
      </trkpt>
      <trkpt lat="42.829161" lon="0.916808">
        <ele>1655.2</ele>
        <time>2015-04-12T12:16:47Z</time>
      </trkpt>
      <trkpt lat="42.829189" lon="0.916902">
        <ele>1650.5</ele>
        <time>2015-04-12T12:16:59Z</time>
      </trkpt>
      <trkpt lat="42.829222" lon="0.916984">
        <ele>1646.2</ele>
        <time>2015-04-12T12:17:29Z</time>
      </trkpt>
      <trkpt lat="42.829255" lon="0.917066">
        <ele>1642.1</ele>
        <time>2015-04-12T12:17:38Z</time>
      </trkpt>
      <trkpt lat="42.829312" lon="0.917146">
        <ele>1636.3</ele>
        <time>2015-04-12T12:17:50Z</time>
      </trkpt>
      <trkpt lat="42.829360" lon="0.917249">
        <ele>1631.6</ele>
        <time>2015-04-12T12:18:01Z</time>
      </trkpt>
      <trkpt lat="42.829391" lon="0.917349">
        <ele>1627.0</ele>
        <time>2015-04-12T12:18:28Z</time>
      </trkpt>
      <trkpt lat="42.829403" lon="0.917481">
        <ele>1623.5</ele>
        <time>2015-04-12T12:18:40Z</time>
      </trkpt>
      <trkpt lat="42.829448" lon="0.917603">
        <ele>1619.2</ele>
        <time>2015-04-12T12:18:52Z</time>
      </trkpt>
      <trkpt lat="42.829466" lon="0.917708">
        <ele>1615.2</ele>
        <time>2015-04-12T12:19:04Z</time>
      </trkpt>
      <trkpt lat="42.829420" lon="0.917802">
        <ele>1613.4</ele>
        <time>2015-04-12T12:19:19Z</time>
      </trkpt>
      <trkpt lat="42.829414" lon="0.917909">
        <ele>1611.6</ele>
        <time>2015-04-12T12:19:33Z</time>
      </trkpt>
      <trkpt lat="42.829416" lon="0.918035">
        <ele>1610.3</ele>
        <time>2015-04-12T12:19:52Z</time>
      </trkpt>
      <trkpt lat="42.829426" lon="0.918165">
        <ele>1608.7</ele>
        <time>2015-04-12T12:20:17Z</time>
      </trkpt>
      <trkpt lat="42.829412" lon="0.918299">
        <ele>1607.1</ele>
        <time>2015-04-12T12:20:31Z</time>
      </trkpt>
      <trkpt lat="42.829398" lon="0.918429">
        <ele>1605.6</ele>
        <time>2015-04-12T12:20:44Z</time>
      </trkpt>
      <trkpt lat="42.829404" lon="0.918536">
        <ele>1603.8</ele>
        <time>2015-04-12T12:21:21Z</time>
      </trkpt>
      <trkpt lat="42.829431" lon="0.918695">
        <ele>1602.6</ele>
        <time>2015-04-12T12:21:33Z</time>
      </trkpt>
      <trkpt lat="42.829456" lon="0.918821">
        <ele>1600.5</ele>
        <time>2015-04-12T12:21:45Z</time>
      </trkpt>
      <trkpt lat="42.829471" lon="0.918946">
        <ele>1598.2</ele>
        <time>2015-04-12T12:21:57Z</time>
      </trkpt>
      <trkpt lat="42.829491" lon="0.919058">
        <ele>1595.6</ele>
        <time>2015-04-12T12:22:07Z</time>
      </trkpt>
      <trkpt lat="42.829514" lon="0.919161">
        <ele>1592.6</ele>
        <time>2015-04-12T12:22:19Z</time>
      </trkpt>
      <trkpt lat="42.829561" lon="0.919262">
        <ele>1589.2</ele>
        <time>2015-04-12T12:22:34Z</time>
      </trkpt>
      <trkpt lat="42.829592" lon="0.919345">
        <ele>1585.7</ele>
        <time>2015-04-12T12:23:11Z</time>
      </trkpt>
      <trkpt lat="42.829654" lon="0.919456">
        <ele>1584.1</ele>
        <time>2015-04-12T12:23:35Z</time>
      </trkpt>
      <trkpt lat="42.829692" lon="0.919580">
        <ele>1582.5</ele>
        <time>2015-04-12T12:23:46Z</time>
      </trkpt>
      <trkpt lat="42.829731" lon="0.919701">
        <ele>1580.1</ele>
        <time>2015-04-12T12:23:56Z</time>
      </trkpt>
      <trkpt lat="42.829774" lon="0.919819">
        <ele>1577.8</ele>
        <time>2015-04-12T12:24:07Z</time>
      </trkpt>
      <trkpt lat="42.829816" lon="0.919921">
        <ele>1575.4</ele>
        <time>2015-04-12T12:24:17Z</time>
      </trkpt>
      <trkpt lat="42.829802" lon="0.919981">
        <ele>1573.5</ele>
        <time>2015-04-12T12:26:15Z</time>
      </trkpt>
      <trkpt lat="42.829838" lon="0.920091">
        <ele>1572.2</ele>
        <time>2015-04-12T12:26:26Z</time>
      </trkpt>
      <trkpt lat="42.829877" lon="0.920202">
        <ele>1570.1</ele>
        <time>2015-04-12T12:26:38Z</time>
      </trkpt>
      <trkpt lat="42.829922" lon="0.920308">
        <ele>1568.1</ele>
        <time>2015-04-12T12:27:01Z</time>
      </trkpt>
      <trkpt lat="42.829946" lon="0.920438">
        <ele>1565.9</ele>
        <time>2015-04-12T12:27:12Z</time>
      </trkpt>
      <trkpt lat="42.829967" lon="0.920548">
        <ele>1563.9</ele>
        <time>2015-04-12T12:27:22Z</time>
      </trkpt>
      <trkpt lat="42.830022" lon="0.920646">
        <ele>1561.5</ele>
        <time>2015-04-12T12:27:33Z</time>
      </trkpt>
      <trkpt lat="42.830037" lon="0.920771">
        <ele>1558.8</ele>
        <time>2015-04-12T12:27:55Z</time>
      </trkpt>
      <trkpt lat="42.830078" lon="0.920897">
        <ele>1556.6</ele>
        <time>2015-04-12T12:28:09Z</time>
      </trkpt>
      <trkpt lat="42.830107" lon="0.920996">
        <ele>1554.7</ele>
        <time>2015-04-12T12:28:25Z</time>
      </trkpt>
      <trkpt lat="42.830165" lon="0.921086">
        <ele>1551.9</ele>
        <time>2015-04-12T12:28:36Z</time>
      </trkpt>
      <trkpt lat="42.830231" lon="0.921161">
        <ele>1548.8</ele>
        <time>2015-04-12T12:28:48Z</time>
      </trkpt>
      <trkpt lat="42.830278" lon="0.921265">
        <ele>1544.8</ele>
        <time>2015-04-12T12:29:02Z</time>
      </trkpt>
      <trkpt lat="42.830296" lon="0.921344">
        <ele>1543.0</ele>
        <time>2015-04-12T12:29:52Z</time>
      </trkpt>
      <trkpt lat="42.830360" lon="0.921428">
        <ele>1540.5</ele>
        <time>2015-04-12T12:30:04Z</time>
      </trkpt>
      <trkpt lat="42.830432" lon="0.921493">
        <ele>1536.0</ele>
        <time>2015-04-12T12:30:19Z</time>
      </trkpt>
      <trkpt lat="42.830506" lon="0.921553">
        <ele>1534.0</ele>
        <time>2015-04-12T12:30:29Z</time>
      </trkpt>
      <trkpt lat="42.830566" lon="0.921642">
        <ele>1530.5</ele>
        <time>2015-04-12T12:30:40Z</time>
      </trkpt>
      <trkpt lat="42.830634" lon="0.921735">
        <ele>1527.4</ele>
        <time>2015-04-12T12:30:50Z</time>
      </trkpt>
      <trkpt lat="42.830701" lon="0.921810">
        <ele>1523.5</ele>
        <time>2015-04-12T12:31:00Z</time>
      </trkpt>
      <trkpt lat="42.830732" lon="0.921925">
        <ele>1520.1</ele>
        <time>2015-04-12T12:31:10Z</time>
      </trkpt>
      <trkpt lat="42.830775" lon="0.922025">
        <ele>1516.7</ele>
        <time>2015-04-12T12:31:20Z</time>
      </trkpt>
      <trkpt lat="42.830827" lon="0.922121">
        <ele>1512.5</ele>
        <time>2015-04-12T12:31:32Z</time>
      </trkpt>
      <trkpt lat="42.830913" lon="0.922167">
        <ele>1509.6</ele>
        <time>2015-04-12T12:31:42Z</time>
      </trkpt>
      <trkpt lat="42.830963" lon="0.922262">
        <ele>1506.4</ele>
        <time>2015-04-12T12:31:53Z</time>
      </trkpt>
      <trkpt lat="42.831042" lon="0.922302">
        <ele>1503.9</ele>
        <time>2015-04-12T12:32:05Z</time>
      </trkpt>
      <trkpt lat="42.831088" lon="0.922415">
        <ele>1500.4</ele>
        <time>2015-04-12T12:32:17Z</time>
      </trkpt>
      <trkpt lat="42.831138" lon="0.922525">
        <ele>1496.8</ele>
        <time>2015-04-12T12:32:29Z</time>
      </trkpt>
      <trkpt lat="42.831143" lon="0.922642">
        <ele>1493.7</ele>
        <time>2015-04-12T12:32:40Z</time>
      </trkpt>
      <trkpt lat="42.831158" lon="0.922736">
        <ele>1489.1</ele>
        <time>2015-04-12T12:32:58Z</time>
      </trkpt>
      <trkpt lat="42.831162" lon="0.922850">
        <ele>1485.8</ele>
        <time>2015-04-12T12:33:08Z</time>
      </trkpt>
      <trkpt lat="42.831258" lon="0.922833">
        <ele>1481.4</ele>
        <time>2015-04-12T12:33:25Z</time>
      </trkpt>
      <trkpt lat="42.831331" lon="0.922828">
        <ele>1477.3</ele>
        <time>2015-04-12T12:33:41Z</time>
      </trkpt>
      <trkpt lat="42.831321" lon="0.922957">
        <ele>1473.7</ele>
        <time>2015-04-12T12:33:55Z</time>
      </trkpt>
      <trkpt lat="42.831308" lon="0.923099">
        <ele>1470.1</ele>
        <time>2015-04-12T12:34:06Z</time>
      </trkpt>
      <trkpt lat="42.831279" lon="0.923223">
        <ele>1466.0</ele>
        <time>2015-04-12T12:34:19Z</time>
      </trkpt>
      <trkpt lat="42.831392" lon="0.923219">
        <ele>1461.3</ele>
        <time>2015-04-12T12:34:36Z</time>
      </trkpt>
      <trkpt lat="42.831373" lon="0.923314">
        <ele>1458.1</ele>
        <time>2015-04-12T12:34:47Z</time>
      </trkpt>
      <trkpt lat="42.831357" lon="0.923447">
        <ele>1453.8</ele>
        <time>2015-04-12T12:35:00Z</time>
      </trkpt>
      <trkpt lat="42.831409" lon="0.923521">
        <ele>1448.3</ele>
        <time>2015-04-12T12:35:15Z</time>
      </trkpt>
      <trkpt lat="42.831365" lon="0.923638">
        <ele>1444.1</ele>
        <time>2015-04-12T12:35:27Z</time>
      </trkpt>
      <trkpt lat="42.831285" lon="0.923740">
        <ele>1440.4</ele>
        <time>2015-04-12T12:35:39Z</time>
      </trkpt>
      <trkpt lat="42.831242" lon="0.923836">
        <ele>1436.6</ele>
        <time>2015-04-12T12:35:50Z</time>
      </trkpt>
      <trkpt lat="42.831296" lon="0.923906">
        <ele>1433.4</ele>
        <time>2015-04-12T12:36:00Z</time>
      </trkpt>
      <trkpt lat="42.831266" lon="0.924022">
        <ele>1429.2</ele>
        <time>2015-04-12T12:36:09Z</time>
      </trkpt>
      <trkpt lat="42.831227" lon="0.924129">
        <ele>1425.1</ele>
        <time>2015-04-12T12:36:36Z</time>
      </trkpt>
      <trkpt lat="42.831193" lon="0.924116">
        <ele>1424.5</ele>
        <time>2015-04-12T12:39:33Z</time>
      </trkpt>
      <trkpt lat="42.831226" lon="0.924097">
        <ele>1425.0</ele>
        <time>2015-04-12T12:41:13Z</time>
      </trkpt>
      <trkpt lat="42.831225" lon="0.924085">
        <ele>1425.7</ele>
        <time>2015-04-12T12:42:49Z</time>
      </trkpt>
      <trkpt lat="42.831192" lon="0.924124">
        <ele>1425.3</ele>
        <time>2015-04-12T12:43:33Z</time>
      </trkpt>
      <trkpt lat="42.831110" lon="0.924136">
        <ele>1424.4</ele>
        <time>2015-04-12T12:44:12Z</time>
      </trkpt>
      <trkpt lat="42.831000" lon="0.924070">
        <ele>1421.1</ele>
        <time>2015-04-12T12:44:24Z</time>
      </trkpt>
      <trkpt lat="42.830890" lon="0.924015">
        <ele>1417.6</ele>
        <time>2015-04-12T12:44:39Z</time>
      </trkpt>
      <trkpt lat="42.830768" lon="0.924066">
        <ele>1413.1</ele>
        <time>2015-04-12T12:44:53Z</time>
      </trkpt>
      <trkpt lat="42.830772" lon="0.924154">
        <ele>1408.6</ele>
        <time>2015-04-12T12:45:08Z</time>
      </trkpt>
      <trkpt lat="42.830704" lon="0.924249">
        <ele>1404.4</ele>
        <time>2015-04-12T12:45:25Z</time>
      </trkpt>
      <trkpt lat="42.830774" lon="0.924342">
        <ele>1401.5</ele>
        <time>2015-04-12T12:45:35Z</time>
      </trkpt>
      <trkpt lat="42.830777" lon="0.924437">
        <ele>1398.5</ele>
        <time>2015-04-12T12:45:45Z</time>
      </trkpt>
      <trkpt lat="42.830675" lon="0.924438">
        <ele>1395.3</ele>
        <time>2015-04-12T12:45:56Z</time>
      </trkpt>
      <trkpt lat="42.830759" lon="0.924547">
        <ele>1392.4</ele>
        <time>2015-04-12T12:46:07Z</time>
      </trkpt>
      <trkpt lat="42.830682" lon="0.924600">
        <ele>1389.1</ele>
        <time>2015-04-12T12:46:18Z</time>
      </trkpt>
      <trkpt lat="42.830652" lon="0.924686">
        <ele>1385.2</ele>
        <time>2015-04-12T12:46:31Z</time>
      </trkpt>
      <trkpt lat="42.830716" lon="0.924779">
        <ele>1381.8</ele>
        <time>2015-04-12T12:46:44Z</time>
      </trkpt>
      <trkpt lat="42.830716" lon="0.924881">
        <ele>1377.3</ele>
        <time>2015-04-12T12:46:58Z</time>
      </trkpt>
      <trkpt lat="42.830634" lon="0.924985">
        <ele>1372.8</ele>
        <time>2015-04-12T12:47:14Z</time>
      </trkpt>
      <trkpt lat="42.830621" lon="0.925024">
        <ele>1369.8</ele>
        <time>2015-04-12T12:47:33Z</time>
      </trkpt>
      <trkpt lat="42.830692" lon="0.925117">
        <ele>1367.6</ele>
        <time>2015-04-12T12:47:43Z</time>
      </trkpt>
      <trkpt lat="42.830783" lon="0.925176">
        <ele>1364.4</ele>
        <time>2015-04-12T12:47:53Z</time>
      </trkpt>
      <trkpt lat="42.830784" lon="0.925286">
        <ele>1359.9</ele>
        <time>2015-04-12T12:48:10Z</time>
      </trkpt>
      <trkpt lat="42.830842" lon="0.925369">
        <ele>1355.2</ele>
        <time>2015-04-12T12:48:28Z</time>
      </trkpt>
      <trkpt lat="42.830858" lon="0.925504">
        <ele>1350.3</ele>
        <time>2015-04-12T12:48:48Z</time>
      </trkpt>
      <trkpt lat="42.830915" lon="0.925584">
        <ele>1346.3</ele>
        <time>2015-04-12T12:49:04Z</time>
      </trkpt>
      <trkpt lat="42.830939" lon="0.925674">
        <ele>1340.7</ele>
        <time>2015-04-12T12:49:30Z</time>
      </trkpt>
      <trkpt lat="42.830923" lon="0.925818">
        <ele>1337.0</ele>
        <time>2015-04-12T12:49:44Z</time>
      </trkpt>
      <trkpt lat="42.830961" lon="0.925954">
        <ele>1332.7</ele>
        <time>2015-04-12T12:50:00Z</time>
      </trkpt>
      <trkpt lat="42.830991" lon="0.926095">
        <ele>1327.5</ele>
        <time>2015-04-12T12:50:18Z</time>
      </trkpt>
      <trkpt lat="42.830949" lon="0.926146">
        <ele>1322.8</ele>
        <time>2015-04-12T12:50:38Z</time>
      </trkpt>
      <trkpt lat="42.831026" lon="0.926257">
        <ele>1321.8</ele>
        <time>2015-04-12T12:50:51Z</time>
      </trkpt>
      <trkpt lat="42.831088" lon="0.926337">
        <ele>1319.9</ele>
        <time>2015-04-12T12:51:01Z</time>
      </trkpt>
      <trkpt lat="42.831215" lon="0.926371">
        <ele>1317.3</ele>
        <time>2015-04-12T12:51:16Z</time>
      </trkpt>
      <trkpt lat="42.831303" lon="0.926390">
        <ele>1314.5</ele>
        <time>2015-04-12T12:51:30Z</time>
      </trkpt>
      <trkpt lat="42.831282" lon="0.926462">
        <ele>1310.6</ele>
        <time>2015-04-12T12:51:46Z</time>
      </trkpt>
      <trkpt lat="42.831180" lon="0.926541">
        <ele>1307.1</ele>
        <time>2015-04-12T12:51:57Z</time>
      </trkpt>
      <trkpt lat="42.831054" lon="0.926582">
        <ele>1302.6</ele>
        <time>2015-04-12T12:52:14Z</time>
      </trkpt>
      <trkpt lat="42.830970" lon="0.926700">
        <ele>1297.3</ele>
        <time>2015-04-12T12:52:34Z</time>
      </trkpt>
      <trkpt lat="42.831010" lon="0.926744">
        <ele>1294.0</ele>
        <time>2015-04-12T12:52:59Z</time>
      </trkpt>
      <trkpt lat="42.831134" lon="0.926812">
        <ele>1291.8</ele>
        <time>2015-04-12T12:53:12Z</time>
      </trkpt>
      <trkpt lat="42.831178" lon="0.926945">
        <ele>1287.3</ele>
        <time>2015-04-12T12:53:26Z</time>
      </trkpt>
      <trkpt lat="42.831242" lon="0.927054">
        <ele>1282.3</ele>
        <time>2015-04-12T12:53:38Z</time>
      </trkpt>
      <trkpt lat="42.831216" lon="0.927201">
        <ele>1276.7</ele>
        <time>2015-04-12T12:53:55Z</time>
      </trkpt>
      <trkpt lat="42.831179" lon="0.927279">
        <ele>1272.0</ele>
        <time>2015-04-12T12:54:10Z</time>
      </trkpt>
      <trkpt lat="42.831122" lon="0.927419">
        <ele>1268.2</ele>
        <time>2015-04-12T12:54:33Z</time>
      </trkpt>
      <trkpt lat="42.831183" lon="0.927506">
        <ele>1265.5</ele>
        <time>2015-04-12T12:54:57Z</time>
      </trkpt>
      <trkpt lat="42.831168" lon="0.927572">
        <ele>1261.6</ele>
        <time>2015-04-12T12:55:16Z</time>
      </trkpt>
      <trkpt lat="42.831157" lon="0.927693">
        <ele>1259.4</ele>
        <time>2015-04-12T12:55:29Z</time>
      </trkpt>
      <trkpt lat="42.831186" lon="0.927814">
        <ele>1255.2</ele>
        <time>2015-04-12T12:55:46Z</time>
      </trkpt>
      <trkpt lat="42.831129" lon="0.927808">
        <ele>1253.6</ele>
        <time>2015-04-12T12:56:07Z</time>
      </trkpt>
      <trkpt lat="42.831200" lon="0.927924">
        <ele>1250.8</ele>
        <time>2015-04-12T12:56:23Z</time>
      </trkpt>
      <trkpt lat="42.831205" lon="0.927870">
        <ele>1249.6</ele>
        <time>2015-04-12T12:56:53Z</time>
      </trkpt>
      <trkpt lat="42.831201" lon="0.927898">
        <ele>1249.0</ele>
        <time>2015-04-12T12:57:12Z</time>
      </trkpt>
      <trkpt lat="42.831216" lon="0.928010">
        <ele>1248.1</ele>
        <time>2015-04-12T12:57:26Z</time>
      </trkpt>
      <trkpt lat="42.831236" lon="0.928232">
        <ele>1245.0</ele>
        <time>2015-04-12T12:57:33Z</time>
      </trkpt>
      <trkpt lat="42.831216" lon="0.928350">
        <ele>1241.3</ele>
        <time>2015-04-12T12:57:41Z</time>
      </trkpt>
      <trkpt lat="42.831234" lon="0.928515">
        <ele>1236.4</ele>
        <time>2015-04-12T12:57:55Z</time>
      </trkpt>
      <trkpt lat="42.831255" lon="0.928669">
        <ele>1232.6</ele>
        <time>2015-04-12T12:58:06Z</time>
      </trkpt>
      <trkpt lat="42.831302" lon="0.928815">
        <ele>1228.7</ele>
        <time>2015-04-12T12:58:19Z</time>
      </trkpt>
      <trkpt lat="42.831396" lon="0.928900">
        <ele>1222.8</ele>
        <time>2015-04-12T12:58:37Z</time>
      </trkpt>
      <trkpt lat="42.831501" lon="0.928970">
        <ele>1217.0</ele>
        <time>2015-04-12T12:58:56Z</time>
      </trkpt>
      <trkpt lat="42.831561" lon="0.929086">
        <ele>1212.3</ele>
        <time>2015-04-12T12:59:10Z</time>
      </trkpt>
      <trkpt lat="42.831651" lon="0.929095">
        <ele>1205.7</ele>
        <time>2015-04-12T12:59:29Z</time>
      </trkpt>
      <trkpt lat="42.831743" lon="0.929146">
        <ele>1199.3</ele>
        <time>2015-04-12T12:59:51Z</time>
      </trkpt>
      <trkpt lat="42.831855" lon="0.929165">
        <ele>1194.6</ele>
        <time>2015-04-12T13:00:05Z</time>
      </trkpt>
      <trkpt lat="42.831914" lon="0.929158">
        <ele>1187.9</ele>
        <time>2015-04-12T13:00:25Z</time>
      </trkpt>
      <trkpt lat="42.831958" lon="0.929018">
        <ele>1183.1</ele>
        <time>2015-04-12T13:00:40Z</time>
      </trkpt>
      <trkpt lat="42.831960" lon="0.929125">
        <ele>1180.6</ele>
        <time>2015-04-12T13:01:00Z</time>
      </trkpt>
      <trkpt lat="42.832020" lon="0.929262">
        <ele>1177.2</ele>
        <time>2015-04-12T13:01:13Z</time>
      </trkpt>
      <trkpt lat="42.832038" lon="0.929444">
        <ele>1173.1</ele>
        <time>2015-04-12T13:01:23Z</time>
      </trkpt>
      <trkpt lat="42.832050" lon="0.929581">
        <ele>1169.2</ele>
        <time>2015-04-12T13:01:32Z</time>
      </trkpt>
      <trkpt lat="42.832076" lon="0.929696">
        <ele>1166.1</ele>
        <time>2015-04-12T13:01:54Z</time>
      </trkpt>
      <trkpt lat="42.832091" lon="0.929858">
        <ele>1164.7</ele>
        <time>2015-04-12T13:02:03Z</time>
      </trkpt>
      <trkpt lat="42.832166" lon="0.929973">
        <ele>1162.8</ele>
        <time>2015-04-12T13:02:12Z</time>
      </trkpt>
      <trkpt lat="42.832258" lon="0.930040">
        <ele>1160.1</ele>
        <time>2015-04-12T13:02:21Z</time>
      </trkpt>
      <trkpt lat="42.832297" lon="0.930167">
        <ele>1157.2</ele>
        <time>2015-04-12T13:02:30Z</time>
      </trkpt>
      <trkpt lat="42.832325" lon="0.930300">
        <ele>1154.6</ele>
        <time>2015-04-12T13:02:40Z</time>
      </trkpt>
      <trkpt lat="42.832318" lon="0.930430">
        <ele>1151.8</ele>
        <time>2015-04-12T13:02:50Z</time>
      </trkpt>
      <trkpt lat="42.832312" lon="0.930591">
        <ele>1148.1</ele>
        <time>2015-04-12T13:03:03Z</time>
      </trkpt>
      <trkpt lat="42.832348" lon="0.930750">
        <ele>1144.8</ele>
        <time>2015-04-12T13:03:14Z</time>
      </trkpt>
      <trkpt lat="42.832438" lon="0.930842">
        <ele>1141.2</ele>
        <time>2015-04-12T13:03:29Z</time>
      </trkpt>
      <trkpt lat="42.832530" lon="0.930960">
        <ele>1136.6</ele>
        <time>2015-04-12T13:03:43Z</time>
      </trkpt>
      <trkpt lat="42.832620" lon="0.931069">
        <ele>1132.1</ele>
        <time>2015-04-12T13:03:57Z</time>
      </trkpt>
      <trkpt lat="42.832664" lon="0.931213">
        <ele>1128.4</ele>
        <time>2015-04-12T13:04:10Z</time>
      </trkpt>
      <trkpt lat="42.832756" lon="0.931252">
        <ele>1124.5</ele>
        <time>2015-04-12T13:04:22Z</time>
      </trkpt>
      <trkpt lat="42.832875" lon="0.931262">
        <ele>1120.8</ele>
        <time>2015-04-12T13:04:35Z</time>
      </trkpt>
      <trkpt lat="42.832961" lon="0.931345">
        <ele>1115.8</ele>
        <time>2015-04-12T13:04:49Z</time>
      </trkpt>
      <trkpt lat="42.833033" lon="0.931327">
        <ele>1110.4</ele>
        <time>2015-04-12T13:05:06Z</time>
      </trkpt>
      <trkpt lat="42.833117" lon="0.931421">
        <ele>1106.3</ele>
        <time>2015-04-12T13:05:19Z</time>
      </trkpt>
      <trkpt lat="42.833164" lon="0.931546">
        <ele>1102.6</ele>
        <time>2015-04-12T13:05:31Z</time>
      </trkpt>
      <trkpt lat="42.833244" lon="0.931644">
        <ele>1098.0</ele>
        <time>2015-04-12T13:05:46Z</time>
      </trkpt>
      <trkpt lat="42.833269" lon="0.931670">
        <ele>1096.6</ele>
        <time>2015-04-12T13:06:21Z</time>
      </trkpt>
      <trkpt lat="42.833215" lon="0.931722">
        <ele>1096.3</ele>
        <time>2015-04-12T13:07:03Z</time>
      </trkpt>
      <trkpt lat="42.833179" lon="0.931692">
        <ele>1096.2</ele>
        <time>2015-04-12T13:08:09Z</time>
      </trkpt>
      <trkpt lat="42.833229" lon="0.931704">
        <ele>1096.6</ele>
        <time>2015-04-12T13:10:51Z</time>
      </trkpt>
      <trkpt lat="42.833250" lon="0.931728">
        <ele>1095.8</ele>
        <time>2015-04-12T13:11:34Z</time>
      </trkpt>
      <trkpt lat="42.833312" lon="0.931877">
        <ele>1093.1</ele>
        <time>2015-04-12T13:11:47Z</time>
      </trkpt>
      <trkpt lat="42.833398" lon="0.931962">
        <ele>1091.1</ele>
        <time>2015-04-12T13:11:56Z</time>
      </trkpt>
      <trkpt lat="42.833484" lon="0.932014">
        <ele>1088.7</ele>
        <time>2015-04-12T13:12:05Z</time>
      </trkpt>
      <trkpt lat="42.833590" lon="0.932036">
        <ele>1085.0</ele>
        <time>2015-04-12T13:12:18Z</time>
      </trkpt>
      <trkpt lat="42.833692" lon="0.931982">
        <ele>1081.4</ele>
        <time>2015-04-12T13:12:31Z</time>
      </trkpt>
      <trkpt lat="42.833708" lon="0.931909">
        <ele>1078.1</ele>
        <time>2015-04-12T13:12:51Z</time>
      </trkpt>
      <trkpt lat="42.833791" lon="0.931836">
        <ele>1077.2</ele>
        <time>2015-04-12T13:13:05Z</time>
      </trkpt>
      <trkpt lat="42.833948" lon="0.931836">
        <ele>1075.2</ele>
        <time>2015-04-12T13:13:17Z</time>
      </trkpt>
      <trkpt lat="42.834087" lon="0.931936">
        <ele>1071.9</ele>
        <time>2015-04-12T13:13:28Z</time>
      </trkpt>
      <trkpt lat="42.834178" lon="0.932022">
        <ele>1068.4</ele>
        <time>2015-04-12T13:13:41Z</time>
      </trkpt>
      <trkpt lat="42.834211" lon="0.932143">
        <ele>1064.9</ele>
        <time>2015-04-12T13:13:54Z</time>
      </trkpt>
      <trkpt lat="42.834234" lon="0.932300">
        <ele>1062.1</ele>
        <time>2015-04-12T13:14:07Z</time>
      </trkpt>
      <trkpt lat="42.834270" lon="0.932493">
        <ele>1058.9</ele>
        <time>2015-04-12T13:14:21Z</time>
      </trkpt>
      <trkpt lat="42.834257" lon="0.932681">
        <ele>1055.2</ele>
        <time>2015-04-12T13:14:36Z</time>
      </trkpt>
      <trkpt lat="42.834196" lon="0.932828">
        <ele>1051.4</ele>
        <time>2015-04-12T13:14:49Z</time>
      </trkpt>
      <trkpt lat="42.834179" lon="0.933003">
        <ele>1047.9</ele>
        <time>2015-04-12T13:15:05Z</time>
      </trkpt>
      <trkpt lat="42.834200" lon="0.933174">
        <ele>1042.6</ele>
        <time>2015-04-12T13:15:21Z</time>
      </trkpt>
      <trkpt lat="42.834190" lon="0.933332">
        <ele>1036.9</ele>
        <time>2015-04-12T13:15:39Z</time>
      </trkpt>
      <trkpt lat="42.834279" lon="0.933402">
        <ele>1031.7</ele>
        <time>2015-04-12T13:15:57Z</time>
      </trkpt>
      <trkpt lat="42.834390" lon="0.933380">
        <ele>1028.2</ele>
        <time>2015-04-12T13:16:10Z</time>
      </trkpt>
      <trkpt lat="42.834477" lon="0.933292">
        <ele>1023.6</ele>
        <time>2015-04-12T13:16:27Z</time>
      </trkpt>
      <trkpt lat="42.834532" lon="0.933329">
        <ele>1017.9</ele>
        <time>2015-04-12T13:16:49Z</time>
      </trkpt>
      <trkpt lat="42.834507" lon="0.933529">
        <ele>1013.7</ele>
        <time>2015-04-12T13:17:07Z</time>
      </trkpt>
      <trkpt lat="42.834521" lon="0.933693">
        <ele>1010.8</ele>
        <time>2015-04-12T13:17:21Z</time>
      </trkpt>
      <trkpt lat="42.834542" lon="0.933841">
        <ele>1008.5</ele>
        <time>2015-04-12T13:17:34Z</time>
      </trkpt>
      <trkpt lat="42.834577" lon="0.933992">
        <ele>1006.2</ele>
        <time>2015-04-12T13:17:46Z</time>
      </trkpt>
      <trkpt lat="42.834613" lon="0.934114">
        <ele>1003.3</ele>
        <time>2015-04-12T13:18:00Z</time>
      </trkpt>
      <trkpt lat="42.834623" lon="0.934117">
        <ele>1002.5</ele>
        <time>2015-04-12T13:18:34Z</time>
      </trkpt>
      <trkpt lat="42.834637" lon="0.934219">
        <ele>1002.6</ele>
        <time>2015-04-12T13:18:48Z</time>
      </trkpt>
      <trkpt lat="42.834669" lon="0.934310">
        <ele>1002.2</ele>
        <time>2015-04-12T13:19:01Z</time>
      </trkpt>
      <trkpt lat="42.834641" lon="0.934469">
        <ele>1000.0</ele>
        <time>2015-04-12T13:19:13Z</time>
      </trkpt>
      <trkpt lat="42.834584" lon="0.934652">
        <ele>994.8</ele>
        <time>2015-04-12T13:19:48Z</time>
      </trkpt>
      <trkpt lat="42.834542" lon="0.934773">
        <ele>993.9</ele>
        <time>2015-04-12T13:20:05Z</time>
      </trkpt>
      <trkpt lat="42.834516" lon="0.934884">
        <ele>992.9</ele>
        <time>2015-04-12T13:20:13Z</time>
      </trkpt>
      <trkpt lat="42.834466" lon="0.934989">
        <ele>992.0</ele>
        <time>2015-04-12T13:20:28Z</time>
      </trkpt>
      <trkpt lat="42.834395" lon="0.935083">
        <ele>991.9</ele>
        <time>2015-04-12T13:20:40Z</time>
      </trkpt>
      <trkpt lat="42.834364" lon="0.935220">
        <ele>991.2</ele>
        <time>2015-04-12T13:20:50Z</time>
      </trkpt>
      <trkpt lat="42.834333" lon="0.935367">
        <ele>989.8</ele>
        <time>2015-04-12T13:21:00Z</time>
      </trkpt>
      <trkpt lat="42.834319" lon="0.935519">
        <ele>987.9</ele>
        <time>2015-04-12T13:21:10Z</time>
      </trkpt>
      <trkpt lat="42.834303" lon="0.935689">
        <ele>986.8</ele>
        <time>2015-04-12T13:21:20Z</time>
      </trkpt>
      <trkpt lat="42.834322" lon="0.935847">
        <ele>985.6</ele>
        <time>2015-04-12T13:21:29Z</time>
      </trkpt>
      <trkpt lat="42.834361" lon="0.935975">
        <ele>983.8</ele>
        <time>2015-04-12T13:21:38Z</time>
      </trkpt>
      <trkpt lat="42.834403" lon="0.936102">
        <ele>981.2</ele>
        <time>2015-04-12T13:21:50Z</time>
      </trkpt>
      <trkpt lat="42.834427" lon="0.936250">
        <ele>979.9</ele>
        <time>2015-04-12T13:21:59Z</time>
      </trkpt>
      <trkpt lat="42.834410" lon="0.936330">
        <ele>978.6</ele>
        <time>2015-04-12T13:22:15Z</time>
      </trkpt>
      <trkpt lat="42.834427" lon="0.936467">
        <ele>976.4</ele>
        <time>2015-04-12T13:22:27Z</time>
      </trkpt>
      <trkpt lat="42.834486" lon="0.936578">
        <ele>974.3</ele>
        <time>2015-04-12T13:22:35Z</time>
      </trkpt>
      <trkpt lat="42.834557" lon="0.936659">
        <ele>972.6</ele>
        <time>2015-04-12T13:22:43Z</time>
      </trkpt>
      <trkpt lat="42.834621" lon="0.936768">
        <ele>970.6</ele>
        <time>2015-04-12T13:22:52Z</time>
      </trkpt>
      <trkpt lat="42.834630" lon="0.936901">
        <ele>968.4</ele>
        <time>2015-04-12T13:23:03Z</time>
      </trkpt>
      <trkpt lat="42.834691" lon="0.937002">
        <ele>966.1</ele>
        <time>2015-04-12T13:23:14Z</time>
      </trkpt>
      <trkpt lat="42.834739" lon="0.937166">
        <ele>989.9</ele>
        <time>2015-04-12T13:26:26Z</time>
      </trkpt>
      <trkpt lat="42.834826" lon="0.937225">
        <ele>988.2</ele>
        <time>2015-04-12T13:26:34Z</time>
      </trkpt>
      <trkpt lat="42.834916" lon="0.937278">
        <ele>986.5</ele>
        <time>2015-04-12T13:26:42Z</time>
      </trkpt>
      <trkpt lat="42.835012" lon="0.937304">
        <ele>985.1</ele>
        <time>2015-04-12T13:26:50Z</time>
      </trkpt>
      <trkpt lat="42.835148" lon="0.937317">
        <ele>983.5</ele>
        <time>2015-04-12T13:27:01Z</time>
      </trkpt>
      <trkpt lat="42.835247" lon="0.937317">
        <ele>982.7</ele>
        <time>2015-04-12T13:27:09Z</time>
      </trkpt>
      <trkpt lat="42.835322" lon="0.937274">
        <ele>981.9</ele>
        <time>2015-04-12T13:27:18Z</time>
      </trkpt>
      <trkpt lat="42.835420" lon="0.937216">
        <ele>980.6</ele>
        <time>2015-04-12T13:27:28Z</time>
      </trkpt>
      <trkpt lat="42.835437" lon="0.937350">
        <ele>978.5</ele>
        <time>2015-04-12T13:27:41Z</time>
      </trkpt>
      <trkpt lat="42.835396" lon="0.937495">
        <ele>977.5</ele>
        <time>2015-04-12T13:27:50Z</time>
      </trkpt>
      <trkpt lat="42.835365" lon="0.937655">
        <ele>975.0</ele>
        <time>2015-04-12T13:28:01Z</time>
      </trkpt>
      <trkpt lat="42.835281" lon="0.937758">
        <ele>972.1</ele>
        <time>2015-04-12T13:28:12Z</time>
      </trkpt>
      <trkpt lat="42.835152" lon="0.937759">
        <ele>970.0</ele>
        <time>2015-04-12T13:28:23Z</time>
      </trkpt>
      <trkpt lat="42.835024" lon="0.937776">
        <ele>969.1</ele>
        <time>2015-04-12T13:28:34Z</time>
      </trkpt>
      <trkpt lat="42.834932" lon="0.937752">
        <ele>967.7</ele>
        <time>2015-04-12T13:28:42Z</time>
      </trkpt>
      <trkpt lat="42.834809" lon="0.937672">
        <ele>966.3</ele>
        <time>2015-04-12T13:28:55Z</time>
      </trkpt>
      <trkpt lat="42.834697" lon="0.937630">
        <ele>966.3</ele>
        <time>2015-04-12T13:29:25Z</time>
      </trkpt>
      <trkpt lat="42.834651" lon="0.937670">
        <ele>966.0</ele>
        <time>2015-04-12T13:30:01Z</time>
      </trkpt>
    </trkseg>
  </trk>
</gpx>

